<?xml version="1.0" encoding="UTF-8" standalone="no" ?>
<gpx xmlns="http://www.topografix.com/GPX/1/1" xmlns:xsi="http://www.w3.org/2001/XMLSchema-instance" xsi:schemaLocation="http://www.topografix.com/GPX/1/1 http://www.topografix.com/GPX/1/1/gpx.xsd" version="1.1" creator="VisuGPX - https://www.visugpx.com">
  <metadata>
    <name>trace chasseley/mont verdun</name>
    <desc><![CDATA[sortie vtt 
2 h - 600m d ]]></desc>
  </metadata>
  <trk>
    <name><![CDATA[Tracé 001]]></name>
    <trkseg>
      <trkpt lat="45.87253" lon="4.77163">
        <ele>249.12</ele>
        <time>2013-08-31T06:52:55Z</time>
      </trkpt>
      <trkpt lat="45.87251" lon="4.7714">
        <ele>248.16</ele>
        <time>2013-08-31T06:53:02Z</time>
      </trkpt>
      <trkpt lat="45.87237" lon="4.7714">
        <ele>248.64</ele>
        <time>2013-08-31T06:53:07Z</time>
      </trkpt>
      <trkpt lat="45.87227" lon="4.77142">
        <ele>249.6</ele>
        <time>2013-08-31T06:53:13Z</time>
      </trkpt>
      <trkpt lat="45.87221" lon="4.77139">
        <ele>250.08</ele>
        <time>2013-08-31T06:53:17Z</time>
      </trkpt>
      <trkpt lat="45.87218" lon="4.77138">
        <ele>249.6</ele>
        <time>2013-08-31T06:53:19Z</time>
      </trkpt>
      <trkpt lat="45.872" lon="4.77139">
        <ele>251.52</ele>
        <time>2013-08-31T06:53:29Z</time>
      </trkpt>
      <trkpt lat="45.87183" lon="4.77141">
        <ele>252.96</ele>
        <time>2013-08-31T06:53:38Z</time>
      </trkpt>
      <trkpt lat="45.87166" lon="4.77142">
        <ele>253.93</ele>
        <time>2013-08-31T06:53:46Z</time>
      </trkpt>
      <trkpt lat="45.87156" lon="4.77142">
        <ele>255.37</ele>
        <time>2013-08-31T06:53:51Z</time>
      </trkpt>
      <trkpt lat="45.87132" lon="4.77144">
        <ele>257.77</ele>
        <time>2013-08-31T06:54:03Z</time>
      </trkpt>
      <trkpt lat="45.87107" lon="4.77145">
        <ele>259.69</ele>
        <time>2013-08-31T06:54:15Z</time>
      </trkpt>
      <trkpt lat="45.87084" lon="4.77148">
        <ele>262.1</ele>
        <time>2013-08-31T06:54:26Z</time>
      </trkpt>
      <trkpt lat="45.8706" lon="4.77151">
        <ele>264.98</ele>
        <time>2013-08-31T06:54:38Z</time>
      </trkpt>
      <trkpt lat="45.87038" lon="4.77151">
        <ele>266.42</ele>
        <time>2013-08-31T06:54:49Z</time>
      </trkpt>
      <trkpt lat="45.87019" lon="4.77151">
        <ele>268.35</ele>
        <time>2013-08-31T06:54:59Z</time>
      </trkpt>
      <trkpt lat="45.86997" lon="4.77151">
        <ele>270.27</ele>
        <time>2013-08-31T06:55:10Z</time>
      </trkpt>
      <trkpt lat="45.86983" lon="4.77148">
        <ele>271.71</ele>
        <time>2013-08-31T06:55:17Z</time>
      </trkpt>
      <trkpt lat="45.8697" lon="4.77122">
        <ele>271.71</ele>
        <time>2013-08-31T06:55:26Z</time>
      </trkpt>
      <trkpt lat="45.86969" lon="4.77117">
        <ele>271.71</ele>
        <time>2013-08-31T06:55:27Z</time>
      </trkpt>
      <trkpt lat="45.86967" lon="4.77111">
        <ele>271.71</ele>
        <time>2013-08-31T06:55:28Z</time>
      </trkpt>
      <trkpt lat="45.86956" lon="4.77089">
        <ele>270.75</ele>
        <time>2013-08-31T06:55:32Z</time>
      </trkpt>
      <trkpt lat="45.86953" lon="4.77084">
        <ele>270.27</ele>
        <time>2013-08-31T06:55:33Z</time>
      </trkpt>
      <trkpt lat="45.86938" lon="4.77054">
        <ele>266.42</ele>
        <time>2013-08-31T06:55:39Z</time>
      </trkpt>
      <trkpt lat="45.86936" lon="4.77049">
        <ele>270.75</ele>
        <time>2013-08-31T06:55:40Z</time>
      </trkpt>
      <trkpt lat="45.86934" lon="4.77039">
        <ele>273.63</ele>
        <time>2013-08-31T06:55:42Z</time>
      </trkpt>
      <trkpt lat="45.86932" lon="4.7703">
        <ele>270.75</ele>
        <time>2013-08-31T06:55:44Z</time>
      </trkpt>
      <trkpt lat="45.86928" lon="4.76979">
        <ele>272.19</ele>
        <time>2013-08-31T06:55:56Z</time>
      </trkpt>
      <trkpt lat="45.86929" lon="4.76958">
        <ele>273.63</ele>
        <time>2013-08-31T06:56:03Z</time>
      </trkpt>
      <trkpt lat="45.86928" lon="4.76952">
        <ele>274.11</ele>
        <time>2013-08-31T06:56:05Z</time>
      </trkpt>
      <trkpt lat="45.86927" lon="4.7695">
        <ele>275.07</ele>
        <time>2013-08-31T06:56:06Z</time>
      </trkpt>
      <trkpt lat="45.86925" lon="4.76948">
        <ele>275.07</ele>
        <time>2013-08-31T06:56:07Z</time>
      </trkpt>
      <trkpt lat="45.86923" lon="4.76947">
        <ele>275.07</ele>
        <time>2013-08-31T06:56:08Z</time>
      </trkpt>
      <trkpt lat="45.86921" lon="4.76946">
        <ele>275.07</ele>
        <time>2013-08-31T06:56:09Z</time>
      </trkpt>
      <trkpt lat="45.8692" lon="4.76945">
        <ele>275.07</ele>
        <time>2013-08-31T06:56:10Z</time>
      </trkpt>
      <trkpt lat="45.86918" lon="4.76944">
        <ele>275.56</ele>
        <time>2013-08-31T06:56:11Z</time>
      </trkpt>
      <trkpt lat="45.86916" lon="4.76943">
        <ele>275.56</ele>
        <time>2013-08-31T06:56:12Z</time>
      </trkpt>
      <trkpt lat="45.86898" lon="4.76932">
        <ele>278.44</ele>
        <time>2013-08-31T06:56:24Z</time>
      </trkpt>
      <trkpt lat="45.8688" lon="4.76921">
        <ele>279.88</ele>
        <time>2013-08-31T06:56:35Z</time>
      </trkpt>
      <trkpt lat="45.86859" lon="4.76911">
        <ele>281.32</ele>
        <time>2013-08-31T06:56:46Z</time>
      </trkpt>
      <trkpt lat="45.86839" lon="4.76904">
        <ele>282.77</ele>
        <time>2013-08-31T06:56:57Z</time>
      </trkpt>
      <trkpt lat="45.86813" lon="4.76896">
        <ele>285.65</ele>
        <time>2013-08-31T06:57:11Z</time>
      </trkpt>
      <trkpt lat="45.86796" lon="4.76883">
        <ele>288.05</ele>
        <time>2013-08-31T06:57:21Z</time>
      </trkpt>
      <trkpt lat="45.8677" lon="4.76863">
        <ele>290.46</ele>
        <time>2013-08-31T06:57:36Z</time>
      </trkpt>
      <trkpt lat="45.86761" lon="4.76843">
        <ele>291.42</ele>
        <time>2013-08-31T06:57:45Z</time>
      </trkpt>
      <trkpt lat="45.86753" lon="4.76818">
        <ele>292.86</ele>
        <time>2013-08-31T06:57:55Z</time>
      </trkpt>
      <trkpt lat="45.86738" lon="4.768">
        <ele>294.78</ele>
        <time>2013-08-31T06:58:05Z</time>
      </trkpt>
      <trkpt lat="45.86719" lon="4.768">
        <ele>295.74</ele>
        <time>2013-08-31T06:58:14Z</time>
      </trkpt>
      <trkpt lat="45.86707" lon="4.76805">
        <ele>297.18</ele>
        <time>2013-08-31T06:58:24Z</time>
      </trkpt>
      <trkpt lat="45.86706" lon="4.76805">
        <ele>297.67</ele>
        <time>2013-08-31T06:58:34Z</time>
      </trkpt>
      <trkpt lat="45.86706" lon="4.76807">
        <ele>298.15</ele>
        <time>2013-08-31T06:58:43Z</time>
      </trkpt>
      <trkpt lat="45.86703" lon="4.76808">
        <ele>297.67</ele>
        <time>2013-08-31T06:58:56Z</time>
      </trkpt>
      <trkpt lat="45.867" lon="4.76811">
        <ele>298.15</ele>
        <time>2013-08-31T06:58:59Z</time>
      </trkpt>
      <trkpt lat="45.86698" lon="4.76811">
        <ele>298.15</ele>
        <time>2013-08-31T06:59:00Z</time>
      </trkpt>
      <trkpt lat="45.86697" lon="4.76811">
        <ele>298.63</ele>
        <time>2013-08-31T06:59:01Z</time>
      </trkpt>
      <trkpt lat="45.86696" lon="4.76812">
        <ele>299.11</ele>
        <time>2013-08-31T06:59:02Z</time>
      </trkpt>
      <trkpt lat="45.86694" lon="4.76813">
        <ele>299.11</ele>
        <time>2013-08-31T06:59:03Z</time>
      </trkpt>
      <trkpt lat="45.86676" lon="4.76827">
        <ele>301.51</ele>
        <time>2013-08-31T06:59:14Z</time>
      </trkpt>
      <trkpt lat="45.86658" lon="4.76841">
        <ele>302.47</ele>
        <time>2013-08-31T06:59:26Z</time>
      </trkpt>
      <trkpt lat="45.86651" lon="4.76852">
        <ele>302.47</ele>
        <time>2013-08-31T06:59:32Z</time>
      </trkpt>
      <trkpt lat="45.86649" lon="4.76853">
        <ele>303.43</ele>
        <time>2013-08-31T06:59:33Z</time>
      </trkpt>
      <trkpt lat="45.86647" lon="4.76854">
        <ele>303.43</ele>
        <time>2013-08-31T06:59:34Z</time>
      </trkpt>
      <trkpt lat="45.86628" lon="4.76869">
        <ele>304.88</ele>
        <time>2013-08-31T06:59:46Z</time>
      </trkpt>
      <trkpt lat="45.86611" lon="4.76882">
        <ele>306.32</ele>
        <time>2013-08-31T06:59:58Z</time>
      </trkpt>
      <trkpt lat="45.86596" lon="4.76895">
        <ele>307.76</ele>
        <time>2013-08-31T07:00:08Z</time>
      </trkpt>
      <trkpt lat="45.86595" lon="4.76896">
        <ele>307.76</ele>
        <time>2013-08-31T07:00:09Z</time>
      </trkpt>
      <trkpt lat="45.86578" lon="4.7691">
        <ele>309.68</ele>
        <time>2013-08-31T07:00:22Z</time>
      </trkpt>
      <trkpt lat="45.86566" lon="4.76918">
        <ele>311.6</ele>
        <time>2013-08-31T07:00:31Z</time>
      </trkpt>
      <trkpt lat="45.86552" lon="4.7693">
        <ele>314.49</ele>
        <time>2013-08-31T07:00:43Z</time>
      </trkpt>
      <trkpt lat="45.86541" lon="4.76939">
        <ele>316.41</ele>
        <time>2013-08-31T07:00:53Z</time>
      </trkpt>
      <trkpt lat="45.86529" lon="4.76949">
        <ele>317.37</ele>
        <time>2013-08-31T07:01:03Z</time>
      </trkpt>
      <trkpt lat="45.86527" lon="4.76952">
        <ele>317.85</ele>
        <time>2013-08-31T07:01:05Z</time>
      </trkpt>
      <trkpt lat="45.86515" lon="4.7696">
        <ele>318.81</ele>
        <time>2013-08-31T07:01:15Z</time>
      </trkpt>
      <trkpt lat="45.86513" lon="4.76961">
        <ele>319.3</ele>
        <time>2013-08-31T07:01:16Z</time>
      </trkpt>
      <trkpt lat="45.86495" lon="4.76968">
        <ele>320.74</ele>
        <time>2013-08-31T07:01:30Z</time>
      </trkpt>
      <trkpt lat="45.86486" lon="4.7697">
        <ele>322.18</ele>
        <time>2013-08-31T07:01:36Z</time>
      </trkpt>
      <trkpt lat="45.86476" lon="4.76969">
        <ele>323.62</ele>
        <time>2013-08-31T07:01:45Z</time>
      </trkpt>
      <trkpt lat="45.86462" lon="4.76968">
        <ele>326.99</ele>
        <time>2013-08-31T07:01:57Z</time>
      </trkpt>
      <trkpt lat="45.86453" lon="4.76966">
        <ele>327.95</ele>
        <time>2013-08-31T07:02:05Z</time>
      </trkpt>
      <trkpt lat="45.86442" lon="4.76964">
        <ele>329.39</ele>
        <time>2013-08-31T07:02:14Z</time>
      </trkpt>
      <trkpt lat="45.86431" lon="4.7696">
        <ele>331.31</ele>
        <time>2013-08-31T07:02:24Z</time>
      </trkpt>
      <trkpt lat="45.86429" lon="4.76958">
        <ele>331.79</ele>
        <time>2013-08-31T07:02:36Z</time>
      </trkpt>
      <trkpt lat="45.86424" lon="4.76954">
        <ele>332.75</ele>
        <time>2013-08-31T07:02:47Z</time>
      </trkpt>
      <trkpt lat="45.86422" lon="4.76952">
        <ele>332.75</ele>
        <time>2013-08-31T07:03:02Z</time>
      </trkpt>
      <trkpt lat="45.86414" lon="4.76945">
        <ele>333.71</ele>
        <time>2013-08-31T07:03:13Z</time>
      </trkpt>
      <trkpt lat="45.86407" lon="4.76939">
        <ele>335.16</ele>
        <time>2013-08-31T07:03:23Z</time>
      </trkpt>
      <trkpt lat="45.86407" lon="4.76939">
        <ele>334.68</ele>
        <time>2013-08-31T07:03:38Z</time>
      </trkpt>
      <trkpt lat="45.86398" lon="4.76933">
        <ele>336.12</ele>
        <time>2013-08-31T07:03:49Z</time>
      </trkpt>
      <trkpt lat="45.86387" lon="4.76926">
        <ele>337.56</ele>
        <time>2013-08-31T07:04:01Z</time>
      </trkpt>
      <trkpt lat="45.86375" lon="4.76923">
        <ele>338.52</ele>
        <time>2013-08-31T07:04:12Z</time>
      </trkpt>
      <trkpt lat="45.86366" lon="4.7692">
        <ele>338.52</ele>
        <time>2013-08-31T07:04:25Z</time>
      </trkpt>
      <trkpt lat="45.86356" lon="4.76918">
        <ele>339.48</ele>
        <time>2013-08-31T07:04:34Z</time>
      </trkpt>
      <trkpt lat="45.86335" lon="4.76914">
        <ele>339</ele>
        <time>2013-08-31T07:04:46Z</time>
      </trkpt>
      <trkpt lat="45.86305" lon="4.76914">
        <ele>340.92</ele>
        <time>2013-08-31T07:05:00Z</time>
      </trkpt>
      <trkpt lat="45.86271" lon="4.76912">
        <ele>341.89</ele>
        <time>2013-08-31T07:05:14Z</time>
      </trkpt>
      <trkpt lat="45.86244" lon="4.76908">
        <ele>341.89</ele>
        <time>2013-08-31T07:05:25Z</time>
      </trkpt>
      <trkpt lat="45.86215" lon="4.7691">
        <ele>342.85</ele>
        <time>2013-08-31T07:05:38Z</time>
      </trkpt>
      <trkpt lat="45.86181" lon="4.76931">
        <ele>343.81</ele>
        <time>2013-08-31T07:05:54Z</time>
      </trkpt>
      <trkpt lat="45.86162" lon="4.76943">
        <ele>344.77</ele>
        <time>2013-08-31T07:06:03Z</time>
      </trkpt>
      <trkpt lat="45.86139" lon="4.76951">
        <ele>345.73</ele>
        <time>2013-08-31T07:06:14Z</time>
      </trkpt>
      <trkpt lat="45.86116" lon="4.7696">
        <ele>348.62</ele>
        <time>2013-08-31T07:06:26Z</time>
      </trkpt>
      <trkpt lat="45.861" lon="4.76968">
        <ele>350.54</ele>
        <time>2013-08-31T07:06:36Z</time>
      </trkpt>
      <trkpt lat="45.86083" lon="4.76978">
        <ele>351.98</ele>
        <time>2013-08-31T07:06:47Z</time>
      </trkpt>
      <trkpt lat="45.86078" lon="4.76979">
        <ele>353.42</ele>
        <time>2013-08-31T07:06:50Z</time>
      </trkpt>
      <trkpt lat="45.86064" lon="4.76985">
        <ele>355.34</ele>
        <time>2013-08-31T07:07:00Z</time>
      </trkpt>
      <trkpt lat="45.86051" lon="4.76992">
        <ele>357.75</ele>
        <time>2013-08-31T07:07:11Z</time>
      </trkpt>
      <trkpt lat="45.86038" lon="4.76995">
        <ele>357.75</ele>
        <time>2013-08-31T07:07:20Z</time>
      </trkpt>
      <trkpt lat="45.86022" lon="4.77">
        <ele>358.71</ele>
        <time>2013-08-31T07:07:30Z</time>
      </trkpt>
      <trkpt lat="45.86005" lon="4.77002">
        <ele>359.67</ele>
        <time>2013-08-31T07:07:39Z</time>
      </trkpt>
      <trkpt lat="45.86004" lon="4.77002">
        <ele>359.67</ele>
        <time>2013-08-31T07:07:40Z</time>
      </trkpt>
      <trkpt lat="45.86002" lon="4.77002">
        <ele>359.67</ele>
        <time>2013-08-31T07:07:41Z</time>
      </trkpt>
      <trkpt lat="45.86001" lon="4.77001">
        <ele>360.15</ele>
        <time>2013-08-31T07:07:42Z</time>
      </trkpt>
      <trkpt lat="45.85989" lon="4.77001">
        <ele>360.63</ele>
        <time>2013-08-31T07:07:50Z</time>
      </trkpt>
      <trkpt lat="45.85976" lon="4.77009">
        <ele>362.07</ele>
        <time>2013-08-31T07:08:00Z</time>
      </trkpt>
      <trkpt lat="45.85974" lon="4.77009">
        <ele>362.07</ele>
        <time>2013-08-31T07:08:01Z</time>
      </trkpt>
      <trkpt lat="45.85973" lon="4.7701">
        <ele>362.07</ele>
        <time>2013-08-31T07:08:02Z</time>
      </trkpt>
      <trkpt lat="45.85966" lon="4.77017">
        <ele>363.52</ele>
        <time>2013-08-31T07:08:08Z</time>
      </trkpt>
      <trkpt lat="45.85954" lon="4.77024">
        <ele>364</ele>
        <time>2013-08-31T07:08:17Z</time>
      </trkpt>
      <trkpt lat="45.85951" lon="4.77025">
        <ele>364.96</ele>
        <time>2013-08-31T07:08:19Z</time>
      </trkpt>
      <trkpt lat="45.8595" lon="4.77027">
        <ele>364.96</ele>
        <time>2013-08-31T07:08:20Z</time>
      </trkpt>
      <trkpt lat="45.85946" lon="4.77029">
        <ele>366.4</ele>
        <time>2013-08-31T07:08:30Z</time>
      </trkpt>
      <trkpt lat="45.85939" lon="4.77032">
        <ele>366.4</ele>
        <time>2013-08-31T07:08:33Z</time>
      </trkpt>
      <trkpt lat="45.85927" lon="4.77033">
        <ele>366.4</ele>
        <time>2013-08-31T07:08:38Z</time>
      </trkpt>
      <trkpt lat="45.85917" lon="4.77014">
        <ele>367.36</ele>
        <time>2013-08-31T07:08:46Z</time>
      </trkpt>
      <trkpt lat="45.85911" lon="4.76988">
        <ele>367.84</ele>
        <time>2013-08-31T07:08:55Z</time>
      </trkpt>
      <trkpt lat="45.859" lon="4.76957">
        <ele>368.32</ele>
        <time>2013-08-31T07:09:04Z</time>
      </trkpt>
      <trkpt lat="45.85879" lon="4.76946">
        <ele>369.76</ele>
        <time>2013-08-31T07:09:14Z</time>
      </trkpt>
      <trkpt lat="45.85874" lon="4.76947">
        <ele>370.24</ele>
        <time>2013-08-31T07:09:17Z</time>
      </trkpt>
      <trkpt lat="45.85852" lon="4.76946">
        <ele>372.17</ele>
        <time>2013-08-31T07:09:28Z</time>
      </trkpt>
      <trkpt lat="45.85836" lon="4.76949">
        <ele>373.61</ele>
        <time>2013-08-31T07:09:37Z</time>
      </trkpt>
      <trkpt lat="45.85818" lon="4.76954">
        <ele>374.57</ele>
        <time>2013-08-31T07:09:47Z</time>
      </trkpt>
      <trkpt lat="45.85802" lon="4.76958">
        <ele>375.53</ele>
        <time>2013-08-31T07:09:57Z</time>
      </trkpt>
      <trkpt lat="45.858" lon="4.76958">
        <ele>376.97</ele>
        <time>2013-08-31T07:09:58Z</time>
      </trkpt>
      <trkpt lat="45.85784" lon="4.76959">
        <ele>377.45</ele>
        <time>2013-08-31T07:10:08Z</time>
      </trkpt>
      <trkpt lat="45.85783" lon="4.76959">
        <ele>377.94</ele>
        <time>2013-08-31T07:10:09Z</time>
      </trkpt>
      <trkpt lat="45.85781" lon="4.76958">
        <ele>377.94</ele>
        <time>2013-08-31T07:10:10Z</time>
      </trkpt>
      <trkpt lat="45.85766" lon="4.76958">
        <ele>379.38</ele>
        <time>2013-08-31T07:10:20Z</time>
      </trkpt>
      <trkpt lat="45.85763" lon="4.76957">
        <ele>379.86</ele>
        <time>2013-08-31T07:10:22Z</time>
      </trkpt>
      <trkpt lat="45.85762" lon="4.76956">
        <ele>379.86</ele>
        <time>2013-08-31T07:10:23Z</time>
      </trkpt>
      <trkpt lat="45.8576" lon="4.76956">
        <ele>380.34</ele>
        <time>2013-08-31T07:10:24Z</time>
      </trkpt>
      <trkpt lat="45.85758" lon="4.76956">
        <ele>379.86</ele>
        <time>2013-08-31T07:10:25Z</time>
      </trkpt>
      <trkpt lat="45.85756" lon="4.76956">
        <ele>380.34</ele>
        <time>2013-08-31T07:10:26Z</time>
      </trkpt>
      <trkpt lat="45.85755" lon="4.76956">
        <ele>380.34</ele>
        <time>2013-08-31T07:10:27Z</time>
      </trkpt>
      <trkpt lat="45.85751" lon="4.76958">
        <ele>380.34</ele>
        <time>2013-08-31T07:10:30Z</time>
      </trkpt>
      <trkpt lat="45.85749" lon="4.76959">
        <ele>380.34</ele>
        <time>2013-08-31T07:10:31Z</time>
      </trkpt>
      <trkpt lat="45.85748" lon="4.76959">
        <ele>380.82</ele>
        <time>2013-08-31T07:10:32Z</time>
      </trkpt>
      <trkpt lat="45.85746" lon="4.7696">
        <ele>380.34</ele>
        <time>2013-08-31T07:10:33Z</time>
      </trkpt>
      <trkpt lat="45.85744" lon="4.7696">
        <ele>381.3</ele>
        <time>2013-08-31T07:10:34Z</time>
      </trkpt>
      <trkpt lat="45.85742" lon="4.7696">
        <ele>381.3</ele>
        <time>2013-08-31T07:10:35Z</time>
      </trkpt>
      <trkpt lat="45.8574" lon="4.7696">
        <ele>381.3</ele>
        <time>2013-08-31T07:10:36Z</time>
      </trkpt>
      <trkpt lat="45.85738" lon="4.76959">
        <ele>381.3</ele>
        <time>2013-08-31T07:10:37Z</time>
      </trkpt>
      <trkpt lat="45.85725" lon="4.76958">
        <ele>381.78</ele>
        <time>2013-08-31T07:10:45Z</time>
      </trkpt>
      <trkpt lat="45.85702" lon="4.76967">
        <ele>381.78</ele>
        <time>2013-08-31T07:10:54Z</time>
      </trkpt>
      <trkpt lat="45.85694" lon="4.76971">
        <ele>381.78</ele>
        <time>2013-08-31T07:10:57Z</time>
      </trkpt>
      <trkpt lat="45.85692" lon="4.76972">
        <ele>381.78</ele>
        <time>2013-08-31T07:10:58Z</time>
      </trkpt>
      <trkpt lat="45.8569" lon="4.76974">
        <ele>381.78</ele>
        <time>2013-08-31T07:10:59Z</time>
      </trkpt>
      <trkpt lat="45.85688" lon="4.76975">
        <ele>381.78</ele>
        <time>2013-08-31T07:11:00Z</time>
      </trkpt>
      <trkpt lat="45.85685" lon="4.76976">
        <ele>376.97</ele>
        <time>2013-08-31T07:11:01Z</time>
      </trkpt>
      <trkpt lat="45.85682" lon="4.76977">
        <ele>382.26</ele>
        <time>2013-08-31T07:11:02Z</time>
      </trkpt>
      <trkpt lat="45.85656" lon="4.7698">
        <ele>381.3</ele>
        <time>2013-08-31T07:11:10Z</time>
      </trkpt>
      <trkpt lat="45.85651" lon="4.7698">
        <ele>381.3</ele>
        <time>2013-08-31T07:11:11Z</time>
      </trkpt>
      <trkpt lat="45.85619" lon="4.76982">
        <ele>379.38</ele>
        <time>2013-08-31T07:11:18Z</time>
      </trkpt>
      <trkpt lat="45.85614" lon="4.76982">
        <ele>379.38</ele>
        <time>2013-08-31T07:11:19Z</time>
      </trkpt>
      <trkpt lat="45.8561" lon="4.76984">
        <ele>379.86</ele>
        <time>2013-08-31T07:11:20Z</time>
      </trkpt>
      <trkpt lat="45.85601" lon="4.7699">
        <ele>378.9</ele>
        <time>2013-08-31T07:11:22Z</time>
      </trkpt>
      <trkpt lat="45.85596" lon="4.76993">
        <ele>379.38</ele>
        <time>2013-08-31T07:11:23Z</time>
      </trkpt>
      <trkpt lat="45.85591" lon="4.76995">
        <ele>378.42</ele>
        <time>2013-08-31T07:11:24Z</time>
      </trkpt>
      <trkpt lat="45.85586" lon="4.76994">
        <ele>377.94</ele>
        <time>2013-08-31T07:11:25Z</time>
      </trkpt>
      <trkpt lat="45.85581" lon="4.76993">
        <ele>378.42</ele>
        <time>2013-08-31T07:11:26Z</time>
      </trkpt>
      <trkpt lat="45.85576" lon="4.7699">
        <ele>378.9</ele>
        <time>2013-08-31T07:11:27Z</time>
      </trkpt>
      <trkpt lat="45.85572" lon="4.76986">
        <ele>378.42</ele>
        <time>2013-08-31T07:11:28Z</time>
      </trkpt>
      <trkpt lat="45.85569" lon="4.76981">
        <ele>378.42</ele>
        <time>2013-08-31T07:11:29Z</time>
      </trkpt>
      <trkpt lat="45.85566" lon="4.76975">
        <ele>377.94</ele>
        <time>2013-08-31T07:11:30Z</time>
      </trkpt>
      <trkpt lat="45.85564" lon="4.76968">
        <ele>378.42</ele>
        <time>2013-08-31T07:11:31Z</time>
      </trkpt>
      <trkpt lat="45.85562" lon="4.76961">
        <ele>378.42</ele>
        <time>2013-08-31T07:11:32Z</time>
      </trkpt>
      <trkpt lat="45.85561" lon="4.76956">
        <ele>378.42</ele>
        <time>2013-08-31T07:11:33Z</time>
      </trkpt>
      <trkpt lat="45.85561" lon="4.76951">
        <ele>378.42</ele>
        <time>2013-08-31T07:11:34Z</time>
      </trkpt>
      <trkpt lat="45.8556" lon="4.76943">
        <ele>378.9</ele>
        <time>2013-08-31T07:11:36Z</time>
      </trkpt>
      <trkpt lat="45.85561" lon="4.76938">
        <ele>378.42</ele>
        <time>2013-08-31T07:11:37Z</time>
      </trkpt>
      <trkpt lat="45.85571" lon="4.76898">
        <ele>380.82</ele>
        <time>2013-08-31T07:11:46Z</time>
      </trkpt>
      <trkpt lat="45.85577" lon="4.76866">
        <ele>382.26</ele>
        <time>2013-08-31T07:11:55Z</time>
      </trkpt>
      <trkpt lat="45.85578" lon="4.76831">
        <ele>384.66</ele>
        <time>2013-08-31T07:12:05Z</time>
      </trkpt>
      <trkpt lat="45.85559" lon="4.76814">
        <ele>386.59</ele>
        <time>2013-08-31T07:12:15Z</time>
      </trkpt>
      <trkpt lat="45.85542" lon="4.76805">
        <ele>387.07</ele>
        <time>2013-08-31T07:12:24Z</time>
      </trkpt>
      <trkpt lat="45.85519" lon="4.76792">
        <ele>388.03</ele>
        <time>2013-08-31T07:12:35Z</time>
      </trkpt>
      <trkpt lat="45.855" lon="4.76783">
        <ele>388.99</ele>
        <time>2013-08-31T07:12:45Z</time>
      </trkpt>
      <trkpt lat="45.85482" lon="4.76773">
        <ele>389.95</ele>
        <time>2013-08-31T07:12:55Z</time>
      </trkpt>
      <trkpt lat="45.85476" lon="4.76768">
        <ele>390.43</ele>
        <time>2013-08-31T07:12:59Z</time>
      </trkpt>
      <trkpt lat="45.85474" lon="4.76767">
        <ele>390.43</ele>
        <time>2013-08-31T07:13:00Z</time>
      </trkpt>
      <trkpt lat="45.85473" lon="4.76766">
        <ele>389.95</ele>
        <time>2013-08-31T07:13:01Z</time>
      </trkpt>
      <trkpt lat="45.8547" lon="4.76767">
        <ele>390.43</ele>
        <time>2013-08-31T07:13:03Z</time>
      </trkpt>
      <trkpt lat="45.85469" lon="4.76768">
        <ele>390.43</ele>
        <time>2013-08-31T07:13:04Z</time>
      </trkpt>
      <trkpt lat="45.85467" lon="4.76769">
        <ele>390.91</ele>
        <time>2013-08-31T07:13:05Z</time>
      </trkpt>
      <trkpt lat="45.85465" lon="4.76768">
        <ele>390.91</ele>
        <time>2013-08-31T07:13:07Z</time>
      </trkpt>
      <trkpt lat="45.85463" lon="4.76767">
        <ele>390.91</ele>
        <time>2013-08-31T07:13:08Z</time>
      </trkpt>
      <trkpt lat="45.85461" lon="4.76767">
        <ele>391.39</ele>
        <time>2013-08-31T07:13:09Z</time>
      </trkpt>
      <trkpt lat="45.85435" lon="4.76767">
        <ele>392.84</ele>
        <time>2013-08-31T07:13:20Z</time>
      </trkpt>
      <trkpt lat="45.8542" lon="4.76768">
        <ele>394.28</ele>
        <time>2013-08-31T07:13:27Z</time>
      </trkpt>
      <trkpt lat="45.85404" lon="4.76766">
        <ele>396.2</ele>
        <time>2013-08-31T07:13:36Z</time>
      </trkpt>
      <trkpt lat="45.85399" lon="4.76766">
        <ele>396.68</ele>
        <time>2013-08-31T07:13:39Z</time>
      </trkpt>
      <trkpt lat="45.85391" lon="4.76767">
        <ele>397.64</ele>
        <time>2013-08-31T07:13:44Z</time>
      </trkpt>
      <trkpt lat="45.8539" lon="4.76766">
        <ele>397.64</ele>
        <time>2013-08-31T07:13:45Z</time>
      </trkpt>
      <trkpt lat="45.85385" lon="4.76767">
        <ele>397.64</ele>
        <time>2013-08-31T07:13:48Z</time>
      </trkpt>
      <trkpt lat="45.85383" lon="4.76767">
        <ele>398.6</ele>
        <time>2013-08-31T07:13:50Z</time>
      </trkpt>
      <trkpt lat="45.85381" lon="4.76767">
        <ele>399.08</ele>
        <time>2013-08-31T07:13:51Z</time>
      </trkpt>
      <trkpt lat="45.85379" lon="4.76767">
        <ele>398.6</ele>
        <time>2013-08-31T07:13:52Z</time>
      </trkpt>
      <trkpt lat="45.85374" lon="4.76766">
        <ele>399.57</ele>
        <time>2013-08-31T07:13:56Z</time>
      </trkpt>
      <trkpt lat="45.85373" lon="4.76767">
        <ele>399.57</ele>
        <time>2013-08-31T07:13:57Z</time>
      </trkpt>
      <trkpt lat="45.85361" lon="4.76772">
        <ele>400.53</ele>
        <time>2013-08-31T07:14:04Z</time>
      </trkpt>
      <trkpt lat="45.85357" lon="4.76778">
        <ele>400.53</ele>
        <time>2013-08-31T07:14:08Z</time>
      </trkpt>
      <trkpt lat="45.85356" lon="4.7678">
        <ele>401.49</ele>
        <time>2013-08-31T07:14:09Z</time>
      </trkpt>
      <trkpt lat="45.85356" lon="4.76782">
        <ele>401.01</ele>
        <time>2013-08-31T07:14:10Z</time>
      </trkpt>
      <trkpt lat="45.85355" lon="4.76785">
        <ele>401.49</ele>
        <time>2013-08-31T07:14:11Z</time>
      </trkpt>
      <trkpt lat="45.85355" lon="4.76787">
        <ele>401.97</ele>
        <time>2013-08-31T07:14:12Z</time>
      </trkpt>
      <trkpt lat="45.85353" lon="4.76796">
        <ele>402.45</ele>
        <time>2013-08-31T07:14:17Z</time>
      </trkpt>
      <trkpt lat="45.85353" lon="4.76798">
        <ele>401.97</ele>
        <time>2013-08-31T07:14:18Z</time>
      </trkpt>
      <trkpt lat="45.85353" lon="4.76801">
        <ele>402.45</ele>
        <time>2013-08-31T07:14:19Z</time>
      </trkpt>
      <trkpt lat="45.85353" lon="4.76808">
        <ele>402.93</ele>
        <time>2013-08-31T07:14:22Z</time>
      </trkpt>
      <trkpt lat="45.8535" lon="4.76825">
        <ele>404.37</ele>
        <time>2013-08-31T07:14:31Z</time>
      </trkpt>
      <trkpt lat="45.85349" lon="4.76827">
        <ele>404.37</ele>
        <time>2013-08-31T07:14:32Z</time>
      </trkpt>
      <trkpt lat="45.85345" lon="4.76832">
        <ele>404.85</ele>
        <time>2013-08-31T07:14:36Z</time>
      </trkpt>
      <trkpt lat="45.85342" lon="4.7684">
        <ele>404.85</ele>
        <time>2013-08-31T07:14:42Z</time>
      </trkpt>
      <trkpt lat="45.85338" lon="4.76848">
        <ele>405.33</ele>
        <time>2013-08-31T07:14:47Z</time>
      </trkpt>
      <trkpt lat="45.85336" lon="4.7685">
        <ele>405.81</ele>
        <time>2013-08-31T07:14:49Z</time>
      </trkpt>
      <trkpt lat="45.85334" lon="4.76851">
        <ele>405.81</ele>
        <time>2013-08-31T07:14:50Z</time>
      </trkpt>
      <trkpt lat="45.85333" lon="4.76853">
        <ele>405.81</ele>
        <time>2013-08-31T07:14:51Z</time>
      </trkpt>
      <trkpt lat="45.8533" lon="4.76855">
        <ele>405.81</ele>
        <time>2013-08-31T07:14:52Z</time>
      </trkpt>
      <trkpt lat="45.85329" lon="4.76856">
        <ele>405.81</ele>
        <time>2013-08-31T07:14:53Z</time>
      </trkpt>
      <trkpt lat="45.85327" lon="4.76858">
        <ele>405.81</ele>
        <time>2013-08-31T07:14:54Z</time>
      </trkpt>
      <trkpt lat="45.85313" lon="4.76878">
        <ele>406.29</ele>
        <time>2013-08-31T07:15:03Z</time>
      </trkpt>
      <trkpt lat="45.85299" lon="4.76901">
        <ele>406.29</ele>
        <time>2013-08-31T07:15:13Z</time>
      </trkpt>
      <trkpt lat="45.8529" lon="4.76914">
        <ele>406.77</ele>
        <time>2013-08-31T07:15:21Z</time>
      </trkpt>
      <trkpt lat="45.85289" lon="4.76917">
        <ele>407.26</ele>
        <time>2013-08-31T07:15:22Z</time>
      </trkpt>
      <trkpt lat="45.8528" lon="4.76925">
        <ele>407.26</ele>
        <time>2013-08-31T07:15:26Z</time>
      </trkpt>
      <trkpt lat="45.85276" lon="4.76928">
        <ele>407.74</ele>
        <time>2013-08-31T07:15:29Z</time>
      </trkpt>
      <trkpt lat="45.85269" lon="4.76927">
        <ele>407.74</ele>
        <time>2013-08-31T07:15:34Z</time>
      </trkpt>
      <trkpt lat="45.85263" lon="4.76921">
        <ele>408.22</ele>
        <time>2013-08-31T07:15:38Z</time>
      </trkpt>
      <trkpt lat="45.85248" lon="4.76913">
        <ele>409.18</ele>
        <time>2013-08-31T07:15:46Z</time>
      </trkpt>
      <trkpt lat="45.85234" lon="4.76897">
        <ele>410.62</ele>
        <time>2013-08-31T07:15:57Z</time>
      </trkpt>
      <trkpt lat="45.85231" lon="4.76896">
        <ele>411.1</ele>
        <time>2013-08-31T07:15:59Z</time>
      </trkpt>
      <trkpt lat="45.85227" lon="4.76893">
        <ele>411.58</ele>
        <time>2013-08-31T07:16:02Z</time>
      </trkpt>
      <trkpt lat="45.85218" lon="4.76891">
        <ele>412.06</ele>
        <time>2013-08-31T07:16:06Z</time>
      </trkpt>
      <trkpt lat="45.85209" lon="4.76891">
        <ele>412.54</ele>
        <time>2013-08-31T07:16:10Z</time>
      </trkpt>
      <trkpt lat="45.85196" lon="4.76892">
        <ele>414.95</ele>
        <time>2013-08-31T07:16:19Z</time>
      </trkpt>
      <trkpt lat="45.85195" lon="4.76892">
        <ele>414.95</ele>
        <time>2013-08-31T07:16:20Z</time>
      </trkpt>
      <trkpt lat="45.85182" lon="4.76894">
        <ele>415.91</ele>
        <time>2013-08-31T07:16:29Z</time>
      </trkpt>
      <trkpt lat="45.85175" lon="4.76894">
        <ele>416.87</ele>
        <time>2013-08-31T07:16:35Z</time>
      </trkpt>
      <trkpt lat="45.85162" lon="4.76897">
        <ele>417.83</ele>
        <time>2013-08-31T07:16:45Z</time>
      </trkpt>
      <trkpt lat="45.8515" lon="4.76897">
        <ele>419.75</ele>
        <time>2013-08-31T07:16:55Z</time>
      </trkpt>
      <trkpt lat="45.85147" lon="4.76896">
        <ele>419.27</ele>
        <time>2013-08-31T07:16:57Z</time>
      </trkpt>
      <trkpt lat="45.85135" lon="4.76896">
        <ele>420.23</ele>
        <time>2013-08-31T07:17:05Z</time>
      </trkpt>
      <trkpt lat="45.85131" lon="4.76896">
        <ele>421.19</ele>
        <time>2013-08-31T07:17:08Z</time>
      </trkpt>
      <trkpt lat="45.85126" lon="4.76897">
        <ele>421.68</ele>
        <time>2013-08-31T07:17:12Z</time>
      </trkpt>
      <trkpt lat="45.85116" lon="4.76904">
        <ele>423.12</ele>
        <time>2013-08-31T07:17:22Z</time>
      </trkpt>
      <trkpt lat="45.85115" lon="4.76906">
        <ele>423.12</ele>
        <time>2013-08-31T07:17:23Z</time>
      </trkpt>
      <trkpt lat="45.85101" lon="4.76921">
        <ele>425.04</ele>
        <time>2013-08-31T07:17:34Z</time>
      </trkpt>
      <trkpt lat="45.85099" lon="4.76922">
        <ele>425.52</ele>
        <time>2013-08-31T07:17:35Z</time>
      </trkpt>
      <trkpt lat="45.85082" lon="4.76946">
        <ele>426.96</ele>
        <time>2013-08-31T07:17:45Z</time>
      </trkpt>
      <trkpt lat="45.85079" lon="4.76963">
        <ele>427.92</ele>
        <time>2013-08-31T07:17:52Z</time>
      </trkpt>
      <trkpt lat="45.8508" lon="4.77001">
        <ele>429.37</ele>
        <time>2013-08-31T07:18:06Z</time>
      </trkpt>
      <trkpt lat="45.85081" lon="4.77025">
        <ele>430.81</ele>
        <time>2013-08-31T07:18:16Z</time>
      </trkpt>
      <trkpt lat="45.85074" lon="4.77044">
        <ele>431.29</ele>
        <time>2013-08-31T07:18:26Z</time>
      </trkpt>
      <trkpt lat="45.85061" lon="4.77068">
        <ele>433.69</ele>
        <time>2013-08-31T07:18:39Z</time>
      </trkpt>
      <trkpt lat="45.85052" lon="4.77085">
        <ele>434.17</ele>
        <time>2013-08-31T07:18:49Z</time>
      </trkpt>
      <trkpt lat="45.8504" lon="4.77099">
        <ele>435.13</ele>
        <time>2013-08-31T07:18:58Z</time>
      </trkpt>
      <trkpt lat="45.85031" lon="4.77114">
        <ele>436.1</ele>
        <time>2013-08-31T07:19:07Z</time>
      </trkpt>
      <trkpt lat="45.85029" lon="4.77118">
        <ele>436.1</ele>
        <time>2013-08-31T07:19:09Z</time>
      </trkpt>
      <trkpt lat="45.85017" lon="4.77139">
        <ele>436.58</ele>
        <time>2013-08-31T07:19:19Z</time>
      </trkpt>
      <trkpt lat="45.85013" lon="4.77145">
        <ele>437.54</ele>
        <time>2013-08-31T07:19:22Z</time>
      </trkpt>
      <trkpt lat="45.84997" lon="4.77166">
        <ele>438.02</ele>
        <time>2013-08-31T07:19:33Z</time>
      </trkpt>
      <trkpt lat="45.84991" lon="4.77173">
        <ele>438.02</ele>
        <time>2013-08-31T07:19:37Z</time>
      </trkpt>
      <trkpt lat="45.84984" lon="4.77183">
        <ele>438.5</ele>
        <time>2013-08-31T07:19:43Z</time>
      </trkpt>
      <trkpt lat="45.84964" lon="4.77194">
        <ele>439.94</ele>
        <time>2013-08-31T07:19:54Z</time>
      </trkpt>
      <trkpt lat="45.8494" lon="4.77196">
        <ele>440.9</ele>
        <time>2013-08-31T07:20:06Z</time>
      </trkpt>
      <trkpt lat="45.8492" lon="4.77197">
        <ele>441.86</ele>
        <time>2013-08-31T07:20:16Z</time>
      </trkpt>
      <trkpt lat="45.84897" lon="4.77195">
        <ele>443.79</ele>
        <time>2013-08-31T07:20:27Z</time>
      </trkpt>
      <trkpt lat="45.84876" lon="4.77183">
        <ele>444.75</ele>
        <time>2013-08-31T07:20:40Z</time>
      </trkpt>
      <trkpt lat="45.84861" lon="4.77165">
        <ele>446.19</ele>
        <time>2013-08-31T07:20:50Z</time>
      </trkpt>
      <trkpt lat="45.84856" lon="4.77158">
        <ele>446.19</ele>
        <time>2013-08-31T07:20:54Z</time>
      </trkpt>
      <trkpt lat="45.84832" lon="4.77143">
        <ele>447.63</ele>
        <time>2013-08-31T07:21:06Z</time>
      </trkpt>
      <trkpt lat="45.84808" lon="4.77142">
        <ele>448.11</ele>
        <time>2013-08-31T07:21:17Z</time>
      </trkpt>
      <trkpt lat="45.84785" lon="4.77146">
        <ele>447.63</ele>
        <time>2013-08-31T07:21:26Z</time>
      </trkpt>
      <trkpt lat="45.84753" lon="4.77151">
        <ele>447.63</ele>
        <time>2013-08-31T07:21:37Z</time>
      </trkpt>
      <trkpt lat="45.84747" lon="4.7715">
        <ele>447.15</ele>
        <time>2013-08-31T07:21:39Z</time>
      </trkpt>
      <trkpt lat="45.84745" lon="4.77157">
        <ele>447.15</ele>
        <time>2013-08-31T07:21:44Z</time>
      </trkpt>
      <trkpt lat="45.84764" lon="4.77163">
        <ele>450.03</ele>
        <time>2013-08-31T07:21:55Z</time>
      </trkpt>
      <trkpt lat="45.84766" lon="4.77163">
        <ele>449.55</ele>
        <time>2013-08-31T07:21:56Z</time>
      </trkpt>
      <trkpt lat="45.84788" lon="4.77168">
        <ele>451.96</ele>
        <time>2013-08-31T07:22:08Z</time>
      </trkpt>
      <trkpt lat="45.84811" lon="4.77178">
        <ele>452.92</ele>
        <time>2013-08-31T07:22:19Z</time>
      </trkpt>
      <trkpt lat="45.84832" lon="4.77198">
        <ele>455.32</ele>
        <time>2013-08-31T07:22:33Z</time>
      </trkpt>
      <trkpt lat="45.84844" lon="4.77216">
        <ele>456.76</ele>
        <time>2013-08-31T07:22:43Z</time>
      </trkpt>
      <trkpt lat="45.84861" lon="4.77239">
        <ele>458.69</ele>
        <time>2013-08-31T07:22:56Z</time>
      </trkpt>
      <trkpt lat="45.84863" lon="4.77242">
        <ele>458.69</ele>
        <time>2013-08-31T07:22:58Z</time>
      </trkpt>
      <trkpt lat="45.84875" lon="4.77251">
        <ele>460.13</ele>
        <time>2013-08-31T07:23:06Z</time>
      </trkpt>
      <trkpt lat="45.84897" lon="4.77261">
        <ele>461.57</ele>
        <time>2013-08-31T07:23:19Z</time>
      </trkpt>
      <trkpt lat="45.84911" lon="4.77265">
        <ele>462.53</ele>
        <time>2013-08-31T07:23:29Z</time>
      </trkpt>
      <trkpt lat="45.84928" lon="4.77273">
        <ele>463.97</ele>
        <time>2013-08-31T07:23:39Z</time>
      </trkpt>
      <trkpt lat="45.84944" lon="4.77278">
        <ele>464.93</ele>
        <time>2013-08-31T07:23:49Z</time>
      </trkpt>
      <trkpt lat="45.84959" lon="4.77282">
        <ele>466.38</ele>
        <time>2013-08-31T07:23:58Z</time>
      </trkpt>
      <trkpt lat="45.84974" lon="4.77285">
        <ele>467.34</ele>
        <time>2013-08-31T07:24:06Z</time>
      </trkpt>
      <trkpt lat="45.84993" lon="4.77285">
        <ele>468.3</ele>
        <time>2013-08-31T07:24:16Z</time>
      </trkpt>
      <trkpt lat="45.8501" lon="4.77279">
        <ele>469.74</ele>
        <time>2013-08-31T07:24:26Z</time>
      </trkpt>
      <trkpt lat="45.85024" lon="4.77275">
        <ele>470.7</ele>
        <time>2013-08-31T07:24:34Z</time>
      </trkpt>
      <trkpt lat="45.85041" lon="4.7727">
        <ele>472.14</ele>
        <time>2013-08-31T07:24:45Z</time>
      </trkpt>
      <trkpt lat="45.85055" lon="4.77267">
        <ele>472.63</ele>
        <time>2013-08-31T07:24:55Z</time>
      </trkpt>
      <trkpt lat="45.85066" lon="4.77266">
        <ele>473.59</ele>
        <time>2013-08-31T07:25:03Z</time>
      </trkpt>
      <trkpt lat="45.85084" lon="4.77264">
        <ele>475.03</ele>
        <time>2013-08-31T07:25:15Z</time>
      </trkpt>
      <trkpt lat="45.85103" lon="4.77269">
        <ele>476.47</ele>
        <time>2013-08-31T07:25:27Z</time>
      </trkpt>
      <trkpt lat="45.85117" lon="4.7727">
        <ele>477.43</ele>
        <time>2013-08-31T07:25:35Z</time>
      </trkpt>
      <trkpt lat="45.85121" lon="4.7727">
        <ele>477.43</ele>
        <time>2013-08-31T07:25:39Z</time>
      </trkpt>
      <trkpt lat="45.85134" lon="4.77272">
        <ele>478.39</ele>
        <time>2013-08-31T07:25:46Z</time>
      </trkpt>
      <trkpt lat="45.85149" lon="4.77274">
        <ele>479.84</ele>
        <time>2013-08-31T07:25:56Z</time>
      </trkpt>
      <trkpt lat="45.85162" lon="4.77277">
        <ele>480.8</ele>
        <time>2013-08-31T07:26:04Z</time>
      </trkpt>
      <trkpt lat="45.85169" lon="4.77279">
        <ele>482.24</ele>
        <time>2013-08-31T07:26:08Z</time>
      </trkpt>
      <trkpt lat="45.85189" lon="4.77281">
        <ele>483.2</ele>
        <time>2013-08-31T07:26:20Z</time>
      </trkpt>
      <trkpt lat="45.852" lon="4.77281">
        <ele>484.16</ele>
        <time>2013-08-31T07:26:27Z</time>
      </trkpt>
      <trkpt lat="45.85219" lon="4.77286">
        <ele>486.08</ele>
        <time>2013-08-31T07:26:39Z</time>
      </trkpt>
      <trkpt lat="45.85235" lon="4.7729">
        <ele>486.56</ele>
        <time>2013-08-31T07:26:48Z</time>
      </trkpt>
      <trkpt lat="45.85251" lon="4.77296">
        <ele>488.01</ele>
        <time>2013-08-31T07:26:59Z</time>
      </trkpt>
      <trkpt lat="45.85272" lon="4.77304">
        <ele>488.97</ele>
        <time>2013-08-31T07:27:10Z</time>
      </trkpt>
      <trkpt lat="45.85286" lon="4.7731">
        <ele>489.93</ele>
        <time>2013-08-31T07:27:19Z</time>
      </trkpt>
      <trkpt lat="45.85305" lon="4.7732">
        <ele>491.85</ele>
        <time>2013-08-31T07:27:31Z</time>
      </trkpt>
      <trkpt lat="45.85321" lon="4.77328">
        <ele>492.81</ele>
        <time>2013-08-31T07:27:42Z</time>
      </trkpt>
      <trkpt lat="45.8534" lon="4.77339">
        <ele>494.26</ele>
        <time>2013-08-31T07:27:54Z</time>
      </trkpt>
      <trkpt lat="45.85354" lon="4.77346">
        <ele>494.74</ele>
        <time>2013-08-31T07:28:03Z</time>
      </trkpt>
      <trkpt lat="45.85373" lon="4.77355">
        <ele>497.14</ele>
        <time>2013-08-31T07:28:15Z</time>
      </trkpt>
      <trkpt lat="45.85389" lon="4.77362">
        <ele>498.1</ele>
        <time>2013-08-31T07:28:25Z</time>
      </trkpt>
      <trkpt lat="45.85403" lon="4.77368">
        <ele>499.06</ele>
        <time>2013-08-31T07:28:34Z</time>
      </trkpt>
      <trkpt lat="45.8542" lon="4.77376">
        <ele>500.5</ele>
        <time>2013-08-31T07:28:45Z</time>
      </trkpt>
      <trkpt lat="45.85436" lon="4.77384">
        <ele>501.95</ele>
        <time>2013-08-31T07:28:55Z</time>
      </trkpt>
      <trkpt lat="45.85439" lon="4.77386">
        <ele>501.95</ele>
        <time>2013-08-31T07:28:58Z</time>
      </trkpt>
      <trkpt lat="45.85446" lon="4.77391">
        <ele>502.91</ele>
        <time>2013-08-31T07:29:03Z</time>
      </trkpt>
      <trkpt lat="45.85467" lon="4.77406">
        <ele>504.83</ele>
        <time>2013-08-31T07:29:16Z</time>
      </trkpt>
      <trkpt lat="45.8548" lon="4.77417">
        <ele>505.79</ele>
        <time>2013-08-31T07:29:25Z</time>
      </trkpt>
      <trkpt lat="45.85494" lon="4.77427">
        <ele>506.75</ele>
        <time>2013-08-31T07:29:34Z</time>
      </trkpt>
      <trkpt lat="45.855" lon="4.77433">
        <ele>507.23</ele>
        <time>2013-08-31T07:29:38Z</time>
      </trkpt>
      <trkpt lat="45.85518" lon="4.77451">
        <ele>508.19</ele>
        <time>2013-08-31T07:29:50Z</time>
      </trkpt>
      <trkpt lat="45.8552" lon="4.77452">
        <ele>508.67</ele>
        <time>2013-08-31T07:29:51Z</time>
      </trkpt>
      <trkpt lat="45.85525" lon="4.77458">
        <ele>509.16</ele>
        <time>2013-08-31T07:29:55Z</time>
      </trkpt>
      <trkpt lat="45.85535" lon="4.77477">
        <ele>510.6</ele>
        <time>2013-08-31T07:30:05Z</time>
      </trkpt>
      <trkpt lat="45.85537" lon="4.77482">
        <ele>510.12</ele>
        <time>2013-08-31T07:30:07Z</time>
      </trkpt>
      <trkpt lat="45.85542" lon="4.77509">
        <ele>512.04</ele>
        <time>2013-08-31T07:30:19Z</time>
      </trkpt>
      <trkpt lat="45.85544" lon="4.77531">
        <ele>512.04</ele>
        <time>2013-08-31T07:30:29Z</time>
      </trkpt>
      <trkpt lat="45.85537" lon="4.77557">
        <ele>513</ele>
        <time>2013-08-31T07:30:39Z</time>
      </trkpt>
      <trkpt lat="45.85531" lon="4.77588">
        <ele>513.96</ele>
        <time>2013-08-31T07:30:50Z</time>
      </trkpt>
      <trkpt lat="45.85529" lon="4.77598">
        <ele>514.44</ele>
        <time>2013-08-31T07:30:54Z</time>
      </trkpt>
      <trkpt lat="45.85526" lon="4.77603">
        <ele>514.44</ele>
        <time>2013-08-31T07:30:56Z</time>
      </trkpt>
      <trkpt lat="45.85522" lon="4.77634">
        <ele>516.37</ele>
        <time>2013-08-31T07:31:07Z</time>
      </trkpt>
      <trkpt lat="45.85518" lon="4.77661">
        <ele>517.81</ele>
        <time>2013-08-31T07:31:17Z</time>
      </trkpt>
      <trkpt lat="45.85509" lon="4.7769">
        <ele>518.29</ele>
        <time>2013-08-31T07:31:28Z</time>
      </trkpt>
      <trkpt lat="45.85484" lon="4.77702">
        <ele>518.77</ele>
        <time>2013-08-31T07:31:40Z</time>
      </trkpt>
      <trkpt lat="45.85466" lon="4.77699">
        <ele>520.21</ele>
        <time>2013-08-31T07:31:49Z</time>
      </trkpt>
      <trkpt lat="45.85439" lon="4.77695">
        <ele>520.69</ele>
        <time>2013-08-31T07:32:01Z</time>
      </trkpt>
      <trkpt lat="45.85413" lon="4.77688">
        <ele>522.61</ele>
        <time>2013-08-31T07:32:12Z</time>
      </trkpt>
      <trkpt lat="45.85391" lon="4.77681">
        <ele>523.58</ele>
        <time>2013-08-31T07:32:21Z</time>
      </trkpt>
      <trkpt lat="45.85367" lon="4.77673">
        <ele>524.54</ele>
        <time>2013-08-31T07:32:31Z</time>
      </trkpt>
      <trkpt lat="45.85336" lon="4.77662">
        <ele>525.5</ele>
        <time>2013-08-31T07:32:45Z</time>
      </trkpt>
      <trkpt lat="45.85306" lon="4.77667">
        <ele>525.5</ele>
        <time>2013-08-31T07:32:57Z</time>
      </trkpt>
      <trkpt lat="45.85279" lon="4.77695">
        <ele>525.5</ele>
        <time>2013-08-31T07:33:08Z</time>
      </trkpt>
      <trkpt lat="45.85261" lon="4.77694">
        <ele>526.46</ele>
        <time>2013-08-31T07:33:16Z</time>
      </trkpt>
      <trkpt lat="45.85242" lon="4.77666">
        <ele>527.9</ele>
        <time>2013-08-31T07:33:29Z</time>
      </trkpt>
      <trkpt lat="45.85228" lon="4.77648">
        <ele>529.34</ele>
        <time>2013-08-31T07:33:39Z</time>
      </trkpt>
      <trkpt lat="45.85207" lon="4.77624">
        <ele>531.27</ele>
        <time>2013-08-31T07:33:52Z</time>
      </trkpt>
      <trkpt lat="45.85194" lon="4.77606">
        <ele>532.71</ele>
        <time>2013-08-31T07:34:03Z</time>
      </trkpt>
      <trkpt lat="45.85192" lon="4.77604">
        <ele>532.71</ele>
        <time>2013-08-31T07:34:04Z</time>
      </trkpt>
      <trkpt lat="45.8518" lon="4.77605">
        <ele>534.15</ele>
        <time>2013-08-31T07:34:10Z</time>
      </trkpt>
      <trkpt lat="45.8517" lon="4.77611">
        <ele>535.11</ele>
        <time>2013-08-31T07:34:20Z</time>
      </trkpt>
      <trkpt lat="45.85169" lon="4.77612">
        <ele>535.59</ele>
        <time>2013-08-31T07:34:31Z</time>
      </trkpt>
      <trkpt lat="45.85169" lon="4.77612">
        <ele>535.59</ele>
        <time>2013-08-31T07:34:41Z</time>
      </trkpt>
      <trkpt lat="45.85169" lon="4.77612">
        <ele>536.07</ele>
        <time>2013-08-31T07:35:01Z</time>
      </trkpt>
      <trkpt lat="45.85166" lon="4.77613">
        <ele>536.07</ele>
        <time>2013-08-31T07:35:14Z</time>
      </trkpt>
      <trkpt lat="45.85159" lon="4.77612">
        <ele>537.51</ele>
        <time>2013-08-31T07:35:27Z</time>
      </trkpt>
      <trkpt lat="45.85149" lon="4.77617">
        <ele>538.96</ele>
        <time>2013-08-31T07:35:37Z</time>
      </trkpt>
      <trkpt lat="45.85141" lon="4.77619">
        <ele>539.92</ele>
        <time>2013-08-31T07:35:49Z</time>
      </trkpt>
      <trkpt lat="45.85131" lon="4.77621">
        <ele>542.8</ele>
        <time>2013-08-31T07:36:01Z</time>
      </trkpt>
      <trkpt lat="45.85125" lon="4.77623">
        <ele>544.24</ele>
        <time>2013-08-31T07:36:12Z</time>
      </trkpt>
      <trkpt lat="45.85125" lon="4.77623">
        <ele>545.69</ele>
        <time>2013-08-31T07:36:24Z</time>
      </trkpt>
      <trkpt lat="45.8512" lon="4.77627">
        <ele>547.13</ele>
        <time>2013-08-31T07:36:31Z</time>
      </trkpt>
      <trkpt lat="45.85117" lon="4.77628">
        <ele>546.65</ele>
        <time>2013-08-31T07:36:34Z</time>
      </trkpt>
      <trkpt lat="45.85106" lon="4.77631">
        <ele>548.09</ele>
        <time>2013-08-31T07:36:44Z</time>
      </trkpt>
      <trkpt lat="45.85105" lon="4.77631">
        <ele>549.53</ele>
        <time>2013-08-31T07:36:56Z</time>
      </trkpt>
      <trkpt lat="45.85096" lon="4.77636">
        <ele>550.49</ele>
        <time>2013-08-31T07:37:06Z</time>
      </trkpt>
      <trkpt lat="45.8509" lon="4.77638">
        <ele>551.45</ele>
        <time>2013-08-31T07:37:14Z</time>
      </trkpt>
      <trkpt lat="45.8509" lon="4.77638">
        <ele>552.41</ele>
        <time>2013-08-31T07:37:26Z</time>
      </trkpt>
      <trkpt lat="45.8509" lon="4.77638">
        <ele>553.86</ele>
        <time>2013-08-31T07:37:36Z</time>
      </trkpt>
      <trkpt lat="45.85084" lon="4.7764">
        <ele>555.3</ele>
        <time>2013-08-31T07:37:46Z</time>
      </trkpt>
      <trkpt lat="45.85079" lon="4.77642">
        <ele>557.7</ele>
        <time>2013-08-31T07:37:57Z</time>
      </trkpt>
      <trkpt lat="45.85079" lon="4.77642">
        <ele>553.38</ele>
        <time>2013-08-31T07:37:58Z</time>
      </trkpt>
      <trkpt lat="45.85079" lon="4.77642">
        <ele>557.7</ele>
        <time>2013-08-31T07:37:59Z</time>
      </trkpt>
      <trkpt lat="45.85079" lon="4.77642">
        <ele>551.45</ele>
        <time>2013-08-31T07:38:16Z</time>
      </trkpt>
      <trkpt lat="45.85079" lon="4.77642">
        <ele>556.74</ele>
        <time>2013-08-31T07:38:17Z</time>
      </trkpt>
      <trkpt lat="45.85078" lon="4.77642">
        <ele>555.78</ele>
        <time>2013-08-31T07:38:35Z</time>
      </trkpt>
      <trkpt lat="45.85078" lon="4.77642">
        <ele>555.78</ele>
        <time>2013-08-31T07:38:54Z</time>
      </trkpt>
      <trkpt lat="45.85077" lon="4.77642">
        <ele>555.78</ele>
        <time>2013-08-31T07:39:15Z</time>
      </trkpt>
      <trkpt lat="45.85077" lon="4.77642">
        <ele>555.78</ele>
        <time>2013-08-31T07:39:33Z</time>
      </trkpt>
      <trkpt lat="45.85077" lon="4.77642">
        <ele>554.82</ele>
        <time>2013-08-31T07:39:48Z</time>
      </trkpt>
      <trkpt lat="45.85076" lon="4.77642">
        <ele>555.78</ele>
        <time>2013-08-31T07:40:05Z</time>
      </trkpt>
      <trkpt lat="45.85076" lon="4.77642">
        <ele>555.78</ele>
        <time>2013-08-31T07:40:22Z</time>
      </trkpt>
      <trkpt lat="45.85075" lon="4.77642">
        <ele>555.3</ele>
        <time>2013-08-31T07:40:40Z</time>
      </trkpt>
      <trkpt lat="45.85072" lon="4.77642">
        <ele>555.3</ele>
        <time>2013-08-31T07:40:50Z</time>
      </trkpt>
      <trkpt lat="45.85067" lon="4.77642">
        <ele>555.3</ele>
        <time>2013-08-31T07:40:59Z</time>
      </trkpt>
      <trkpt lat="45.85055" lon="4.7764">
        <ele>555.78</ele>
        <time>2013-08-31T07:41:03Z</time>
      </trkpt>
      <trkpt lat="45.85043" lon="4.77635">
        <ele>555.3</ele>
        <time>2013-08-31T07:41:08Z</time>
      </trkpt>
      <trkpt lat="45.8502" lon="4.7763">
        <ele>555.78</ele>
        <time>2013-08-31T07:41:17Z</time>
      </trkpt>
      <trkpt lat="45.85014" lon="4.77628">
        <ele>556.26</ele>
        <time>2013-08-31T07:41:19Z</time>
      </trkpt>
      <trkpt lat="45.84995" lon="4.77625">
        <ele>556.26</ele>
        <time>2013-08-31T07:41:26Z</time>
      </trkpt>
      <trkpt lat="45.84961" lon="4.77622">
        <ele>556.26</ele>
        <time>2013-08-31T07:41:35Z</time>
      </trkpt>
      <trkpt lat="45.84928" lon="4.77618">
        <ele>555.78</ele>
        <time>2013-08-31T07:41:45Z</time>
      </trkpt>
      <trkpt lat="45.84914" lon="4.77616">
        <ele>554.82</ele>
        <time>2013-08-31T07:41:49Z</time>
      </trkpt>
      <trkpt lat="45.84888" lon="4.77618">
        <ele>554.34</ele>
        <time>2013-08-31T07:41:57Z</time>
      </trkpt>
      <trkpt lat="45.84883" lon="4.77618">
        <ele>553.86</ele>
        <time>2013-08-31T07:41:58Z</time>
      </trkpt>
      <trkpt lat="45.84877" lon="4.77618">
        <ele>553.38</ele>
        <time>2013-08-31T07:41:59Z</time>
      </trkpt>
      <trkpt lat="45.84871" lon="4.77618">
        <ele>553.38</ele>
        <time>2013-08-31T07:42:00Z</time>
      </trkpt>
      <trkpt lat="45.84855" lon="4.77619">
        <ele>552.41</ele>
        <time>2013-08-31T07:42:03Z</time>
      </trkpt>
      <trkpt lat="45.84846" lon="4.77621">
        <ele>551.93</ele>
        <time>2013-08-31T07:42:05Z</time>
      </trkpt>
      <trkpt lat="45.84828" lon="4.77624">
        <ele>551.93</ele>
        <time>2013-08-31T07:42:08Z</time>
      </trkpt>
      <trkpt lat="45.84806" lon="4.77625">
        <ele>550.49</ele>
        <time>2013-08-31T07:42:12Z</time>
      </trkpt>
      <trkpt lat="45.84783" lon="4.77624">
        <ele>550.01</ele>
        <time>2013-08-31T07:42:16Z</time>
      </trkpt>
      <trkpt lat="45.84752" lon="4.77615">
        <ele>549.53</ele>
        <time>2013-08-31T07:42:24Z</time>
      </trkpt>
      <trkpt lat="45.84748" lon="4.77613">
        <ele>550.01</ele>
        <time>2013-08-31T07:42:25Z</time>
      </trkpt>
      <trkpt lat="45.84743" lon="4.7761">
        <ele>549.53</ele>
        <time>2013-08-31T07:42:26Z</time>
      </trkpt>
      <trkpt lat="45.84734" lon="4.77607">
        <ele>550.01</ele>
        <time>2013-08-31T07:42:28Z</time>
      </trkpt>
      <trkpt lat="45.84726" lon="4.77602">
        <ele>550.01</ele>
        <time>2013-08-31T07:42:30Z</time>
      </trkpt>
      <trkpt lat="45.84719" lon="4.77594">
        <ele>550.49</ele>
        <time>2013-08-31T07:42:32Z</time>
      </trkpt>
      <trkpt lat="45.84697" lon="4.77574">
        <ele>550.97</ele>
        <time>2013-08-31T07:42:38Z</time>
      </trkpt>
      <trkpt lat="45.84697" lon="4.77588">
        <ele>550.97</ele>
        <time>2013-08-31T07:42:43Z</time>
      </trkpt>
      <trkpt lat="45.8471" lon="4.77623">
        <ele>552.9</ele>
        <time>2013-08-31T07:42:55Z</time>
      </trkpt>
      <trkpt lat="45.84718" lon="4.7765">
        <ele>554.34</ele>
        <time>2013-08-31T07:43:04Z</time>
      </trkpt>
      <trkpt lat="45.84725" lon="4.77683">
        <ele>556.26</ele>
        <time>2013-08-31T07:43:15Z</time>
      </trkpt>
      <trkpt lat="45.84722" lon="4.77709">
        <ele>557.7</ele>
        <time>2013-08-31T07:43:24Z</time>
      </trkpt>
      <trkpt lat="45.84711" lon="4.77743">
        <ele>559.14</ele>
        <time>2013-08-31T07:43:36Z</time>
      </trkpt>
      <trkpt lat="45.847" lon="4.77777">
        <ele>561.07</ele>
        <time>2013-08-31T07:43:48Z</time>
      </trkpt>
      <trkpt lat="45.8469" lon="4.77808">
        <ele>563.95</ele>
        <time>2013-08-31T07:43:59Z</time>
      </trkpt>
      <trkpt lat="45.84677" lon="4.77844">
        <ele>565.39</ele>
        <time>2013-08-31T07:44:12Z</time>
      </trkpt>
      <trkpt lat="45.84662" lon="4.77871">
        <ele>566.83</ele>
        <time>2013-08-31T07:44:24Z</time>
      </trkpt>
      <trkpt lat="45.84645" lon="4.77892">
        <ele>568.76</ele>
        <time>2013-08-31T07:44:35Z</time>
      </trkpt>
      <trkpt lat="45.84644" lon="4.77925">
        <ele>570.2</ele>
        <time>2013-08-31T07:44:46Z</time>
      </trkpt>
      <trkpt lat="45.84662" lon="4.77934">
        <ele>571.64</ele>
        <time>2013-08-31T07:44:56Z</time>
      </trkpt>
      <trkpt lat="45.8468" lon="4.77911">
        <ele>572.12</ele>
        <time>2013-08-31T07:45:06Z</time>
      </trkpt>
      <trkpt lat="45.84693" lon="4.77878">
        <ele>573.56</ele>
        <time>2013-08-31T07:45:18Z</time>
      </trkpt>
      <trkpt lat="45.84703" lon="4.77848">
        <ele>574.53</ele>
        <time>2013-08-31T07:45:29Z</time>
      </trkpt>
      <trkpt lat="45.84722" lon="4.7783">
        <ele>576.45</ele>
        <time>2013-08-31T07:45:40Z</time>
      </trkpt>
      <trkpt lat="45.84734" lon="4.77848">
        <ele>577.41</ele>
        <time>2013-08-31T07:45:49Z</time>
      </trkpt>
      <trkpt lat="45.84727" lon="4.77875">
        <ele>578.37</ele>
        <time>2013-08-31T07:45:58Z</time>
      </trkpt>
      <trkpt lat="45.84718" lon="4.77896">
        <ele>579.81</ele>
        <time>2013-08-31T07:46:06Z</time>
      </trkpt>
      <trkpt lat="45.84714" lon="4.77905">
        <ele>581.25</ele>
        <time>2013-08-31T07:46:10Z</time>
      </trkpt>
      <trkpt lat="45.84698" lon="4.77936">
        <ele>582.7</ele>
        <time>2013-08-31T07:46:23Z</time>
      </trkpt>
      <trkpt lat="45.84686" lon="4.77964">
        <ele>584.62</ele>
        <time>2013-08-31T07:46:35Z</time>
      </trkpt>
      <trkpt lat="45.84679" lon="4.77992">
        <ele>586.06</ele>
        <time>2013-08-31T07:46:46Z</time>
      </trkpt>
      <trkpt lat="45.84675" lon="4.78019">
        <ele>586.54</ele>
        <time>2013-08-31T07:46:56Z</time>
      </trkpt>
      <trkpt lat="45.84674" lon="4.78022">
        <ele>586.54</ele>
        <time>2013-08-31T07:46:57Z</time>
      </trkpt>
      <trkpt lat="45.84683" lon="4.78039">
        <ele>586.54</ele>
        <time>2013-08-31T07:47:05Z</time>
      </trkpt>
      <trkpt lat="45.84684" lon="4.78041">
        <ele>586.06</ele>
        <time>2013-08-31T07:47:12Z</time>
      </trkpt>
      <trkpt lat="45.84684" lon="4.78041">
        <ele>586.06</ele>
        <time>2013-08-31T07:47:32Z</time>
      </trkpt>
      <trkpt lat="45.84684" lon="4.78041">
        <ele>585.58</ele>
        <time>2013-08-31T07:47:46Z</time>
      </trkpt>
      <trkpt lat="45.84683" lon="4.78043">
        <ele>585.58</ele>
        <time>2013-08-31T07:47:57Z</time>
      </trkpt>
      <trkpt lat="45.84683" lon="4.78043">
        <ele>585.58</ele>
        <time>2013-08-31T07:48:18Z</time>
      </trkpt>
      <trkpt lat="45.84683" lon="4.78043">
        <ele>585.58</ele>
        <time>2013-08-31T07:48:42Z</time>
      </trkpt>
      <trkpt lat="45.84683" lon="4.78043">
        <ele>586.06</ele>
        <time>2013-08-31T07:49:03Z</time>
      </trkpt>
      <trkpt lat="45.84683" lon="4.78043">
        <ele>586.06</ele>
        <time>2013-08-31T07:49:19Z</time>
      </trkpt>
      <trkpt lat="45.84683" lon="4.78043">
        <ele>586.54</ele>
        <time>2013-08-31T07:49:33Z</time>
      </trkpt>
      <trkpt lat="45.84683" lon="4.78043">
        <ele>582.22</ele>
        <time>2013-08-31T07:49:56Z</time>
      </trkpt>
      <trkpt lat="45.84683" lon="4.78043">
        <ele>587.02</ele>
        <time>2013-08-31T07:49:57Z</time>
      </trkpt>
      <trkpt lat="45.84683" lon="4.78043">
        <ele>587.02</ele>
        <time>2013-08-31T07:49:58Z</time>
      </trkpt>
      <trkpt lat="45.84683" lon="4.78043">
        <ele>582.22</ele>
        <time>2013-08-31T07:50:03Z</time>
      </trkpt>
      <trkpt lat="45.84683" lon="4.78043">
        <ele>585.58</ele>
        <time>2013-08-31T07:50:04Z</time>
      </trkpt>
      <trkpt lat="45.84684" lon="4.78043">
        <ele>586.06</ele>
        <time>2013-08-31T07:50:17Z</time>
      </trkpt>
      <trkpt lat="45.84684" lon="4.78043">
        <ele>586.06</ele>
        <time>2013-08-31T07:50:33Z</time>
      </trkpt>
      <trkpt lat="45.84684" lon="4.78043">
        <ele>586.06</ele>
        <time>2013-08-31T07:50:51Z</time>
      </trkpt>
      <trkpt lat="45.84684" lon="4.78043">
        <ele>586.54</ele>
        <time>2013-08-31T07:51:04Z</time>
      </trkpt>
      <trkpt lat="45.84684" lon="4.78043">
        <ele>585.58</ele>
        <time>2013-08-31T07:51:24Z</time>
      </trkpt>
      <trkpt lat="45.84684" lon="4.78043">
        <ele>586.06</ele>
        <time>2013-08-31T07:51:40Z</time>
      </trkpt>
      <trkpt lat="45.84684" lon="4.78043">
        <ele>586.06</ele>
        <time>2013-08-31T07:52:02Z</time>
      </trkpt>
      <trkpt lat="45.84684" lon="4.78043">
        <ele>586.06</ele>
        <time>2013-08-31T07:52:16Z</time>
      </trkpt>
      <trkpt lat="45.84685" lon="4.78044">
        <ele>585.1</ele>
        <time>2013-08-31T07:52:25Z</time>
      </trkpt>
      <trkpt lat="45.84686" lon="4.78047">
        <ele>585.58</ele>
        <time>2013-08-31T07:52:30Z</time>
      </trkpt>
      <trkpt lat="45.84686" lon="4.7805">
        <ele>583.66</ele>
        <time>2013-08-31T07:52:33Z</time>
      </trkpt>
      <trkpt lat="45.84686" lon="4.78051">
        <ele>582.7</ele>
        <time>2013-08-31T07:52:40Z</time>
      </trkpt>
      <trkpt lat="45.84688" lon="4.78067">
        <ele>577.41</ele>
        <time>2013-08-31T07:52:45Z</time>
      </trkpt>
      <trkpt lat="45.84689" lon="4.78079">
        <ele>574.04</ele>
        <time>2013-08-31T07:52:48Z</time>
      </trkpt>
      <trkpt lat="45.84689" lon="4.78091">
        <ele>572.12</ele>
        <time>2013-08-31T07:52:50Z</time>
      </trkpt>
      <trkpt lat="45.84699" lon="4.78119">
        <ele>568.28</ele>
        <time>2013-08-31T07:52:55Z</time>
      </trkpt>
      <trkpt lat="45.84704" lon="4.78128">
        <ele>566.83</ele>
        <time>2013-08-31T07:53:01Z</time>
      </trkpt>
      <trkpt lat="45.84704" lon="4.7813">
        <ele>566.35</ele>
        <time>2013-08-31T07:53:06Z</time>
      </trkpt>
      <trkpt lat="45.84698" lon="4.78148">
        <ele>564.43</ele>
        <time>2013-08-31T07:53:11Z</time>
      </trkpt>
      <trkpt lat="45.84696" lon="4.78165">
        <ele>563.47</ele>
        <time>2013-08-31T07:53:18Z</time>
      </trkpt>
      <trkpt lat="45.84696" lon="4.78165">
        <ele>562.51</ele>
        <time>2013-08-31T07:53:31Z</time>
      </trkpt>
      <trkpt lat="45.84696" lon="4.78165">
        <ele>562.99</ele>
        <time>2013-08-31T07:53:48Z</time>
      </trkpt>
      <trkpt lat="45.84697" lon="4.78165">
        <ele>562.51</ele>
        <time>2013-08-31T07:54:10Z</time>
      </trkpt>
      <trkpt lat="45.84697" lon="4.78165">
        <ele>562.99</ele>
        <time>2013-08-31T07:54:35Z</time>
      </trkpt>
      <trkpt lat="45.84697" lon="4.78166">
        <ele>563.47</ele>
        <time>2013-08-31T07:54:56Z</time>
      </trkpt>
      <trkpt lat="45.84697" lon="4.78167">
        <ele>562.99</ele>
        <time>2013-08-31T07:55:20Z</time>
      </trkpt>
      <trkpt lat="45.84697" lon="4.78167">
        <ele>562.99</ele>
        <time>2013-08-31T07:55:47Z</time>
      </trkpt>
      <trkpt lat="45.84697" lon="4.78168">
        <ele>563.47</ele>
        <time>2013-08-31T07:56:10Z</time>
      </trkpt>
      <trkpt lat="45.84697" lon="4.78168">
        <ele>563.95</ele>
        <time>2013-08-31T07:56:36Z</time>
      </trkpt>
      <trkpt lat="45.84697" lon="4.78168">
        <ele>563.95</ele>
        <time>2013-08-31T07:56:58Z</time>
      </trkpt>
      <trkpt lat="45.84697" lon="4.78168">
        <ele>562.99</ele>
        <time>2013-08-31T07:57:11Z</time>
      </trkpt>
      <trkpt lat="45.84695" lon="4.78181">
        <ele>560.11</ele>
        <time>2013-08-31T07:57:15Z</time>
      </trkpt>
      <trkpt lat="45.84697" lon="4.78186">
        <ele>559.62</ele>
        <time>2013-08-31T07:57:17Z</time>
      </trkpt>
      <trkpt lat="45.84703" lon="4.78209">
        <ele>557.22</ele>
        <time>2013-08-31T07:57:21Z</time>
      </trkpt>
      <trkpt lat="45.84707" lon="4.78236">
        <ele>555.78</ele>
        <time>2013-08-31T07:57:27Z</time>
      </trkpt>
      <trkpt lat="45.84708" lon="4.78264">
        <ele>552.9</ele>
        <time>2013-08-31T07:57:31Z</time>
      </trkpt>
      <trkpt lat="45.84704" lon="4.78286">
        <ele>549.05</ele>
        <time>2013-08-31T07:57:35Z</time>
      </trkpt>
      <trkpt lat="45.84703" lon="4.7829">
        <ele>549.05</ele>
        <time>2013-08-31T07:57:36Z</time>
      </trkpt>
      <trkpt lat="45.84694" lon="4.78321">
        <ele>546.17</ele>
        <time>2013-08-31T07:57:43Z</time>
      </trkpt>
      <trkpt lat="45.84669" lon="4.7834">
        <ele>546.65</ele>
        <time>2013-08-31T07:57:51Z</time>
      </trkpt>
      <trkpt lat="45.84658" lon="4.7835">
        <ele>547.13</ele>
        <time>2013-08-31T07:57:58Z</time>
      </trkpt>
      <trkpt lat="45.84658" lon="4.7835">
        <ele>553.86</ele>
        <time>2013-08-31T07:58:15Z</time>
      </trkpt>
      <trkpt lat="45.84658" lon="4.7835">
        <ele>542.32</ele>
        <time>2013-08-31T07:58:16Z</time>
      </trkpt>
      <trkpt lat="45.84658" lon="4.7835">
        <ele>548.09</ele>
        <time>2013-08-31T07:58:17Z</time>
      </trkpt>
      <trkpt lat="45.84658" lon="4.7835">
        <ele>544.72</ele>
        <time>2013-08-31T07:58:20Z</time>
      </trkpt>
      <trkpt lat="45.84658" lon="4.7835">
        <ele>548.09</ele>
        <time>2013-08-31T07:58:21Z</time>
      </trkpt>
      <trkpt lat="45.84658" lon="4.7835">
        <ele>547.13</ele>
        <time>2013-08-31T07:58:29Z</time>
      </trkpt>
      <trkpt lat="45.84652" lon="4.78369">
        <ele>542.8</ele>
        <time>2013-08-31T07:58:33Z</time>
      </trkpt>
      <trkpt lat="45.84649" lon="4.78372">
        <ele>542.32</ele>
        <time>2013-08-31T07:58:34Z</time>
      </trkpt>
      <trkpt lat="45.84644" lon="4.78382">
        <ele>541.36</ele>
        <time>2013-08-31T07:58:36Z</time>
      </trkpt>
      <trkpt lat="45.84638" lon="4.78388">
        <ele>540.4</ele>
        <time>2013-08-31T07:58:38Z</time>
      </trkpt>
      <trkpt lat="45.84623" lon="4.78403">
        <ele>540.4</ele>
        <time>2013-08-31T07:58:43Z</time>
      </trkpt>
      <trkpt lat="45.846" lon="4.78412">
        <ele>538.96</ele>
        <time>2013-08-31T07:58:49Z</time>
      </trkpt>
      <trkpt lat="45.84593" lon="4.7842">
        <ele>537.51</ele>
        <time>2013-08-31T07:58:51Z</time>
      </trkpt>
      <trkpt lat="45.84587" lon="4.7843">
        <ele>535.11</ele>
        <time>2013-08-31T07:58:53Z</time>
      </trkpt>
      <trkpt lat="45.8458" lon="4.78449">
        <ele>531.27</ele>
        <time>2013-08-31T07:58:57Z</time>
      </trkpt>
      <trkpt lat="45.84576" lon="4.78467">
        <ele>527.42</ele>
        <time>2013-08-31T07:59:00Z</time>
      </trkpt>
      <trkpt lat="45.8457" lon="4.78488">
        <ele>525.98</ele>
        <time>2013-08-31T07:59:04Z</time>
      </trkpt>
      <trkpt lat="45.84567" lon="4.78501">
        <ele>523.58</ele>
        <time>2013-08-31T07:59:07Z</time>
      </trkpt>
      <trkpt lat="45.84566" lon="4.78511">
        <ele>523.58</ele>
        <time>2013-08-31T07:59:16Z</time>
      </trkpt>
      <trkpt lat="45.84562" lon="4.78513">
        <ele>524.06</ele>
        <time>2013-08-31T07:59:20Z</time>
      </trkpt>
      <trkpt lat="45.84556" lon="4.78517">
        <ele>523.09</ele>
        <time>2013-08-31T07:59:25Z</time>
      </trkpt>
      <trkpt lat="45.84555" lon="4.78519">
        <ele>522.61</ele>
        <time>2013-08-31T07:59:26Z</time>
      </trkpt>
      <trkpt lat="45.84553" lon="4.78521">
        <ele>522.61</ele>
        <time>2013-08-31T07:59:29Z</time>
      </trkpt>
      <trkpt lat="45.84552" lon="4.78524">
        <ele>522.61</ele>
        <time>2013-08-31T07:59:37Z</time>
      </trkpt>
      <trkpt lat="45.84554" lon="4.78526">
        <ele>522.13</ele>
        <time>2013-08-31T07:59:39Z</time>
      </trkpt>
      <trkpt lat="45.84556" lon="4.78527">
        <ele>522.13</ele>
        <time>2013-08-31T07:59:40Z</time>
      </trkpt>
      <trkpt lat="45.84558" lon="4.78528">
        <ele>522.61</ele>
        <time>2013-08-31T07:59:41Z</time>
      </trkpt>
      <trkpt lat="45.84559" lon="4.78528">
        <ele>522.13</ele>
        <time>2013-08-31T07:59:42Z</time>
      </trkpt>
      <trkpt lat="45.84562" lon="4.7853">
        <ele>522.61</ele>
        <time>2013-08-31T07:59:53Z</time>
      </trkpt>
      <trkpt lat="45.84564" lon="4.78534">
        <ele>522.13</ele>
        <time>2013-08-31T08:00:02Z</time>
      </trkpt>
      <trkpt lat="45.84566" lon="4.78544">
        <ele>518.77</ele>
        <time>2013-08-31T08:00:06Z</time>
      </trkpt>
      <trkpt lat="45.84567" lon="4.78555">
        <ele>516.37</ele>
        <time>2013-08-31T08:00:09Z</time>
      </trkpt>
      <trkpt lat="45.8457" lon="4.78564">
        <ele>514.44</ele>
        <time>2013-08-31T08:00:12Z</time>
      </trkpt>
      <trkpt lat="45.84572" lon="4.78573">
        <ele>511.08</ele>
        <time>2013-08-31T08:00:15Z</time>
      </trkpt>
      <trkpt lat="45.84572" lon="4.78586">
        <ele>508.19</ele>
        <time>2013-08-31T08:00:18Z</time>
      </trkpt>
      <trkpt lat="45.84576" lon="4.78607">
        <ele>504.35</ele>
        <time>2013-08-31T08:00:22Z</time>
      </trkpt>
      <trkpt lat="45.84577" lon="4.78626">
        <ele>500.98</ele>
        <time>2013-08-31T08:00:26Z</time>
      </trkpt>
      <trkpt lat="45.84576" lon="4.78629">
        <ele>500.5</ele>
        <time>2013-08-31T08:00:27Z</time>
      </trkpt>
      <trkpt lat="45.84578" lon="4.78645">
        <ele>496.66</ele>
        <time>2013-08-31T08:00:32Z</time>
      </trkpt>
      <trkpt lat="45.84578" lon="4.78648">
        <ele>496.18</ele>
        <time>2013-08-31T08:00:33Z</time>
      </trkpt>
      <trkpt lat="45.84582" lon="4.78657">
        <ele>494.26</ele>
        <time>2013-08-31T08:00:36Z</time>
      </trkpt>
      <trkpt lat="45.8459" lon="4.78669">
        <ele>491.37</ele>
        <time>2013-08-31T08:00:40Z</time>
      </trkpt>
      <trkpt lat="45.84591" lon="4.78676">
        <ele>489.45</ele>
        <time>2013-08-31T08:00:42Z</time>
      </trkpt>
      <trkpt lat="45.84592" lon="4.78698">
        <ele>484.64</ele>
        <time>2013-08-31T08:00:47Z</time>
      </trkpt>
      <trkpt lat="45.84592" lon="4.78705">
        <ele>483.68</ele>
        <time>2013-08-31T08:00:49Z</time>
      </trkpt>
      <trkpt lat="45.84595" lon="4.78709">
        <ele>482.72</ele>
        <time>2013-08-31T08:00:56Z</time>
      </trkpt>
      <trkpt lat="45.84595" lon="4.78709">
        <ele>483.2</ele>
        <time>2013-08-31T08:01:15Z</time>
      </trkpt>
      <trkpt lat="45.84596" lon="4.78711">
        <ele>483.2</ele>
        <time>2013-08-31T08:01:32Z</time>
      </trkpt>
      <trkpt lat="45.84596" lon="4.78713">
        <ele>482.72</ele>
        <time>2013-08-31T08:01:44Z</time>
      </trkpt>
      <trkpt lat="45.84596" lon="4.78735">
        <ele>480.32</ele>
        <time>2013-08-31T08:01:49Z</time>
      </trkpt>
      <trkpt lat="45.84596" lon="4.78747">
        <ele>478.87</ele>
        <time>2013-08-31T08:01:51Z</time>
      </trkpt>
      <trkpt lat="45.84597" lon="4.78754">
        <ele>477.91</ele>
        <time>2013-08-31T08:01:52Z</time>
      </trkpt>
      <trkpt lat="45.84604" lon="4.78778">
        <ele>475.99</ele>
        <time>2013-08-31T08:01:55Z</time>
      </trkpt>
      <trkpt lat="45.84606" lon="4.78786">
        <ele>475.51</ele>
        <time>2013-08-31T08:01:56Z</time>
      </trkpt>
      <trkpt lat="45.84608" lon="4.78793">
        <ele>474.07</ele>
        <time>2013-08-31T08:01:57Z</time>
      </trkpt>
      <trkpt lat="45.84612" lon="4.78799">
        <ele>473.59</ele>
        <time>2013-08-31T08:01:58Z</time>
      </trkpt>
      <trkpt lat="45.84617" lon="4.78805">
        <ele>472.63</ele>
        <time>2013-08-31T08:01:59Z</time>
      </trkpt>
      <trkpt lat="45.84638" lon="4.78825">
        <ele>469.26</ele>
        <time>2013-08-31T08:02:02Z</time>
      </trkpt>
      <trkpt lat="45.8466" lon="4.78843">
        <ele>467.82</ele>
        <time>2013-08-31T08:02:04Z</time>
      </trkpt>
      <trkpt lat="45.84701" lon="4.78872">
        <ele>465.42</ele>
        <time>2013-08-31T08:02:08Z</time>
      </trkpt>
      <trkpt lat="45.84719" lon="4.78883">
        <ele>463.97</ele>
        <time>2013-08-31T08:02:10Z</time>
      </trkpt>
      <trkpt lat="45.84727" lon="4.78888">
        <ele>463.01</ele>
        <time>2013-08-31T08:02:11Z</time>
      </trkpt>
      <trkpt lat="45.84735" lon="4.78895">
        <ele>462.05</ele>
        <time>2013-08-31T08:02:12Z</time>
      </trkpt>
      <trkpt lat="45.84748" lon="4.7891">
        <ele>461.09</ele>
        <time>2013-08-31T08:02:14Z</time>
      </trkpt>
      <trkpt lat="45.84755" lon="4.78918">
        <ele>460.13</ele>
        <time>2013-08-31T08:02:15Z</time>
      </trkpt>
      <trkpt lat="45.84784" lon="4.78956">
        <ele>456.76</ele>
        <time>2013-08-31T08:02:20Z</time>
      </trkpt>
      <trkpt lat="45.8482" lon="4.79003">
        <ele>453.4</ele>
        <time>2013-08-31T08:02:26Z</time>
      </trkpt>
      <trkpt lat="45.84844" lon="4.79039">
        <ele>451.48</ele>
        <time>2013-08-31T08:02:32Z</time>
      </trkpt>
      <trkpt lat="45.84848" lon="4.79045">
        <ele>451.48</ele>
        <time>2013-08-31T08:02:38Z</time>
      </trkpt>
      <trkpt lat="45.8486" lon="4.79053">
        <ele>451.48</ele>
        <time>2013-08-31T08:02:46Z</time>
      </trkpt>
      <trkpt lat="45.84877" lon="4.79078">
        <ele>450.52</ele>
        <time>2013-08-31T08:02:54Z</time>
      </trkpt>
      <trkpt lat="45.8488" lon="4.79104">
        <ele>449.07</ele>
        <time>2013-08-31T08:02:58Z</time>
      </trkpt>
      <trkpt lat="45.8488" lon="4.79112">
        <ele>449.07</ele>
        <time>2013-08-31T08:02:59Z</time>
      </trkpt>
      <trkpt lat="45.8488" lon="4.79138">
        <ele>447.63</ele>
        <time>2013-08-31T08:03:02Z</time>
      </trkpt>
      <trkpt lat="45.8488" lon="4.79149">
        <ele>447.15</ele>
        <time>2013-08-31T08:03:03Z</time>
      </trkpt>
      <trkpt lat="45.84881" lon="4.79158">
        <ele>446.67</ele>
        <time>2013-08-31T08:03:04Z</time>
      </trkpt>
      <trkpt lat="45.84882" lon="4.79167">
        <ele>446.67</ele>
        <time>2013-08-31T08:03:05Z</time>
      </trkpt>
      <trkpt lat="45.84882" lon="4.79174">
        <ele>447.15</ele>
        <time>2013-08-31T08:03:06Z</time>
      </trkpt>
      <trkpt lat="45.84883" lon="4.7918">
        <ele>447.15</ele>
        <time>2013-08-31T08:03:07Z</time>
      </trkpt>
      <trkpt lat="45.84885" lon="4.79186">
        <ele>447.63</ele>
        <time>2013-08-31T08:03:08Z</time>
      </trkpt>
      <trkpt lat="45.84885" lon="4.79192">
        <ele>448.59</ele>
        <time>2013-08-31T08:03:09Z</time>
      </trkpt>
      <trkpt lat="45.84886" lon="4.79196">
        <ele>448.59</ele>
        <time>2013-08-31T08:03:10Z</time>
      </trkpt>
      <trkpt lat="45.84886" lon="4.79201">
        <ele>449.07</ele>
        <time>2013-08-31T08:03:11Z</time>
      </trkpt>
      <trkpt lat="45.84886" lon="4.79221">
        <ele>451</ele>
        <time>2013-08-31T08:03:19Z</time>
      </trkpt>
      <trkpt lat="45.84892" lon="4.79243">
        <ele>452.92</ele>
        <time>2013-08-31T08:03:29Z</time>
      </trkpt>
      <trkpt lat="45.84904" lon="4.79265">
        <ele>454.84</ele>
        <time>2013-08-31T08:03:39Z</time>
      </trkpt>
      <trkpt lat="45.84905" lon="4.79267">
        <ele>454.84</ele>
        <time>2013-08-31T08:03:40Z</time>
      </trkpt>
      <trkpt lat="45.84907" lon="4.79269">
        <ele>455.32</ele>
        <time>2013-08-31T08:03:41Z</time>
      </trkpt>
      <trkpt lat="45.84921" lon="4.79284">
        <ele>456.76</ele>
        <time>2013-08-31T08:03:50Z</time>
      </trkpt>
      <trkpt lat="45.84934" lon="4.79292">
        <ele>458.69</ele>
        <time>2013-08-31T08:03:59Z</time>
      </trkpt>
      <trkpt lat="45.84944" lon="4.79293">
        <ele>459.17</ele>
        <time>2013-08-31T08:04:05Z</time>
      </trkpt>
      <trkpt lat="45.84946" lon="4.79293">
        <ele>458.69</ele>
        <time>2013-08-31T08:04:06Z</time>
      </trkpt>
      <trkpt lat="45.84948" lon="4.79294">
        <ele>459.17</ele>
        <time>2013-08-31T08:04:07Z</time>
      </trkpt>
      <trkpt lat="45.84951" lon="4.79295">
        <ele>459.17</ele>
        <time>2013-08-31T08:04:08Z</time>
      </trkpt>
      <trkpt lat="45.84953" lon="4.79296">
        <ele>459.65</ele>
        <time>2013-08-31T08:04:09Z</time>
      </trkpt>
      <trkpt lat="45.84956" lon="4.79297">
        <ele>460.13</ele>
        <time>2013-08-31T08:04:10Z</time>
      </trkpt>
      <trkpt lat="45.84957" lon="4.79297">
        <ele>459.65</ele>
        <time>2013-08-31T08:04:11Z</time>
      </trkpt>
      <trkpt lat="45.84959" lon="4.79296">
        <ele>460.61</ele>
        <time>2013-08-31T08:04:12Z</time>
      </trkpt>
      <trkpt lat="45.8496" lon="4.79295">
        <ele>461.09</ele>
        <time>2013-08-31T08:04:16Z</time>
      </trkpt>
      <trkpt lat="45.8496" lon="4.79295">
        <ele>461.09</ele>
        <time>2013-08-31T08:04:17Z</time>
      </trkpt>
      <trkpt lat="45.84957" lon="4.79291">
        <ele>462.05</ele>
        <time>2013-08-31T08:04:21Z</time>
      </trkpt>
      <trkpt lat="45.8495" lon="4.79277">
        <ele>463.49</ele>
        <time>2013-08-31T08:04:31Z</time>
      </trkpt>
      <trkpt lat="45.84945" lon="4.79257">
        <ele>465.42</ele>
        <time>2013-08-31T08:04:42Z</time>
      </trkpt>
      <trkpt lat="45.84945" lon="4.79254">
        <ele>465.9</ele>
        <time>2013-08-31T08:04:43Z</time>
      </trkpt>
      <trkpt lat="45.84945" lon="4.79252">
        <ele>465.9</ele>
        <time>2013-08-31T08:04:44Z</time>
      </trkpt>
      <trkpt lat="45.84946" lon="4.79248">
        <ele>466.38</ele>
        <time>2013-08-31T08:04:46Z</time>
      </trkpt>
      <trkpt lat="45.84947" lon="4.79247">
        <ele>466.38</ele>
        <time>2013-08-31T08:04:47Z</time>
      </trkpt>
      <trkpt lat="45.84959" lon="4.79247">
        <ele>468.3</ele>
        <time>2013-08-31T08:04:57Z</time>
      </trkpt>
      <trkpt lat="45.84969" lon="4.79243">
        <ele>469.74</ele>
        <time>2013-08-31T08:05:06Z</time>
      </trkpt>
      <trkpt lat="45.84977" lon="4.79242">
        <ele>470.7</ele>
        <time>2013-08-31T08:05:14Z</time>
      </trkpt>
      <trkpt lat="45.84985" lon="4.79243">
        <ele>470.7</ele>
        <time>2013-08-31T08:05:20Z</time>
      </trkpt>
      <trkpt lat="45.84998" lon="4.79244">
        <ele>471.66</ele>
        <time>2013-08-31T08:05:30Z</time>
      </trkpt>
      <trkpt lat="45.85007" lon="4.79245">
        <ele>472.14</ele>
        <time>2013-08-31T08:05:39Z</time>
      </trkpt>
      <trkpt lat="45.85012" lon="4.79246">
        <ele>473.59</ele>
        <time>2013-08-31T08:05:43Z</time>
      </trkpt>
      <trkpt lat="45.85016" lon="4.79246">
        <ele>473.59</ele>
        <time>2013-08-31T08:05:45Z</time>
      </trkpt>
      <trkpt lat="45.85018" lon="4.79246">
        <ele>473.59</ele>
        <time>2013-08-31T08:05:46Z</time>
      </trkpt>
      <trkpt lat="45.85028" lon="4.79246">
        <ele>474.07</ele>
        <time>2013-08-31T08:05:53Z</time>
      </trkpt>
      <trkpt lat="45.8503" lon="4.79247">
        <ele>474.55</ele>
        <time>2013-08-31T08:05:54Z</time>
      </trkpt>
      <trkpt lat="45.85032" lon="4.79247">
        <ele>474.55</ele>
        <time>2013-08-31T08:05:55Z</time>
      </trkpt>
      <trkpt lat="45.85038" lon="4.79248">
        <ele>475.03</ele>
        <time>2013-08-31T08:05:58Z</time>
      </trkpt>
      <trkpt lat="45.85039" lon="4.79247">
        <ele>475.51</ele>
        <time>2013-08-31T08:05:59Z</time>
      </trkpt>
      <trkpt lat="45.85052" lon="4.79247">
        <ele>475.99</ele>
        <time>2013-08-31T08:06:07Z</time>
      </trkpt>
      <trkpt lat="45.85056" lon="4.7925">
        <ele>476.47</ele>
        <time>2013-08-31T08:06:11Z</time>
      </trkpt>
      <trkpt lat="45.85076" lon="4.79266">
        <ele>477.91</ele>
        <time>2013-08-31T08:06:22Z</time>
      </trkpt>
      <trkpt lat="45.8509" lon="4.79268">
        <ele>479.84</ele>
        <time>2013-08-31T08:06:30Z</time>
      </trkpt>
      <trkpt lat="45.85095" lon="4.7927">
        <ele>479.84</ele>
        <time>2013-08-31T08:06:33Z</time>
      </trkpt>
      <trkpt lat="45.85097" lon="4.7927">
        <ele>480.32</ele>
        <time>2013-08-31T08:06:34Z</time>
      </trkpt>
      <trkpt lat="45.851" lon="4.79271">
        <ele>480.32</ele>
        <time>2013-08-31T08:06:35Z</time>
      </trkpt>
      <trkpt lat="45.85101" lon="4.7927">
        <ele>480.8</ele>
        <time>2013-08-31T08:06:36Z</time>
      </trkpt>
      <trkpt lat="45.85103" lon="4.7927">
        <ele>480.8</ele>
        <time>2013-08-31T08:06:37Z</time>
      </trkpt>
      <trkpt lat="45.85111" lon="4.7927">
        <ele>481.76</ele>
        <time>2013-08-31T08:06:42Z</time>
      </trkpt>
      <trkpt lat="45.85119" lon="4.79268">
        <ele>482.24</ele>
        <time>2013-08-31T08:06:47Z</time>
      </trkpt>
      <trkpt lat="45.8512" lon="4.79269">
        <ele>482.24</ele>
        <time>2013-08-31T08:06:48Z</time>
      </trkpt>
      <trkpt lat="45.85135" lon="4.79272">
        <ele>482.24</ele>
        <time>2013-08-31T08:06:55Z</time>
      </trkpt>
      <trkpt lat="45.85148" lon="4.79271">
        <ele>482.72</ele>
        <time>2013-08-31T08:07:02Z</time>
      </trkpt>
      <trkpt lat="45.85155" lon="4.79267">
        <ele>484.16</ele>
        <time>2013-08-31T08:07:06Z</time>
      </trkpt>
      <trkpt lat="45.85165" lon="4.79272">
        <ele>484.16</ele>
        <time>2013-08-31T08:07:16Z</time>
      </trkpt>
      <trkpt lat="45.85165" lon="4.79272">
        <ele>484.16</ele>
        <time>2013-08-31T08:07:39Z</time>
      </trkpt>
      <trkpt lat="45.85171" lon="4.79275">
        <ele>481.76</ele>
        <time>2013-08-31T08:07:45Z</time>
      </trkpt>
      <trkpt lat="45.85172" lon="4.79276">
        <ele>481.76</ele>
        <time>2013-08-31T08:07:46Z</time>
      </trkpt>
      <trkpt lat="45.85189" lon="4.79293">
        <ele>477.91</ele>
        <time>2013-08-31T08:07:51Z</time>
      </trkpt>
      <trkpt lat="45.85202" lon="4.79305">
        <ele>473.59</ele>
        <time>2013-08-31T08:07:55Z</time>
      </trkpt>
      <trkpt lat="45.85213" lon="4.79315">
        <ele>470.22</ele>
        <time>2013-08-31T08:07:58Z</time>
      </trkpt>
      <trkpt lat="45.85217" lon="4.79318">
        <ele>469.74</ele>
        <time>2013-08-31T08:07:59Z</time>
      </trkpt>
      <trkpt lat="45.85227" lon="4.79324">
        <ele>467.82</ele>
        <time>2013-08-31T08:08:02Z</time>
      </trkpt>
      <trkpt lat="45.85235" lon="4.79325">
        <ele>467.34</ele>
        <time>2013-08-31T08:08:10Z</time>
      </trkpt>
      <trkpt lat="45.85236" lon="4.79326">
        <ele>466.38</ele>
        <time>2013-08-31T08:08:14Z</time>
      </trkpt>
      <trkpt lat="45.85244" lon="4.79333">
        <ele>464.93</ele>
        <time>2013-08-31T08:08:24Z</time>
      </trkpt>
      <trkpt lat="45.85246" lon="4.79333">
        <ele>464.45</ele>
        <time>2013-08-31T08:08:32Z</time>
      </trkpt>
      <trkpt lat="45.85246" lon="4.79334">
        <ele>464.93</ele>
        <time>2013-08-31T08:08:45Z</time>
      </trkpt>
      <trkpt lat="45.85246" lon="4.79334">
        <ele>465.42</ele>
        <time>2013-08-31T08:08:54Z</time>
      </trkpt>
      <trkpt lat="45.85247" lon="4.79334">
        <ele>464.45</ele>
        <time>2013-08-31T08:09:06Z</time>
      </trkpt>
      <trkpt lat="45.85255" lon="4.79332">
        <ele>463.49</ele>
        <time>2013-08-31T08:09:18Z</time>
      </trkpt>
      <trkpt lat="45.85272" lon="4.79333">
        <ele>460.13</ele>
        <time>2013-08-31T08:09:24Z</time>
      </trkpt>
      <trkpt lat="45.8529" lon="4.79339">
        <ele>455.8</ele>
        <time>2013-08-31T08:09:29Z</time>
      </trkpt>
      <trkpt lat="45.85291" lon="4.7934">
        <ele>455.8</ele>
        <time>2013-08-31T08:09:30Z</time>
      </trkpt>
      <trkpt lat="45.85302" lon="4.79341">
        <ele>454.84</ele>
        <time>2013-08-31T08:09:31Z</time>
      </trkpt>
      <trkpt lat="45.85337" lon="4.79354">
        <ele>452.92</ele>
        <time>2013-08-31T08:09:35Z</time>
      </trkpt>
      <trkpt lat="45.85374" lon="4.79371">
        <ele>452.44</ele>
        <time>2013-08-31T08:09:42Z</time>
      </trkpt>
      <trkpt lat="45.85383" lon="4.79355">
        <ele>453.88</ele>
        <time>2013-08-31T08:09:48Z</time>
      </trkpt>
      <trkpt lat="45.85391" lon="4.79303">
        <ele>456.28</ele>
        <time>2013-08-31T08:10:01Z</time>
      </trkpt>
      <trkpt lat="45.85409" lon="4.79299">
        <ele>457.24</ele>
        <time>2013-08-31T08:10:08Z</time>
      </trkpt>
      <trkpt lat="45.85434" lon="4.79308">
        <ele>458.69</ele>
        <time>2013-08-31T08:10:18Z</time>
      </trkpt>
      <trkpt lat="45.85461" lon="4.79315">
        <ele>460.61</ele>
        <time>2013-08-31T08:10:31Z</time>
      </trkpt>
      <trkpt lat="45.85463" lon="4.79315">
        <ele>461.09</ele>
        <time>2013-08-31T08:10:32Z</time>
      </trkpt>
      <trkpt lat="45.85469" lon="4.79288">
        <ele>462.53</ele>
        <time>2013-08-31T08:10:42Z</time>
      </trkpt>
      <trkpt lat="45.85471" lon="4.79278">
        <ele>462.53</ele>
        <time>2013-08-31T08:10:46Z</time>
      </trkpt>
      <trkpt lat="45.85496" lon="4.79273">
        <ele>464.45</ele>
        <time>2013-08-31T08:11:00Z</time>
      </trkpt>
      <trkpt lat="45.85519" lon="4.79269">
        <ele>465.9</ele>
        <time>2013-08-31T08:11:12Z</time>
      </trkpt>
      <trkpt lat="45.85542" lon="4.79265">
        <ele>467.82</ele>
        <time>2013-08-31T08:11:25Z</time>
      </trkpt>
      <trkpt lat="45.8556" lon="4.79268">
        <ele>469.74</ele>
        <time>2013-08-31T08:11:36Z</time>
      </trkpt>
      <trkpt lat="45.85575" lon="4.79288">
        <ele>471.18</ele>
        <time>2013-08-31T08:11:49Z</time>
      </trkpt>
      <trkpt lat="45.85576" lon="4.7929">
        <ele>471.66</ele>
        <time>2013-08-31T08:11:50Z</time>
      </trkpt>
      <trkpt lat="45.85591" lon="4.79311">
        <ele>473.11</ele>
        <time>2013-08-31T08:12:04Z</time>
      </trkpt>
      <trkpt lat="45.85604" lon="4.79328">
        <ele>474.07</ele>
        <time>2013-08-31T08:12:15Z</time>
      </trkpt>
      <trkpt lat="45.85616" lon="4.79348">
        <ele>475.03</ele>
        <time>2013-08-31T08:12:25Z</time>
      </trkpt>
      <trkpt lat="45.85618" lon="4.79352">
        <ele>475.03</ele>
        <time>2013-08-31T08:12:27Z</time>
      </trkpt>
      <trkpt lat="45.8562" lon="4.7934">
        <ele>475.51</ele>
        <time>2013-08-31T08:12:35Z</time>
      </trkpt>
      <trkpt lat="45.85619" lon="4.79335">
        <ele>476.95</ele>
        <time>2013-08-31T08:12:37Z</time>
      </trkpt>
      <trkpt lat="45.85615" lon="4.79323">
        <ele>476.95</ele>
        <time>2013-08-31T08:12:42Z</time>
      </trkpt>
      <trkpt lat="45.85607" lon="4.7929">
        <ele>477.91</ele>
        <time>2013-08-31T08:12:55Z</time>
      </trkpt>
      <trkpt lat="45.85601" lon="4.79255">
        <ele>478.39</ele>
        <time>2013-08-31T08:13:06Z</time>
      </trkpt>
      <trkpt lat="45.85599" lon="4.79217">
        <ele>482.24</ele>
        <time>2013-08-31T08:13:18Z</time>
      </trkpt>
      <trkpt lat="45.85599" lon="4.79207">
        <ele>479.35</ele>
        <time>2013-08-31T08:13:21Z</time>
      </trkpt>
      <trkpt lat="45.85599" lon="4.79204">
        <ele>483.2</ele>
        <time>2013-08-31T08:13:22Z</time>
      </trkpt>
      <trkpt lat="45.85599" lon="4.79201">
        <ele>479.35</ele>
        <time>2013-08-31T08:13:23Z</time>
      </trkpt>
      <trkpt lat="45.85598" lon="4.79164">
        <ele>481.28</ele>
        <time>2013-08-31T08:13:35Z</time>
      </trkpt>
      <trkpt lat="45.85597" lon="4.7912">
        <ele>483.68</ele>
        <time>2013-08-31T08:13:49Z</time>
      </trkpt>
      <trkpt lat="45.85594" lon="4.79098">
        <ele>485.12</ele>
        <time>2013-08-31T08:13:58Z</time>
      </trkpt>
      <trkpt lat="45.8558" lon="4.79079">
        <ele>486.56</ele>
        <time>2013-08-31T08:14:09Z</time>
      </trkpt>
      <trkpt lat="45.85563" lon="4.79066">
        <ele>488.49</ele>
        <time>2013-08-31T08:14:20Z</time>
      </trkpt>
      <trkpt lat="45.85544" lon="4.79051">
        <ele>489.45</ele>
        <time>2013-08-31T08:14:32Z</time>
      </trkpt>
      <trkpt lat="45.85524" lon="4.79036">
        <ele>491.37</ele>
        <time>2013-08-31T08:14:43Z</time>
      </trkpt>
      <trkpt lat="45.85504" lon="4.79022">
        <ele>492.33</ele>
        <time>2013-08-31T08:14:54Z</time>
      </trkpt>
      <trkpt lat="45.85503" lon="4.79021">
        <ele>492.81</ele>
        <time>2013-08-31T08:14:55Z</time>
      </trkpt>
      <trkpt lat="45.85503" lon="4.79013">
        <ele>493.77</ele>
        <time>2013-08-31T08:15:03Z</time>
      </trkpt>
      <trkpt lat="45.85524" lon="4.79027">
        <ele>493.77</ele>
        <time>2013-08-31T08:15:14Z</time>
      </trkpt>
      <trkpt lat="45.85526" lon="4.79028">
        <ele>494.26</ele>
        <time>2013-08-31T08:15:15Z</time>
      </trkpt>
      <trkpt lat="45.85536" lon="4.79018">
        <ele>495.7</ele>
        <time>2013-08-31T08:15:23Z</time>
      </trkpt>
      <trkpt lat="45.85538" lon="4.79015">
        <ele>496.66</ele>
        <time>2013-08-31T08:15:25Z</time>
      </trkpt>
      <trkpt lat="45.85539" lon="4.79008">
        <ele>497.14</ele>
        <time>2013-08-31T08:15:29Z</time>
      </trkpt>
      <trkpt lat="45.8554" lon="4.79003">
        <ele>498.58</ele>
        <time>2013-08-31T08:15:38Z</time>
      </trkpt>
      <trkpt lat="45.8554" lon="4.79003">
        <ele>498.58</ele>
        <time>2013-08-31T08:15:53Z</time>
      </trkpt>
      <trkpt lat="45.8554" lon="4.79002">
        <ele>498.58</ele>
        <time>2013-08-31T08:16:10Z</time>
      </trkpt>
      <trkpt lat="45.85541" lon="4.78999">
        <ele>498.58</ele>
        <time>2013-08-31T08:16:29Z</time>
      </trkpt>
      <trkpt lat="45.85543" lon="4.78993">
        <ele>499.54</ele>
        <time>2013-08-31T08:16:43Z</time>
      </trkpt>
      <trkpt lat="45.85545" lon="4.78984">
        <ele>500.5</ele>
        <time>2013-08-31T08:16:55Z</time>
      </trkpt>
      <trkpt lat="45.85549" lon="4.7897">
        <ele>501.95</ele>
        <time>2013-08-31T08:17:06Z</time>
      </trkpt>
      <trkpt lat="45.8555" lon="4.78968">
        <ele>501.46</ele>
        <time>2013-08-31T08:17:08Z</time>
      </trkpt>
      <trkpt lat="45.85553" lon="4.78954">
        <ele>502.43</ele>
        <time>2013-08-31T08:17:20Z</time>
      </trkpt>
      <trkpt lat="45.85557" lon="4.78941">
        <ele>504.83</ele>
        <time>2013-08-31T08:17:32Z</time>
      </trkpt>
      <trkpt lat="45.85561" lon="4.78929">
        <ele>506.75</ele>
        <time>2013-08-31T08:17:44Z</time>
      </trkpt>
      <trkpt lat="45.85563" lon="4.78924">
        <ele>507.23</ele>
        <time>2013-08-31T08:17:56Z</time>
      </trkpt>
      <trkpt lat="45.85562" lon="4.7892">
        <ele>508.19</ele>
        <time>2013-08-31T08:18:04Z</time>
      </trkpt>
      <trkpt lat="45.85562" lon="4.78916">
        <ele>508.67</ele>
        <time>2013-08-31T08:18:14Z</time>
      </trkpt>
      <trkpt lat="45.85565" lon="4.78907">
        <ele>509.64</ele>
        <time>2013-08-31T08:18:27Z</time>
      </trkpt>
      <trkpt lat="45.85567" lon="4.78902">
        <ele>511.08</ele>
        <time>2013-08-31T08:18:36Z</time>
      </trkpt>
      <trkpt lat="45.85567" lon="4.78902">
        <ele>510.6</ele>
        <time>2013-08-31T08:18:52Z</time>
      </trkpt>
      <trkpt lat="45.85567" lon="4.78902">
        <ele>510.12</ele>
        <time>2013-08-31T08:19:08Z</time>
      </trkpt>
      <trkpt lat="45.85567" lon="4.78902">
        <ele>509.64</ele>
        <time>2013-08-31T08:19:37Z</time>
      </trkpt>
      <trkpt lat="45.85567" lon="4.78902">
        <ele>507.23</ele>
        <time>2013-08-31T08:19:58Z</time>
      </trkpt>
      <trkpt lat="45.85567" lon="4.78902">
        <ele>510.6</ele>
        <time>2013-08-31T08:19:59Z</time>
      </trkpt>
      <trkpt lat="45.85567" lon="4.78902">
        <ele>510.12</ele>
        <time>2013-08-31T08:20:27Z</time>
      </trkpt>
      <trkpt lat="45.85567" lon="4.78902">
        <ele>509.64</ele>
        <time>2013-08-31T08:20:47Z</time>
      </trkpt>
      <trkpt lat="45.85567" lon="4.78902">
        <ele>510.6</ele>
        <time>2013-08-31T08:21:01Z</time>
      </trkpt>
      <trkpt lat="45.85567" lon="4.78902">
        <ele>510.12</ele>
        <time>2013-08-31T08:21:29Z</time>
      </trkpt>
      <trkpt lat="45.85567" lon="4.78902">
        <ele>509.64</ele>
        <time>2013-08-31T08:21:54Z</time>
      </trkpt>
      <trkpt lat="45.85567" lon="4.78902">
        <ele>509.16</ele>
        <time>2013-08-31T08:22:29Z</time>
      </trkpt>
      <trkpt lat="45.85567" lon="4.78901">
        <ele>510.12</ele>
        <time>2013-08-31T08:22:56Z</time>
      </trkpt>
      <trkpt lat="45.85567" lon="4.78901">
        <ele>509.16</ele>
        <time>2013-08-31T08:23:21Z</time>
      </trkpt>
      <trkpt lat="45.85567" lon="4.78901">
        <ele>510.12</ele>
        <time>2013-08-31T08:23:40Z</time>
      </trkpt>
      <trkpt lat="45.85567" lon="4.78901">
        <ele>509.64</ele>
        <time>2013-08-31T08:24:08Z</time>
      </trkpt>
      <trkpt lat="45.85567" lon="4.78901">
        <ele>509.64</ele>
        <time>2013-08-31T08:24:37Z</time>
      </trkpt>
      <trkpt lat="45.85567" lon="4.78904">
        <ele>508.67</ele>
        <time>2013-08-31T08:24:49Z</time>
      </trkpt>
      <trkpt lat="45.85567" lon="4.78904">
        <ele>509.16</ele>
        <time>2013-08-31T08:24:53Z</time>
      </trkpt>
      <trkpt lat="45.85563" lon="4.7892">
        <ele>507.23</ele>
        <time>2013-08-31T08:24:57Z</time>
      </trkpt>
      <trkpt lat="45.85561" lon="4.78927">
        <ele>506.75</ele>
        <time>2013-08-31T08:24:58Z</time>
      </trkpt>
      <trkpt lat="45.85556" lon="4.78943">
        <ele>505.31</ele>
        <time>2013-08-31T08:25:00Z</time>
      </trkpt>
      <trkpt lat="45.85549" lon="4.78969">
        <ele>502.43</ele>
        <time>2013-08-31T08:25:03Z</time>
      </trkpt>
      <trkpt lat="45.8554" lon="4.78999">
        <ele>499.06</ele>
        <time>2013-08-31T08:25:07Z</time>
      </trkpt>
      <trkpt lat="45.85536" lon="4.79011">
        <ele>497.62</ele>
        <time>2013-08-31T08:25:09Z</time>
      </trkpt>
      <trkpt lat="45.85533" lon="4.79021">
        <ele>496.18</ele>
        <time>2013-08-31T08:25:11Z</time>
      </trkpt>
      <trkpt lat="45.85532" lon="4.79035">
        <ele>493.29</ele>
        <time>2013-08-31T08:25:15Z</time>
      </trkpt>
      <trkpt lat="45.85552" lon="4.79051">
        <ele>491.37</ele>
        <time>2013-08-31T08:25:25Z</time>
      </trkpt>
      <trkpt lat="45.85564" lon="4.79054">
        <ele>492.33</ele>
        <time>2013-08-31T08:25:33Z</time>
      </trkpt>
      <trkpt lat="45.85581" lon="4.79056">
        <ele>491.85</ele>
        <time>2013-08-31T08:25:40Z</time>
      </trkpt>
      <trkpt lat="45.85597" lon="4.79057">
        <ele>492.33</ele>
        <time>2013-08-31T08:25:49Z</time>
      </trkpt>
      <trkpt lat="45.85603" lon="4.79058">
        <ele>491.85</ele>
        <time>2013-08-31T08:25:57Z</time>
      </trkpt>
      <trkpt lat="45.85607" lon="4.79058">
        <ele>491.85</ele>
        <time>2013-08-31T08:26:05Z</time>
      </trkpt>
      <trkpt lat="45.85616" lon="4.79061">
        <ele>492.81</ele>
        <time>2013-08-31T08:26:13Z</time>
      </trkpt>
      <trkpt lat="45.85618" lon="4.79062">
        <ele>492.81</ele>
        <time>2013-08-31T08:26:19Z</time>
      </trkpt>
      <trkpt lat="45.85635" lon="4.79069">
        <ele>493.77</ele>
        <time>2013-08-31T08:26:27Z</time>
      </trkpt>
      <trkpt lat="45.85656" lon="4.79084">
        <ele>495.22</ele>
        <time>2013-08-31T08:26:38Z</time>
      </trkpt>
      <trkpt lat="45.85671" lon="4.79096">
        <ele>497.14</ele>
        <time>2013-08-31T08:26:47Z</time>
      </trkpt>
      <trkpt lat="45.85677" lon="4.79101">
        <ele>497.62</ele>
        <time>2013-08-31T08:26:51Z</time>
      </trkpt>
      <trkpt lat="45.85689" lon="4.79112">
        <ele>498.58</ele>
        <time>2013-08-31T08:27:01Z</time>
      </trkpt>
      <trkpt lat="45.85703" lon="4.79121">
        <ele>500.02</ele>
        <time>2013-08-31T08:27:10Z</time>
      </trkpt>
      <trkpt lat="45.85715" lon="4.79125">
        <ele>501.95</ele>
        <time>2013-08-31T08:27:18Z</time>
      </trkpt>
      <trkpt lat="45.85727" lon="4.79128">
        <ele>502.91</ele>
        <time>2013-08-31T08:27:28Z</time>
      </trkpt>
      <trkpt lat="45.85738" lon="4.79133">
        <ele>503.87</ele>
        <time>2013-08-31T08:27:37Z</time>
      </trkpt>
      <trkpt lat="45.85754" lon="4.79138">
        <ele>505.31</ele>
        <time>2013-08-31T08:27:48Z</time>
      </trkpt>
      <trkpt lat="45.85768" lon="4.79146">
        <ele>505.31</ele>
        <time>2013-08-31T08:27:57Z</time>
      </trkpt>
      <trkpt lat="45.85788" lon="4.79154">
        <ele>505.79</ele>
        <time>2013-08-31T08:28:08Z</time>
      </trkpt>
      <trkpt lat="45.85794" lon="4.79156">
        <ele>505.79</ele>
        <time>2013-08-31T08:28:12Z</time>
      </trkpt>
      <trkpt lat="45.85805" lon="4.79162">
        <ele>506.75</ele>
        <time>2013-08-31T08:28:19Z</time>
      </trkpt>
      <trkpt lat="45.85827" lon="4.79174">
        <ele>507.23</ele>
        <time>2013-08-31T08:28:31Z</time>
      </trkpt>
      <trkpt lat="45.8585" lon="4.79185">
        <ele>508.19</ele>
        <time>2013-08-31T08:28:43Z</time>
      </trkpt>
      <trkpt lat="45.85852" lon="4.79186">
        <ele>508.19</ele>
        <time>2013-08-31T08:28:44Z</time>
      </trkpt>
      <trkpt lat="45.85861" lon="4.79187">
        <ele>508.67</ele>
        <time>2013-08-31T08:28:49Z</time>
      </trkpt>
      <trkpt lat="45.85863" lon="4.7918">
        <ele>509.64</ele>
        <time>2013-08-31T08:28:57Z</time>
      </trkpt>
      <trkpt lat="45.85863" lon="4.7918">
        <ele>510.12</ele>
        <time>2013-08-31T08:29:08Z</time>
      </trkpt>
      <trkpt lat="45.8586" lon="4.79171">
        <ele>509.64</ele>
        <time>2013-08-31T08:29:13Z</time>
      </trkpt>
      <trkpt lat="45.85856" lon="4.79141">
        <ele>512.04</ele>
        <time>2013-08-31T08:29:27Z</time>
      </trkpt>
      <trkpt lat="45.85848" lon="4.79111">
        <ele>513.96</ele>
        <time>2013-08-31T08:29:40Z</time>
      </trkpt>
      <trkpt lat="45.85838" lon="4.79084">
        <ele>515.88</ele>
        <time>2013-08-31T08:29:52Z</time>
      </trkpt>
      <trkpt lat="45.85829" lon="4.79059">
        <ele>517.33</ele>
        <time>2013-08-31T08:30:03Z</time>
      </trkpt>
      <trkpt lat="45.85821" lon="4.79031">
        <ele>519.25</ele>
        <time>2013-08-31T08:30:16Z</time>
      </trkpt>
      <trkpt lat="45.85813" lon="4.78997">
        <ele>521.65</ele>
        <time>2013-08-31T08:30:31Z</time>
      </trkpt>
      <trkpt lat="45.85812" lon="4.78992">
        <ele>521.65</ele>
        <time>2013-08-31T08:30:33Z</time>
      </trkpt>
      <trkpt lat="45.85808" lon="4.78982">
        <ele>522.13</ele>
        <time>2013-08-31T08:30:37Z</time>
      </trkpt>
      <trkpt lat="45.85804" lon="4.7896">
        <ele>523.58</ele>
        <time>2013-08-31T08:30:46Z</time>
      </trkpt>
      <trkpt lat="45.85794" lon="4.78929">
        <ele>525.5</ele>
        <time>2013-08-31T08:30:59Z</time>
      </trkpt>
      <trkpt lat="45.85787" lon="4.78901">
        <ele>526.94</ele>
        <time>2013-08-31T08:31:11Z</time>
      </trkpt>
      <trkpt lat="45.85787" lon="4.78898">
        <ele>527.42</ele>
        <time>2013-08-31T08:31:12Z</time>
      </trkpt>
      <trkpt lat="45.85793" lon="4.78875">
        <ele>529.34</ele>
        <time>2013-08-31T08:31:24Z</time>
      </trkpt>
      <trkpt lat="45.85794" lon="4.78868">
        <ele>530.3</ele>
        <time>2013-08-31T08:31:28Z</time>
      </trkpt>
      <trkpt lat="45.85795" lon="4.78857">
        <ele>531.27</ele>
        <time>2013-08-31T08:31:34Z</time>
      </trkpt>
      <trkpt lat="45.858" lon="4.78843">
        <ele>532.71</ele>
        <time>2013-08-31T08:31:42Z</time>
      </trkpt>
      <trkpt lat="45.85801" lon="4.78838">
        <ele>533.19</ele>
        <time>2013-08-31T08:31:45Z</time>
      </trkpt>
      <trkpt lat="45.85808" lon="4.78826">
        <ele>535.11</ele>
        <time>2013-08-31T08:31:54Z</time>
      </trkpt>
      <trkpt lat="45.85819" lon="4.7881">
        <ele>535.59</ele>
        <time>2013-08-31T08:32:06Z</time>
      </trkpt>
      <trkpt lat="45.8582" lon="4.78809">
        <ele>540.88</ele>
        <time>2013-08-31T08:32:11Z</time>
      </trkpt>
      <trkpt lat="45.8582" lon="4.78809">
        <ele>536.07</ele>
        <time>2013-08-31T08:32:12Z</time>
      </trkpt>
      <trkpt lat="45.8582" lon="4.78809">
        <ele>536.07</ele>
        <time>2013-08-31T08:32:37Z</time>
      </trkpt>
      <trkpt lat="45.8582" lon="4.78809">
        <ele>535.11</ele>
        <time>2013-08-31T08:33:06Z</time>
      </trkpt>
      <trkpt lat="45.8582" lon="4.78809">
        <ele>535.59</ele>
        <time>2013-08-31T08:33:19Z</time>
      </trkpt>
      <trkpt lat="45.85819" lon="4.78808">
        <ele>535.11</ele>
        <time>2013-08-31T08:33:43Z</time>
      </trkpt>
      <trkpt lat="45.8582" lon="4.78808">
        <ele>535.11</ele>
        <time>2013-08-31T08:34:08Z</time>
      </trkpt>
      <trkpt lat="45.8582" lon="4.78808">
        <ele>535.59</ele>
        <time>2013-08-31T08:34:24Z</time>
      </trkpt>
      <trkpt lat="45.8582" lon="4.78808">
        <ele>535.11</ele>
        <time>2013-08-31T08:34:49Z</time>
      </trkpt>
      <trkpt lat="45.8582" lon="4.78808">
        <ele>535.59</ele>
        <time>2013-08-31T08:35:12Z</time>
      </trkpt>
      <trkpt lat="45.8582" lon="4.78808">
        <ele>535.11</ele>
        <time>2013-08-31T08:35:32Z</time>
      </trkpt>
      <trkpt lat="45.8582" lon="4.78808">
        <ele>535.11</ele>
        <time>2013-08-31T08:35:50Z</time>
      </trkpt>
      <trkpt lat="45.85819" lon="4.78808">
        <ele>535.59</ele>
        <time>2013-08-31T08:36:08Z</time>
      </trkpt>
      <trkpt lat="45.85819" lon="4.78808">
        <ele>535.11</ele>
        <time>2013-08-31T08:36:18Z</time>
      </trkpt>
      <trkpt lat="45.85819" lon="4.78808">
        <ele>535.59</ele>
        <time>2013-08-31T08:36:40Z</time>
      </trkpt>
      <trkpt lat="45.8582" lon="4.78808">
        <ele>535.59</ele>
        <time>2013-08-31T08:37:06Z</time>
      </trkpt>
      <trkpt lat="45.8582" lon="4.78808">
        <ele>535.11</ele>
        <time>2013-08-31T08:37:22Z</time>
      </trkpt>
      <trkpt lat="45.85828" lon="4.78809">
        <ele>536.07</ele>
        <time>2013-08-31T08:37:31Z</time>
      </trkpt>
      <trkpt lat="45.85834" lon="4.78815">
        <ele>536.55</ele>
        <time>2013-08-31T08:37:36Z</time>
      </trkpt>
      <trkpt lat="45.85839" lon="4.78828">
        <ele>537.51</ele>
        <time>2013-08-31T08:37:43Z</time>
      </trkpt>
      <trkpt lat="45.8585" lon="4.78827">
        <ele>539.44</ele>
        <time>2013-08-31T08:37:51Z</time>
      </trkpt>
      <trkpt lat="45.8586" lon="4.78825">
        <ele>537.99</ele>
        <time>2013-08-31T08:37:56Z</time>
      </trkpt>
      <trkpt lat="45.85885" lon="4.78828">
        <ele>535.11</ele>
        <time>2013-08-31T08:38:02Z</time>
      </trkpt>
      <trkpt lat="45.85889" lon="4.78829">
        <ele>534.63</ele>
        <time>2013-08-31T08:38:03Z</time>
      </trkpt>
      <trkpt lat="45.85894" lon="4.78829">
        <ele>534.15</ele>
        <time>2013-08-31T08:38:04Z</time>
      </trkpt>
      <trkpt lat="45.85911" lon="4.78831">
        <ele>532.71</ele>
        <time>2013-08-31T08:38:11Z</time>
      </trkpt>
      <trkpt lat="45.85914" lon="4.7883">
        <ele>532.71</ele>
        <time>2013-08-31T08:38:13Z</time>
      </trkpt>
      <trkpt lat="45.85916" lon="4.78829">
        <ele>531.75</ele>
        <time>2013-08-31T08:38:14Z</time>
      </trkpt>
      <trkpt lat="45.85919" lon="4.78829">
        <ele>532.23</ele>
        <time>2013-08-31T08:38:15Z</time>
      </trkpt>
      <trkpt lat="45.85923" lon="4.7883">
        <ele>530.79</ele>
        <time>2013-08-31T08:38:16Z</time>
      </trkpt>
      <trkpt lat="45.85928" lon="4.78832">
        <ele>529.82</ele>
        <time>2013-08-31T08:38:17Z</time>
      </trkpt>
      <trkpt lat="45.85932" lon="4.78833">
        <ele>529.82</ele>
        <time>2013-08-31T08:38:18Z</time>
      </trkpt>
      <trkpt lat="45.85954" lon="4.78842">
        <ele>526.46</ele>
        <time>2013-08-31T08:38:23Z</time>
      </trkpt>
      <trkpt lat="45.85973" lon="4.78849">
        <ele>525.5</ele>
        <time>2013-08-31T08:38:29Z</time>
      </trkpt>
      <trkpt lat="45.8599" lon="4.78861">
        <ele>524.06</ele>
        <time>2013-08-31T08:38:34Z</time>
      </trkpt>
      <trkpt lat="45.86007" lon="4.78867">
        <ele>523.58</ele>
        <time>2013-08-31T08:38:38Z</time>
      </trkpt>
      <trkpt lat="45.86012" lon="4.7887">
        <ele>522.61</ele>
        <time>2013-08-31T08:38:39Z</time>
      </trkpt>
      <trkpt lat="45.86048" lon="4.78889">
        <ele>521.65</ele>
        <time>2013-08-31T08:38:46Z</time>
      </trkpt>
      <trkpt lat="45.86066" lon="4.789">
        <ele>520.69</ele>
        <time>2013-08-31T08:38:49Z</time>
      </trkpt>
      <trkpt lat="45.86078" lon="4.78906">
        <ele>519.73</ele>
        <time>2013-08-31T08:38:51Z</time>
      </trkpt>
      <trkpt lat="45.86083" lon="4.78908">
        <ele>519.25</ele>
        <time>2013-08-31T08:38:52Z</time>
      </trkpt>
      <trkpt lat="45.86104" lon="4.78927">
        <ele>517.81</ele>
        <time>2013-08-31T08:38:56Z</time>
      </trkpt>
      <trkpt lat="45.86108" lon="4.78932">
        <ele>517.33</ele>
        <time>2013-08-31T08:38:57Z</time>
      </trkpt>
      <trkpt lat="45.86112" lon="4.78938">
        <ele>517.81</ele>
        <time>2013-08-31T08:38:58Z</time>
      </trkpt>
      <trkpt lat="45.86115" lon="4.78943">
        <ele>518.29</ele>
        <time>2013-08-31T08:38:59Z</time>
      </trkpt>
      <trkpt lat="45.86118" lon="4.78946">
        <ele>518.29</ele>
        <time>2013-08-31T08:39:00Z</time>
      </trkpt>
      <trkpt lat="45.86121" lon="4.7895">
        <ele>519.25</ele>
        <time>2013-08-31T08:39:01Z</time>
      </trkpt>
      <trkpt lat="45.86123" lon="4.78954">
        <ele>518.77</ele>
        <time>2013-08-31T08:39:02Z</time>
      </trkpt>
      <trkpt lat="45.86137" lon="4.78984">
        <ele>517.33</ele>
        <time>2013-08-31T08:39:09Z</time>
      </trkpt>
      <trkpt lat="45.86155" lon="4.79014">
        <ele>516.85</ele>
        <time>2013-08-31T08:39:16Z</time>
      </trkpt>
      <trkpt lat="45.86177" lon="4.79044">
        <ele>514.92</ele>
        <time>2013-08-31T08:39:22Z</time>
      </trkpt>
      <trkpt lat="45.86184" lon="4.79054">
        <ele>513.96</ele>
        <time>2013-08-31T08:39:24Z</time>
      </trkpt>
      <trkpt lat="45.86192" lon="4.79064">
        <ele>512.04</ele>
        <time>2013-08-31T08:39:26Z</time>
      </trkpt>
      <trkpt lat="45.86197" lon="4.79068">
        <ele>512.04</ele>
        <time>2013-08-31T08:39:27Z</time>
      </trkpt>
      <trkpt lat="45.86209" lon="4.79081">
        <ele>508.67</ele>
        <time>2013-08-31T08:39:30Z</time>
      </trkpt>
      <trkpt lat="45.86214" lon="4.79085">
        <ele>508.19</ele>
        <time>2013-08-31T08:39:31Z</time>
      </trkpt>
      <trkpt lat="45.86218" lon="4.7909">
        <ele>507.71</ele>
        <time>2013-08-31T08:39:32Z</time>
      </trkpt>
      <trkpt lat="45.86242" lon="4.79126">
        <ele>506.75</ele>
        <time>2013-08-31T08:39:38Z</time>
      </trkpt>
      <trkpt lat="45.86261" lon="4.79158">
        <ele>505.31</ele>
        <time>2013-08-31T08:39:45Z</time>
      </trkpt>
      <trkpt lat="45.8628" lon="4.79182">
        <ele>505.31</ele>
        <time>2013-08-31T08:39:50Z</time>
      </trkpt>
      <trkpt lat="45.86303" lon="4.79211">
        <ele>502.43</ele>
        <time>2013-08-31T08:39:54Z</time>
      </trkpt>
      <trkpt lat="45.86329" lon="4.79237">
        <ele>499.54</ele>
        <time>2013-08-31T08:39:58Z</time>
      </trkpt>
      <trkpt lat="45.86335" lon="4.79242">
        <ele>498.58</ele>
        <time>2013-08-31T08:39:59Z</time>
      </trkpt>
      <trkpt lat="45.8634" lon="4.79248">
        <ele>498.1</ele>
        <time>2013-08-31T08:40:00Z</time>
      </trkpt>
      <trkpt lat="45.86361" lon="4.79273">
        <ele>494.74</ele>
        <time>2013-08-31T08:40:04Z</time>
      </trkpt>
      <trkpt lat="45.86383" lon="4.79294">
        <ele>490.89</ele>
        <time>2013-08-31T08:40:08Z</time>
      </trkpt>
      <trkpt lat="45.86387" lon="4.79301">
        <ele>490.41</ele>
        <time>2013-08-31T08:40:09Z</time>
      </trkpt>
      <trkpt lat="45.86412" lon="4.79338">
        <ele>487.05</ele>
        <time>2013-08-31T08:40:14Z</time>
      </trkpt>
      <trkpt lat="45.86425" lon="4.79357">
        <ele>485.6</ele>
        <time>2013-08-31T08:40:17Z</time>
      </trkpt>
      <trkpt lat="45.86429" lon="4.79363">
        <ele>484.64</ele>
        <time>2013-08-31T08:40:18Z</time>
      </trkpt>
      <trkpt lat="45.86438" lon="4.79376">
        <ele>483.68</ele>
        <time>2013-08-31T08:40:20Z</time>
      </trkpt>
      <trkpt lat="45.86447" lon="4.79387">
        <ele>482.72</ele>
        <time>2013-08-31T08:40:22Z</time>
      </trkpt>
      <trkpt lat="45.86451" lon="4.79392">
        <ele>482.24</ele>
        <time>2013-08-31T08:40:23Z</time>
      </trkpt>
      <trkpt lat="45.86475" lon="4.79417">
        <ele>479.35</ele>
        <time>2013-08-31T08:40:28Z</time>
      </trkpt>
      <trkpt lat="45.8651" lon="4.79446">
        <ele>475.99</ele>
        <time>2013-08-31T08:40:33Z</time>
      </trkpt>
      <trkpt lat="45.86524" lon="4.79456">
        <ele>475.03</ele>
        <time>2013-08-31T08:40:35Z</time>
      </trkpt>
      <trkpt lat="45.8653" lon="4.79462">
        <ele>474.55</ele>
        <time>2013-08-31T08:40:36Z</time>
      </trkpt>
      <trkpt lat="45.86542" lon="4.79474">
        <ele>473.11</ele>
        <time>2013-08-31T08:40:38Z</time>
      </trkpt>
      <trkpt lat="45.86548" lon="4.7948">
        <ele>473.11</ele>
        <time>2013-08-31T08:40:39Z</time>
      </trkpt>
      <trkpt lat="45.86553" lon="4.79485">
        <ele>472.14</ele>
        <time>2013-08-31T08:40:40Z</time>
      </trkpt>
      <trkpt lat="45.86572" lon="4.79507">
        <ele>468.78</ele>
        <time>2013-08-31T08:40:44Z</time>
      </trkpt>
      <trkpt lat="45.86587" lon="4.79523">
        <ele>466.38</ele>
        <time>2013-08-31T08:40:47Z</time>
      </trkpt>
      <trkpt lat="45.86592" lon="4.79528">
        <ele>465.9</ele>
        <time>2013-08-31T08:40:48Z</time>
      </trkpt>
      <trkpt lat="45.86609" lon="4.79552">
        <ele>462.53</ele>
        <time>2013-08-31T08:40:52Z</time>
      </trkpt>
      <trkpt lat="45.86622" lon="4.79576">
        <ele>458.69</ele>
        <time>2013-08-31T08:40:56Z</time>
      </trkpt>
      <trkpt lat="45.86635" lon="4.79605">
        <ele>455.8</ele>
        <time>2013-08-31T08:41:00Z</time>
      </trkpt>
      <trkpt lat="45.86644" lon="4.79624">
        <ele>453.4</ele>
        <time>2013-08-31T08:41:04Z</time>
      </trkpt>
      <trkpt lat="45.86652" lon="4.79646">
        <ele>450.52</ele>
        <time>2013-08-31T08:41:10Z</time>
      </trkpt>
      <trkpt lat="45.86656" lon="4.79653">
        <ele>450.03</ele>
        <time>2013-08-31T08:41:16Z</time>
      </trkpt>
      <trkpt lat="45.86656" lon="4.79653">
        <ele>450.03</ele>
        <time>2013-08-31T08:41:31Z</time>
      </trkpt>
      <trkpt lat="45.86656" lon="4.79653">
        <ele>450.52</ele>
        <time>2013-08-31T08:41:44Z</time>
      </trkpt>
      <trkpt lat="45.86657" lon="4.79655">
        <ele>450.03</ele>
        <time>2013-08-31T08:42:07Z</time>
      </trkpt>
      <trkpt lat="45.86657" lon="4.79655">
        <ele>450.03</ele>
        <time>2013-08-31T08:42:31Z</time>
      </trkpt>
      <trkpt lat="45.86658" lon="4.79656">
        <ele>450.52</ele>
        <time>2013-08-31T08:42:53Z</time>
      </trkpt>
      <trkpt lat="45.86659" lon="4.79657">
        <ele>450.52</ele>
        <time>2013-08-31T08:43:13Z</time>
      </trkpt>
      <trkpt lat="45.86661" lon="4.7966">
        <ele>450.03</ele>
        <time>2013-08-31T08:43:22Z</time>
      </trkpt>
      <trkpt lat="45.86663" lon="4.79664">
        <ele>449.07</ele>
        <time>2013-08-31T08:43:26Z</time>
      </trkpt>
      <trkpt lat="45.86665" lon="4.79667">
        <ele>449.07</ele>
        <time>2013-08-31T08:43:27Z</time>
      </trkpt>
      <trkpt lat="45.86666" lon="4.79671">
        <ele>449.07</ele>
        <time>2013-08-31T08:43:28Z</time>
      </trkpt>
      <trkpt lat="45.86667" lon="4.79676">
        <ele>450.03</ele>
        <time>2013-08-31T08:43:29Z</time>
      </trkpt>
      <trkpt lat="45.86669" lon="4.79681">
        <ele>449.07</ele>
        <time>2013-08-31T08:43:30Z</time>
      </trkpt>
      <trkpt lat="45.86672" lon="4.79686">
        <ele>449.07</ele>
        <time>2013-08-31T08:43:31Z</time>
      </trkpt>
      <trkpt lat="45.86678" lon="4.79699">
        <ele>448.11</ele>
        <time>2013-08-31T08:43:33Z</time>
      </trkpt>
      <trkpt lat="45.86679" lon="4.79706">
        <ele>448.11</ele>
        <time>2013-08-31T08:43:34Z</time>
      </trkpt>
      <trkpt lat="45.86679" lon="4.79715">
        <ele>447.63</ele>
        <time>2013-08-31T08:43:35Z</time>
      </trkpt>
      <trkpt lat="45.86678" lon="4.79724">
        <ele>447.63</ele>
        <time>2013-08-31T08:43:36Z</time>
      </trkpt>
      <trkpt lat="45.86676" lon="4.79732">
        <ele>447.15</ele>
        <time>2013-08-31T08:43:37Z</time>
      </trkpt>
      <trkpt lat="45.86673" lon="4.79741">
        <ele>447.15</ele>
        <time>2013-08-31T08:43:38Z</time>
      </trkpt>
      <trkpt lat="45.8667" lon="4.79748">
        <ele>447.63</ele>
        <time>2013-08-31T08:43:39Z</time>
      </trkpt>
      <trkpt lat="45.86667" lon="4.79755">
        <ele>448.11</ele>
        <time>2013-08-31T08:43:40Z</time>
      </trkpt>
      <trkpt lat="45.86664" lon="4.7976">
        <ele>448.11</ele>
        <time>2013-08-31T08:43:41Z</time>
      </trkpt>
      <trkpt lat="45.8666" lon="4.79764">
        <ele>449.07</ele>
        <time>2013-08-31T08:43:42Z</time>
      </trkpt>
      <trkpt lat="45.86657" lon="4.79768">
        <ele>449.07</ele>
        <time>2013-08-31T08:43:43Z</time>
      </trkpt>
      <trkpt lat="45.86639" lon="4.79801">
        <ele>451</ele>
        <time>2013-08-31T08:43:51Z</time>
      </trkpt>
      <trkpt lat="45.86626" lon="4.79841">
        <ele>453.88</ele>
        <time>2013-08-31T08:44:00Z</time>
      </trkpt>
      <trkpt lat="45.86602" lon="4.79874">
        <ele>455.32</ele>
        <time>2013-08-31T08:44:09Z</time>
      </trkpt>
      <trkpt lat="45.86582" lon="4.79897">
        <ele>457.24</ele>
        <time>2013-08-31T08:44:17Z</time>
      </trkpt>
      <trkpt lat="45.86581" lon="4.79901">
        <ele>457.24</ele>
        <time>2013-08-31T08:44:18Z</time>
      </trkpt>
      <trkpt lat="45.86581" lon="4.79906">
        <ele>457.24</ele>
        <time>2013-08-31T08:44:19Z</time>
      </trkpt>
      <trkpt lat="45.86582" lon="4.7991">
        <ele>457.24</ele>
        <time>2013-08-31T08:44:20Z</time>
      </trkpt>
      <trkpt lat="45.86584" lon="4.79914">
        <ele>456.76</ele>
        <time>2013-08-31T08:44:21Z</time>
      </trkpt>
      <trkpt lat="45.86587" lon="4.79918">
        <ele>456.28</ele>
        <time>2013-08-31T08:44:22Z</time>
      </trkpt>
      <trkpt lat="45.86591" lon="4.79921">
        <ele>457.24</ele>
        <time>2013-08-31T08:44:23Z</time>
      </trkpt>
      <trkpt lat="45.86595" lon="4.79923">
        <ele>456.76</ele>
        <time>2013-08-31T08:44:24Z</time>
      </trkpt>
      <trkpt lat="45.86599" lon="4.79926">
        <ele>456.28</ele>
        <time>2013-08-31T08:44:25Z</time>
      </trkpt>
      <trkpt lat="45.86656" lon="4.7996">
        <ele>453.88</ele>
        <time>2013-08-31T08:44:38Z</time>
      </trkpt>
      <trkpt lat="45.86664" lon="4.79968">
        <ele>453.4</ele>
        <time>2013-08-31T08:44:40Z</time>
      </trkpt>
      <trkpt lat="45.86667" lon="4.79973">
        <ele>453.88</ele>
        <time>2013-08-31T08:44:41Z</time>
      </trkpt>
      <trkpt lat="45.8668" lon="4.79993">
        <ele>453.88</ele>
        <time>2013-08-31T08:44:45Z</time>
      </trkpt>
      <trkpt lat="45.86685" lon="4.80004">
        <ele>453.88</ele>
        <time>2013-08-31T08:44:47Z</time>
      </trkpt>
      <trkpt lat="45.8669" lon="4.80008">
        <ele>453.4</ele>
        <time>2013-08-31T08:44:48Z</time>
      </trkpt>
      <trkpt lat="45.86694" lon="4.80009">
        <ele>453.4</ele>
        <time>2013-08-31T08:44:49Z</time>
      </trkpt>
      <trkpt lat="45.86697" lon="4.80009">
        <ele>453.88</ele>
        <time>2013-08-31T08:44:50Z</time>
      </trkpt>
      <trkpt lat="45.867" lon="4.8001">
        <ele>453.4</ele>
        <time>2013-08-31T08:44:51Z</time>
      </trkpt>
      <trkpt lat="45.86703" lon="4.80012">
        <ele>454.36</ele>
        <time>2013-08-31T08:44:52Z</time>
      </trkpt>
      <trkpt lat="45.86706" lon="4.80014">
        <ele>455.32</ele>
        <time>2013-08-31T08:44:53Z</time>
      </trkpt>
      <trkpt lat="45.86709" lon="4.80017">
        <ele>455.32</ele>
        <time>2013-08-31T08:44:54Z</time>
      </trkpt>
      <trkpt lat="45.86711" lon="4.8002">
        <ele>455.8</ele>
        <time>2013-08-31T08:44:55Z</time>
      </trkpt>
      <trkpt lat="45.86713" lon="4.80023">
        <ele>455.8</ele>
        <time>2013-08-31T08:44:56Z</time>
      </trkpt>
      <trkpt lat="45.8672" lon="4.8004">
        <ele>457.24</ele>
        <time>2013-08-31T08:45:02Z</time>
      </trkpt>
      <trkpt lat="45.8672" lon="4.80043">
        <ele>456.76</ele>
        <time>2013-08-31T08:45:03Z</time>
      </trkpt>
      <trkpt lat="45.86721" lon="4.80063">
        <ele>459.17</ele>
        <time>2013-08-31T08:45:10Z</time>
      </trkpt>
      <trkpt lat="45.86721" lon="4.80069">
        <ele>459.17</ele>
        <time>2013-08-31T08:45:13Z</time>
      </trkpt>
      <trkpt lat="45.86721" lon="4.80071">
        <ele>459.65</ele>
        <time>2013-08-31T08:45:14Z</time>
      </trkpt>
      <trkpt lat="45.86722" lon="4.80073">
        <ele>459.65</ele>
        <time>2013-08-31T08:45:15Z</time>
      </trkpt>
      <trkpt lat="45.86723" lon="4.80075">
        <ele>460.13</ele>
        <time>2013-08-31T08:45:16Z</time>
      </trkpt>
      <trkpt lat="45.86724" lon="4.80077">
        <ele>460.61</ele>
        <time>2013-08-31T08:45:17Z</time>
      </trkpt>
      <trkpt lat="45.86725" lon="4.8008">
        <ele>460.13</ele>
        <time>2013-08-31T08:45:18Z</time>
      </trkpt>
      <trkpt lat="45.86725" lon="4.80082">
        <ele>460.61</ele>
        <time>2013-08-31T08:45:19Z</time>
      </trkpt>
      <trkpt lat="45.86725" lon="4.80084">
        <ele>461.09</ele>
        <time>2013-08-31T08:45:20Z</time>
      </trkpt>
      <trkpt lat="45.86726" lon="4.80087">
        <ele>461.09</ele>
        <time>2013-08-31T08:45:21Z</time>
      </trkpt>
      <trkpt lat="45.86726" lon="4.80089">
        <ele>460.61</ele>
        <time>2013-08-31T08:45:22Z</time>
      </trkpt>
      <trkpt lat="45.86727" lon="4.80091">
        <ele>461.57</ele>
        <time>2013-08-31T08:45:23Z</time>
      </trkpt>
      <trkpt lat="45.86727" lon="4.80092">
        <ele>461.57</ele>
        <time>2013-08-31T08:45:24Z</time>
      </trkpt>
      <trkpt lat="45.86728" lon="4.80094">
        <ele>461.57</ele>
        <time>2013-08-31T08:45:25Z</time>
      </trkpt>
      <trkpt lat="45.86728" lon="4.80097">
        <ele>462.05</ele>
        <time>2013-08-31T08:45:26Z</time>
      </trkpt>
      <trkpt lat="45.8673" lon="4.80104">
        <ele>462.53</ele>
        <time>2013-08-31T08:45:29Z</time>
      </trkpt>
      <trkpt lat="45.8673" lon="4.80106">
        <ele>462.05</ele>
        <time>2013-08-31T08:45:30Z</time>
      </trkpt>
      <trkpt lat="45.86731" lon="4.80108">
        <ele>462.53</ele>
        <time>2013-08-31T08:45:31Z</time>
      </trkpt>
      <trkpt lat="45.86732" lon="4.80111">
        <ele>462.53</ele>
        <time>2013-08-31T08:45:32Z</time>
      </trkpt>
      <trkpt lat="45.86732" lon="4.80114">
        <ele>462.53</ele>
        <time>2013-08-31T08:45:33Z</time>
      </trkpt>
      <trkpt lat="45.86738" lon="4.80129">
        <ele>463.49</ele>
        <time>2013-08-31T08:45:41Z</time>
      </trkpt>
      <trkpt lat="45.86739" lon="4.80135">
        <ele>465.42</ele>
        <time>2013-08-31T08:45:44Z</time>
      </trkpt>
      <trkpt lat="45.86748" lon="4.80147">
        <ele>466.38</ele>
        <time>2013-08-31T08:45:52Z</time>
      </trkpt>
      <trkpt lat="45.86749" lon="4.80149">
        <ele>466.86</ele>
        <time>2013-08-31T08:45:53Z</time>
      </trkpt>
      <trkpt lat="45.86764" lon="4.80167">
        <ele>467.82</ele>
        <time>2013-08-31T08:46:05Z</time>
      </trkpt>
      <trkpt lat="45.86769" lon="4.80167">
        <ele>468.3</ele>
        <time>2013-08-31T08:46:08Z</time>
      </trkpt>
      <trkpt lat="45.8677" lon="4.80165">
        <ele>468.3</ele>
        <time>2013-08-31T08:46:09Z</time>
      </trkpt>
      <trkpt lat="45.86771" lon="4.80164">
        <ele>468.3</ele>
        <time>2013-08-31T08:46:10Z</time>
      </trkpt>
      <trkpt lat="45.86772" lon="4.80162">
        <ele>467.82</ele>
        <time>2013-08-31T08:46:11Z</time>
      </trkpt>
      <trkpt lat="45.86773" lon="4.80162">
        <ele>468.3</ele>
        <time>2013-08-31T08:46:12Z</time>
      </trkpt>
      <trkpt lat="45.86775" lon="4.80162">
        <ele>468.78</ele>
        <time>2013-08-31T08:46:22Z</time>
      </trkpt>
      <trkpt lat="45.86775" lon="4.80162">
        <ele>468.3</ele>
        <time>2013-08-31T08:46:35Z</time>
      </trkpt>
      <trkpt lat="45.86775" lon="4.80161">
        <ele>468.78</ele>
        <time>2013-08-31T08:46:53Z</time>
      </trkpt>
      <trkpt lat="45.86775" lon="4.80161">
        <ele>468.3</ele>
        <time>2013-08-31T08:47:12Z</time>
      </trkpt>
      <trkpt lat="45.86775" lon="4.80161">
        <ele>467.34</ele>
        <time>2013-08-31T08:47:27Z</time>
      </trkpt>
      <trkpt lat="45.8679" lon="4.8019">
        <ele>465.42</ele>
        <time>2013-08-31T08:47:35Z</time>
      </trkpt>
      <trkpt lat="45.86794" lon="4.80203">
        <ele>463.97</ele>
        <time>2013-08-31T08:47:37Z</time>
      </trkpt>
      <trkpt lat="45.86811" lon="4.80239">
        <ele>459.65</ele>
        <time>2013-08-31T08:47:43Z</time>
      </trkpt>
      <trkpt lat="45.86817" lon="4.80253">
        <ele>456.76</ele>
        <time>2013-08-31T08:47:46Z</time>
      </trkpt>
      <trkpt lat="45.86819" lon="4.80255">
        <ele>456.76</ele>
        <time>2013-08-31T08:47:47Z</time>
      </trkpt>
      <trkpt lat="45.86816" lon="4.80274">
        <ele>453.4</ele>
        <time>2013-08-31T08:47:53Z</time>
      </trkpt>
      <trkpt lat="45.86808" lon="4.80284">
        <ele>451.48</ele>
        <time>2013-08-31T08:47:57Z</time>
      </trkpt>
      <trkpt lat="45.868" lon="4.80297">
        <ele>448.11</ele>
        <time>2013-08-31T08:48:03Z</time>
      </trkpt>
      <trkpt lat="45.86798" lon="4.80301">
        <ele>447.15</ele>
        <time>2013-08-31T08:48:05Z</time>
      </trkpt>
      <trkpt lat="45.86796" lon="4.80306">
        <ele>446.67</ele>
        <time>2013-08-31T08:48:07Z</time>
      </trkpt>
      <trkpt lat="45.86792" lon="4.80314">
        <ele>445.23</ele>
        <time>2013-08-31T08:48:10Z</time>
      </trkpt>
      <trkpt lat="45.86791" lon="4.80319">
        <ele>444.27</ele>
        <time>2013-08-31T08:48:12Z</time>
      </trkpt>
      <trkpt lat="45.86794" lon="4.80335">
        <ele>441.38</ele>
        <time>2013-08-31T08:48:18Z</time>
      </trkpt>
      <trkpt lat="45.86798" lon="4.80352">
        <ele>438.98</ele>
        <time>2013-08-31T08:48:24Z</time>
      </trkpt>
      <trkpt lat="45.86798" lon="4.80371">
        <ele>435.61</ele>
        <time>2013-08-31T08:48:31Z</time>
      </trkpt>
      <trkpt lat="45.868" lon="4.80381">
        <ele>434.65</ele>
        <time>2013-08-31T08:48:33Z</time>
      </trkpt>
      <trkpt lat="45.86803" lon="4.80385">
        <ele>434.17</ele>
        <time>2013-08-31T08:48:34Z</time>
      </trkpt>
      <trkpt lat="45.86806" lon="4.80389">
        <ele>433.69</ele>
        <time>2013-08-31T08:48:35Z</time>
      </trkpt>
      <trkpt lat="45.8681" lon="4.80393">
        <ele>433.69</ele>
        <time>2013-08-31T08:48:36Z</time>
      </trkpt>
      <trkpt lat="45.86812" lon="4.80397">
        <ele>432.73</ele>
        <time>2013-08-31T08:48:37Z</time>
      </trkpt>
      <trkpt lat="45.86811" lon="4.80402">
        <ele>432.73</ele>
        <time>2013-08-31T08:48:38Z</time>
      </trkpt>
      <trkpt lat="45.86805" lon="4.80411">
        <ele>431.29</ele>
        <time>2013-08-31T08:48:40Z</time>
      </trkpt>
      <trkpt lat="45.86792" lon="4.80436">
        <ele>426</ele>
        <time>2013-08-31T08:48:45Z</time>
      </trkpt>
      <trkpt lat="45.86779" lon="4.80439">
        <ele>424.56</ele>
        <time>2013-08-31T08:48:49Z</time>
      </trkpt>
      <trkpt lat="45.86776" lon="4.80442">
        <ele>422.64</ele>
        <time>2013-08-31T08:48:57Z</time>
      </trkpt>
      <trkpt lat="45.86776" lon="4.80444">
        <ele>422.64</ele>
        <time>2013-08-31T08:49:13Z</time>
      </trkpt>
      <trkpt lat="45.86776" lon="4.80444">
        <ele>422.64</ele>
        <time>2013-08-31T08:49:29Z</time>
      </trkpt>
      <trkpt lat="45.86776" lon="4.80444">
        <ele>422.16</ele>
        <time>2013-08-31T08:49:46Z</time>
      </trkpt>
      <trkpt lat="45.86776" lon="4.80445">
        <ele>421.68</ele>
        <time>2013-08-31T08:50:03Z</time>
      </trkpt>
      <trkpt lat="45.86776" lon="4.80446">
        <ele>421.68</ele>
        <time>2013-08-31T08:50:14Z</time>
      </trkpt>
      <trkpt lat="45.86794" lon="4.8048">
        <ele>420.23</ele>
        <time>2013-08-31T08:50:23Z</time>
      </trkpt>
      <trkpt lat="45.8682" lon="4.80535">
        <ele>416.87</ele>
        <time>2013-08-31T08:50:29Z</time>
      </trkpt>
      <trkpt lat="45.86855" lon="4.80617">
        <ele>415.43</ele>
        <time>2013-08-31T08:50:38Z</time>
      </trkpt>
      <trkpt lat="45.86866" lon="4.80638">
        <ele>414.95</ele>
        <time>2013-08-31T08:50:41Z</time>
      </trkpt>
      <trkpt lat="45.86886" lon="4.8067">
        <ele>413.98</ele>
        <time>2013-08-31T08:50:46Z</time>
      </trkpt>
      <trkpt lat="45.86892" lon="4.80683">
        <ele>413.98</ele>
        <time>2013-08-31T08:50:48Z</time>
      </trkpt>
      <trkpt lat="45.86894" lon="4.8069">
        <ele>413.02</ele>
        <time>2013-08-31T08:50:49Z</time>
      </trkpt>
      <trkpt lat="45.86896" lon="4.80698">
        <ele>413.5</ele>
        <time>2013-08-31T08:50:50Z</time>
      </trkpt>
      <trkpt lat="45.86897" lon="4.80706">
        <ele>413.5</ele>
        <time>2013-08-31T08:50:51Z</time>
      </trkpt>
      <trkpt lat="45.86899" lon="4.80714">
        <ele>412.54</ele>
        <time>2013-08-31T08:50:52Z</time>
      </trkpt>
      <trkpt lat="45.86902" lon="4.8072">
        <ele>412.06</ele>
        <time>2013-08-31T08:50:53Z</time>
      </trkpt>
      <trkpt lat="45.86905" lon="4.80725">
        <ele>412.06</ele>
        <time>2013-08-31T08:50:54Z</time>
      </trkpt>
      <trkpt lat="45.86908" lon="4.80728">
        <ele>411.58</ele>
        <time>2013-08-31T08:50:55Z</time>
      </trkpt>
      <trkpt lat="45.86911" lon="4.80732">
        <ele>412.06</ele>
        <time>2013-08-31T08:50:56Z</time>
      </trkpt>
      <trkpt lat="45.86921" lon="4.80746">
        <ele>411.1</ele>
        <time>2013-08-31T08:50:59Z</time>
      </trkpt>
      <trkpt lat="45.86924" lon="4.80752">
        <ele>410.14</ele>
        <time>2013-08-31T08:51:00Z</time>
      </trkpt>
      <trkpt lat="45.86926" lon="4.8076">
        <ele>410.62</ele>
        <time>2013-08-31T08:51:01Z</time>
      </trkpt>
      <trkpt lat="45.86933" lon="4.80787">
        <ele>408.7</ele>
        <time>2013-08-31T08:51:04Z</time>
      </trkpt>
      <trkpt lat="45.86943" lon="4.80817">
        <ele>405.81</ele>
        <time>2013-08-31T08:51:07Z</time>
      </trkpt>
      <trkpt lat="45.8695" lon="4.80835">
        <ele>404.37</ele>
        <time>2013-08-31T08:51:09Z</time>
      </trkpt>
      <trkpt lat="45.86956" lon="4.80855">
        <ele>401.49</ele>
        <time>2013-08-31T08:51:14Z</time>
      </trkpt>
      <trkpt lat="45.86958" lon="4.80858">
        <ele>401.49</ele>
        <time>2013-08-31T08:51:25Z</time>
      </trkpt>
      <trkpt lat="45.8696" lon="4.80858">
        <ele>401.01</ele>
        <time>2013-08-31T08:51:33Z</time>
      </trkpt>
      <trkpt lat="45.86961" lon="4.80859">
        <ele>400.05</ele>
        <time>2013-08-31T08:51:42Z</time>
      </trkpt>
      <trkpt lat="45.86961" lon="4.80863">
        <ele>399.57</ele>
        <time>2013-08-31T08:51:44Z</time>
      </trkpt>
      <trkpt lat="45.86962" lon="4.80865">
        <ele>400.05</ele>
        <time>2013-08-31T08:51:45Z</time>
      </trkpt>
      <trkpt lat="45.86962" lon="4.80869">
        <ele>399.08</ele>
        <time>2013-08-31T08:51:46Z</time>
      </trkpt>
      <trkpt lat="45.86963" lon="4.80873">
        <ele>398.6</ele>
        <time>2013-08-31T08:51:47Z</time>
      </trkpt>
      <trkpt lat="45.86964" lon="4.80878">
        <ele>397.64</ele>
        <time>2013-08-31T08:51:48Z</time>
      </trkpt>
      <trkpt lat="45.86966" lon="4.80885">
        <ele>397.16</ele>
        <time>2013-08-31T08:51:49Z</time>
      </trkpt>
      <trkpt lat="45.86969" lon="4.80891">
        <ele>395.72</ele>
        <time>2013-08-31T08:51:50Z</time>
      </trkpt>
      <trkpt lat="45.86972" lon="4.80898">
        <ele>394.76</ele>
        <time>2013-08-31T08:51:51Z</time>
      </trkpt>
      <trkpt lat="45.86976" lon="4.80903">
        <ele>393.8</ele>
        <time>2013-08-31T08:51:52Z</time>
      </trkpt>
      <trkpt lat="45.86979" lon="4.80909">
        <ele>391.87</ele>
        <time>2013-08-31T08:51:53Z</time>
      </trkpt>
      <trkpt lat="45.86987" lon="4.80924">
        <ele>388.99</ele>
        <time>2013-08-31T08:51:56Z</time>
      </trkpt>
      <trkpt lat="45.86996" lon="4.80946">
        <ele>385.15</ele>
        <time>2013-08-31T08:52:03Z</time>
      </trkpt>
      <trkpt lat="45.87" lon="4.80949">
        <ele>383.7</ele>
        <time>2013-08-31T08:52:13Z</time>
      </trkpt>
      <trkpt lat="45.87" lon="4.80949">
        <ele>384.18</ele>
        <time>2013-08-31T08:52:33Z</time>
      </trkpt>
      <trkpt lat="45.87" lon="4.80949">
        <ele>380.82</ele>
        <time>2013-08-31T08:52:44Z</time>
      </trkpt>
      <trkpt lat="45.87" lon="4.80949">
        <ele>384.66</ele>
        <time>2013-08-31T08:52:45Z</time>
      </trkpt>
      <trkpt lat="45.87001" lon="4.8095">
        <ele>383.7</ele>
        <time>2013-08-31T08:53:08Z</time>
      </trkpt>
      <trkpt lat="45.87001" lon="4.8095">
        <ele>383.7</ele>
        <time>2013-08-31T08:53:28Z</time>
      </trkpt>
      <trkpt lat="45.87001" lon="4.80951">
        <ele>384.18</ele>
        <time>2013-08-31T08:53:49Z</time>
      </trkpt>
      <trkpt lat="45.87001" lon="4.80951">
        <ele>384.18</ele>
        <time>2013-08-31T08:54:10Z</time>
      </trkpt>
      <trkpt lat="45.87001" lon="4.80951">
        <ele>383.7</ele>
        <time>2013-08-31T08:54:35Z</time>
      </trkpt>
      <trkpt lat="45.87001" lon="4.80952">
        <ele>384.66</ele>
        <time>2013-08-31T08:54:59Z</time>
      </trkpt>
      <trkpt lat="45.87003" lon="4.80952">
        <ele>384.18</ele>
        <time>2013-08-31T08:55:09Z</time>
      </trkpt>
      <trkpt lat="45.87004" lon="4.80951">
        <ele>384.18</ele>
        <time>2013-08-31T08:55:12Z</time>
      </trkpt>
      <trkpt lat="45.87005" lon="4.80949">
        <ele>384.18</ele>
        <time>2013-08-31T08:55:13Z</time>
      </trkpt>
      <trkpt lat="45.87006" lon="4.80947">
        <ele>384.66</ele>
        <time>2013-08-31T08:55:14Z</time>
      </trkpt>
      <trkpt lat="45.87008" lon="4.80945">
        <ele>384.18</ele>
        <time>2013-08-31T08:55:15Z</time>
      </trkpt>
      <trkpt lat="45.8701" lon="4.80942">
        <ele>384.66</ele>
        <time>2013-08-31T08:55:16Z</time>
      </trkpt>
      <trkpt lat="45.87012" lon="4.80938">
        <ele>384.18</ele>
        <time>2013-08-31T08:55:17Z</time>
      </trkpt>
      <trkpt lat="45.87013" lon="4.80933">
        <ele>383.7</ele>
        <time>2013-08-31T08:55:18Z</time>
      </trkpt>
      <trkpt lat="45.87015" lon="4.80929">
        <ele>384.18</ele>
        <time>2013-08-31T08:55:19Z</time>
      </trkpt>
      <trkpt lat="45.87016" lon="4.80925">
        <ele>384.18</ele>
        <time>2013-08-31T08:55:20Z</time>
      </trkpt>
      <trkpt lat="45.87018" lon="4.8092">
        <ele>384.18</ele>
        <time>2013-08-31T08:55:21Z</time>
      </trkpt>
      <trkpt lat="45.87035" lon="4.80886">
        <ele>385.63</ele>
        <time>2013-08-31T08:55:29Z</time>
      </trkpt>
      <trkpt lat="45.87054" lon="4.80859">
        <ele>387.55</ele>
        <time>2013-08-31T08:55:37Z</time>
      </trkpt>
      <trkpt lat="45.87064" lon="4.80841">
        <ele>388.99</ele>
        <time>2013-08-31T08:55:43Z</time>
      </trkpt>
      <trkpt lat="45.87067" lon="4.80839">
        <ele>388.03</ele>
        <time>2013-08-31T08:55:46Z</time>
      </trkpt>
      <trkpt lat="45.8707" lon="4.80839">
        <ele>387.55</ele>
        <time>2013-08-31T08:55:47Z</time>
      </trkpt>
      <trkpt lat="45.87072" lon="4.8084">
        <ele>386.59</ele>
        <time>2013-08-31T08:55:48Z</time>
      </trkpt>
      <trkpt lat="45.87075" lon="4.8084">
        <ele>385.63</ele>
        <time>2013-08-31T08:55:49Z</time>
      </trkpt>
      <trkpt lat="45.87078" lon="4.80838">
        <ele>384.66</ele>
        <time>2013-08-31T08:55:50Z</time>
      </trkpt>
      <trkpt lat="45.87082" lon="4.80834">
        <ele>383.7</ele>
        <time>2013-08-31T08:55:51Z</time>
      </trkpt>
      <trkpt lat="45.87088" lon="4.80828">
        <ele>382.26</ele>
        <time>2013-08-31T08:55:52Z</time>
      </trkpt>
      <trkpt lat="45.87091" lon="4.80822">
        <ele>381.78</ele>
        <time>2013-08-31T08:55:53Z</time>
      </trkpt>
      <trkpt lat="45.87092" lon="4.80816">
        <ele>381.3</ele>
        <time>2013-08-31T08:55:54Z</time>
      </trkpt>
      <trkpt lat="45.87093" lon="4.80809">
        <ele>380.82</ele>
        <time>2013-08-31T08:55:55Z</time>
      </trkpt>
      <trkpt lat="45.87094" lon="4.80803">
        <ele>380.34</ele>
        <time>2013-08-31T08:55:56Z</time>
      </trkpt>
      <trkpt lat="45.87095" lon="4.80798">
        <ele>378.9</ele>
        <time>2013-08-31T08:55:57Z</time>
      </trkpt>
      <trkpt lat="45.87097" lon="4.80792">
        <ele>377.45</ele>
        <time>2013-08-31T08:55:58Z</time>
      </trkpt>
      <trkpt lat="45.87099" lon="4.8078">
        <ele>374.09</ele>
        <time>2013-08-31T08:56:00Z</time>
      </trkpt>
      <trkpt lat="45.87098" lon="4.80767">
        <ele>371.21</ele>
        <time>2013-08-31T08:56:02Z</time>
      </trkpt>
      <trkpt lat="45.87098" lon="4.8076">
        <ele>369.76</ele>
        <time>2013-08-31T08:56:03Z</time>
      </trkpt>
      <trkpt lat="45.87098" lon="4.80753">
        <ele>368.32</ele>
        <time>2013-08-31T08:56:04Z</time>
      </trkpt>
      <trkpt lat="45.87097" lon="4.80747">
        <ele>366.4</ele>
        <time>2013-08-31T08:56:05Z</time>
      </trkpt>
      <trkpt lat="45.87096" lon="4.8074">
        <ele>365.92</ele>
        <time>2013-08-31T08:56:06Z</time>
      </trkpt>
      <trkpt lat="45.87096" lon="4.80732">
        <ele>364.96</ele>
        <time>2013-08-31T08:56:07Z</time>
      </trkpt>
      <trkpt lat="45.87096" lon="4.80726">
        <ele>363.52</ele>
        <time>2013-08-31T08:56:08Z</time>
      </trkpt>
      <trkpt lat="45.87097" lon="4.80722">
        <ele>362.07</ele>
        <time>2013-08-31T08:56:09Z</time>
      </trkpt>
      <trkpt lat="45.87098" lon="4.80718">
        <ele>360.15</ele>
        <time>2013-08-31T08:56:10Z</time>
      </trkpt>
      <trkpt lat="45.87099" lon="4.80713">
        <ele>359.19</ele>
        <time>2013-08-31T08:56:11Z</time>
      </trkpt>
      <trkpt lat="45.87101" lon="4.80709">
        <ele>358.23</ele>
        <time>2013-08-31T08:56:12Z</time>
      </trkpt>
      <trkpt lat="45.87105" lon="4.80707">
        <ele>357.27</ele>
        <time>2013-08-31T08:56:13Z</time>
      </trkpt>
      <trkpt lat="45.87109" lon="4.80704">
        <ele>356.31</ele>
        <time>2013-08-31T08:56:14Z</time>
      </trkpt>
      <trkpt lat="45.87114" lon="4.80703">
        <ele>355.34</ele>
        <time>2013-08-31T08:56:15Z</time>
      </trkpt>
      <trkpt lat="45.8712" lon="4.80704">
        <ele>353.9</ele>
        <time>2013-08-31T08:56:16Z</time>
      </trkpt>
      <trkpt lat="45.87126" lon="4.80707">
        <ele>353.9</ele>
        <time>2013-08-31T08:56:17Z</time>
      </trkpt>
      <trkpt lat="45.8713" lon="4.80709">
        <ele>352.94</ele>
        <time>2013-08-31T08:56:18Z</time>
      </trkpt>
      <trkpt lat="45.87135" lon="4.80709">
        <ele>351.98</ele>
        <time>2013-08-31T08:56:19Z</time>
      </trkpt>
      <trkpt lat="45.87143" lon="4.8071">
        <ele>349.1</ele>
        <time>2013-08-31T08:56:21Z</time>
      </trkpt>
      <trkpt lat="45.87153" lon="4.80707">
        <ele>345.25</ele>
        <time>2013-08-31T08:56:23Z</time>
      </trkpt>
      <trkpt lat="45.87158" lon="4.80706">
        <ele>344.77</ele>
        <time>2013-08-31T08:56:24Z</time>
      </trkpt>
      <trkpt lat="45.87168" lon="4.80705">
        <ele>341.41</ele>
        <time>2013-08-31T08:56:26Z</time>
      </trkpt>
      <trkpt lat="45.87173" lon="4.80701">
        <ele>339.96</ele>
        <time>2013-08-31T08:56:27Z</time>
      </trkpt>
      <trkpt lat="45.87179" lon="4.80694">
        <ele>339.48</ele>
        <time>2013-08-31T08:56:28Z</time>
      </trkpt>
      <trkpt lat="45.87189" lon="4.8068">
        <ele>339</ele>
        <time>2013-08-31T08:56:30Z</time>
      </trkpt>
      <trkpt lat="45.87195" lon="4.80677">
        <ele>338.04</ele>
        <time>2013-08-31T08:56:31Z</time>
      </trkpt>
      <trkpt lat="45.87204" lon="4.80675">
        <ele>337.08</ele>
        <time>2013-08-31T08:56:32Z</time>
      </trkpt>
      <trkpt lat="45.87213" lon="4.80674">
        <ele>336.6</ele>
        <time>2013-08-31T08:56:33Z</time>
      </trkpt>
      <trkpt lat="45.87225" lon="4.80672">
        <ele>336.12</ele>
        <time>2013-08-31T08:56:34Z</time>
      </trkpt>
      <trkpt lat="45.87249" lon="4.80669">
        <ele>332.75</ele>
        <time>2013-08-31T08:56:37Z</time>
      </trkpt>
      <trkpt lat="45.87256" lon="4.80669">
        <ele>332.75</ele>
        <time>2013-08-31T08:56:38Z</time>
      </trkpt>
      <trkpt lat="45.8728" lon="4.80666">
        <ele>328.91</ele>
        <time>2013-08-31T08:56:42Z</time>
      </trkpt>
      <trkpt lat="45.87285" lon="4.80663">
        <ele>328.91</ele>
        <time>2013-08-31T08:56:43Z</time>
      </trkpt>
      <trkpt lat="45.8729" lon="4.8066">
        <ele>329.39</ele>
        <time>2013-08-31T08:56:44Z</time>
      </trkpt>
      <trkpt lat="45.87295" lon="4.80657">
        <ele>328.91</ele>
        <time>2013-08-31T08:56:45Z</time>
      </trkpt>
      <trkpt lat="45.87301" lon="4.80656">
        <ele>328.43</ele>
        <time>2013-08-31T08:56:46Z</time>
      </trkpt>
      <trkpt lat="45.87307" lon="4.80655">
        <ele>327.95</ele>
        <time>2013-08-31T08:56:47Z</time>
      </trkpt>
      <trkpt lat="45.87313" lon="4.80654">
        <ele>327.47</ele>
        <time>2013-08-31T08:56:48Z</time>
      </trkpt>
      <trkpt lat="45.87321" lon="4.80655">
        <ele>326.5</ele>
        <time>2013-08-31T08:56:49Z</time>
      </trkpt>
      <trkpt lat="45.87358" lon="4.80653">
        <ele>322.66</ele>
        <time>2013-08-31T08:56:54Z</time>
      </trkpt>
      <trkpt lat="45.87383" lon="4.80651">
        <ele>319.3</ele>
        <time>2013-08-31T08:56:57Z</time>
      </trkpt>
      <trkpt lat="45.87391" lon="4.8065">
        <ele>317.85</ele>
        <time>2013-08-31T08:56:58Z</time>
      </trkpt>
      <trkpt lat="45.87397" lon="4.8065">
        <ele>316.41</ele>
        <time>2013-08-31T08:56:59Z</time>
      </trkpt>
      <trkpt lat="45.87404" lon="4.80651">
        <ele>316.41</ele>
        <time>2013-08-31T08:57:00Z</time>
      </trkpt>
      <trkpt lat="45.87425" lon="4.80655">
        <ele>313.05</ele>
        <time>2013-08-31T08:57:03Z</time>
      </trkpt>
      <trkpt lat="45.87449" lon="4.80661">
        <ele>308.24</ele>
        <time>2013-08-31T08:57:06Z</time>
      </trkpt>
      <trkpt lat="45.87472" lon="4.80665">
        <ele>305.36</ele>
        <time>2013-08-31T08:57:09Z</time>
      </trkpt>
      <trkpt lat="45.87477" lon="4.80666">
        <ele>304.39</ele>
        <time>2013-08-31T08:57:10Z</time>
      </trkpt>
      <trkpt lat="45.87482" lon="4.80665">
        <ele>303.43</ele>
        <time>2013-08-31T08:57:11Z</time>
      </trkpt>
      <trkpt lat="45.87485" lon="4.80663">
        <ele>302.95</ele>
        <time>2013-08-31T08:57:12Z</time>
      </trkpt>
      <trkpt lat="45.87487" lon="4.80658">
        <ele>302.47</ele>
        <time>2013-08-31T08:57:13Z</time>
      </trkpt>
      <trkpt lat="45.87487" lon="4.80653">
        <ele>302.47</ele>
        <time>2013-08-31T08:57:14Z</time>
      </trkpt>
      <trkpt lat="45.87487" lon="4.80647">
        <ele>301.99</ele>
        <time>2013-08-31T08:57:15Z</time>
      </trkpt>
      <trkpt lat="45.87487" lon="4.80642">
        <ele>302.95</ele>
        <time>2013-08-31T08:57:16Z</time>
      </trkpt>
      <trkpt lat="45.87487" lon="4.80637">
        <ele>302.47</ele>
        <time>2013-08-31T08:57:17Z</time>
      </trkpt>
      <trkpt lat="45.87488" lon="4.80631">
        <ele>301.99</ele>
        <time>2013-08-31T08:57:18Z</time>
      </trkpt>
      <trkpt lat="45.87488" lon="4.80626">
        <ele>301.51</ele>
        <time>2013-08-31T08:57:19Z</time>
      </trkpt>
      <trkpt lat="45.87487" lon="4.8062">
        <ele>301.51</ele>
        <time>2013-08-31T08:57:20Z</time>
      </trkpt>
      <trkpt lat="45.87487" lon="4.80613">
        <ele>300.55</ele>
        <time>2013-08-31T08:57:21Z</time>
      </trkpt>
      <trkpt lat="45.87487" lon="4.80606">
        <ele>300.55</ele>
        <time>2013-08-31T08:57:22Z</time>
      </trkpt>
      <trkpt lat="45.87486" lon="4.80599">
        <ele>300.07</ele>
        <time>2013-08-31T08:57:23Z</time>
      </trkpt>
      <trkpt lat="45.87486" lon="4.80592">
        <ele>299.11</ele>
        <time>2013-08-31T08:57:24Z</time>
      </trkpt>
      <trkpt lat="45.87486" lon="4.80588">
        <ele>298.63</ele>
        <time>2013-08-31T08:57:25Z</time>
      </trkpt>
      <trkpt lat="45.87487" lon="4.80585">
        <ele>297.67</ele>
        <time>2013-08-31T08:57:26Z</time>
      </trkpt>
      <trkpt lat="45.87489" lon="4.80578">
        <ele>297.18</ele>
        <time>2013-08-31T08:57:29Z</time>
      </trkpt>
      <trkpt lat="45.8749" lon="4.80577">
        <ele>296.7</ele>
        <time>2013-08-31T08:57:30Z</time>
      </trkpt>
      <trkpt lat="45.87492" lon="4.80579">
        <ele>296.7</ele>
        <time>2013-08-31T08:57:31Z</time>
      </trkpt>
      <trkpt lat="45.87494" lon="4.80582">
        <ele>295.74</ele>
        <time>2013-08-31T08:57:32Z</time>
      </trkpt>
      <trkpt lat="45.87498" lon="4.80586">
        <ele>295.26</ele>
        <time>2013-08-31T08:57:33Z</time>
      </trkpt>
      <trkpt lat="45.87503" lon="4.80589">
        <ele>294.78</ele>
        <time>2013-08-31T08:57:34Z</time>
      </trkpt>
      <trkpt lat="45.87508" lon="4.80592">
        <ele>294.3</ele>
        <time>2013-08-31T08:57:35Z</time>
      </trkpt>
      <trkpt lat="45.87514" lon="4.80594">
        <ele>293.34</ele>
        <time>2013-08-31T08:57:36Z</time>
      </trkpt>
      <trkpt lat="45.87521" lon="4.80595">
        <ele>292.38</ele>
        <time>2013-08-31T08:57:37Z</time>
      </trkpt>
      <trkpt lat="45.87528" lon="4.80596">
        <ele>290.94</ele>
        <time>2013-08-31T08:57:38Z</time>
      </trkpt>
      <trkpt lat="45.87551" lon="4.80598">
        <ele>287.09</ele>
        <time>2013-08-31T08:57:41Z</time>
      </trkpt>
      <trkpt lat="45.87577" lon="4.80599">
        <ele>282.28</ele>
        <time>2013-08-31T08:57:44Z</time>
      </trkpt>
      <trkpt lat="45.87604" lon="4.80599">
        <ele>278.44</ele>
        <time>2013-08-31T08:57:47Z</time>
      </trkpt>
      <trkpt lat="45.87631" lon="4.80599">
        <ele>276.52</ele>
        <time>2013-08-31T08:57:50Z</time>
      </trkpt>
      <trkpt lat="45.87655" lon="4.80598">
        <ele>274.11</ele>
        <time>2013-08-31T08:57:53Z</time>
      </trkpt>
      <trkpt lat="45.87661" lon="4.80598">
        <ele>272.19</ele>
        <time>2013-08-31T08:57:54Z</time>
      </trkpt>
      <trkpt lat="45.87666" lon="4.80598">
        <ele>272.19</ele>
        <time>2013-08-31T08:57:55Z</time>
      </trkpt>
      <trkpt lat="45.87677" lon="4.80597">
        <ele>270.27</ele>
        <time>2013-08-31T08:57:58Z</time>
      </trkpt>
      <trkpt lat="45.87678" lon="4.80596">
        <ele>270.27</ele>
        <time>2013-08-31T08:57:59Z</time>
      </trkpt>
      <trkpt lat="45.8768" lon="4.80593">
        <ele>269.79</ele>
        <time>2013-08-31T08:58:00Z</time>
      </trkpt>
      <trkpt lat="45.87682" lon="4.80588">
        <ele>269.31</ele>
        <time>2013-08-31T08:58:01Z</time>
      </trkpt>
      <trkpt lat="45.87683" lon="4.80581">
        <ele>268.83</ele>
        <time>2013-08-31T08:58:02Z</time>
      </trkpt>
      <trkpt lat="45.8769" lon="4.80533">
        <ele>265.94</ele>
        <time>2013-08-31T08:58:07Z</time>
      </trkpt>
      <trkpt lat="45.87691" lon="4.80523">
        <ele>265.46</ele>
        <time>2013-08-31T08:58:08Z</time>
      </trkpt>
      <trkpt lat="45.877" lon="4.80485">
        <ele>262.58</ele>
        <time>2013-08-31T08:58:12Z</time>
      </trkpt>
      <trkpt lat="45.87705" lon="4.8048">
        <ele>262.1</ele>
        <time>2013-08-31T08:58:13Z</time>
      </trkpt>
      <trkpt lat="45.87711" lon="4.80475">
        <ele>262.1</ele>
        <time>2013-08-31T08:58:14Z</time>
      </trkpt>
      <trkpt lat="45.87717" lon="4.80469">
        <ele>261.62</ele>
        <time>2013-08-31T08:58:15Z</time>
      </trkpt>
      <trkpt lat="45.87723" lon="4.8046">
        <ele>261.14</ele>
        <time>2013-08-31T08:58:16Z</time>
      </trkpt>
      <trkpt lat="45.8773" lon="4.80452">
        <ele>261.14</ele>
        <time>2013-08-31T08:58:17Z</time>
      </trkpt>
      <trkpt lat="45.87779" lon="4.8038">
        <ele>260.65</ele>
        <time>2013-08-31T08:58:28Z</time>
      </trkpt>
      <trkpt lat="45.87786" lon="4.8037">
        <ele>261.14</ele>
        <time>2013-08-31T08:58:30Z</time>
      </trkpt>
      <trkpt lat="45.87806" lon="4.80331">
        <ele>261.62</ele>
        <time>2013-08-31T08:58:39Z</time>
      </trkpt>
      <trkpt lat="45.87816" lon="4.80298">
        <ele>262.1</ele>
        <time>2013-08-31T08:58:48Z</time>
      </trkpt>
      <trkpt lat="45.87826" lon="4.80249">
        <ele>260.65</ele>
        <time>2013-08-31T08:58:58Z</time>
      </trkpt>
      <trkpt lat="45.87837" lon="4.80209">
        <ele>261.62</ele>
        <time>2013-08-31T08:59:07Z</time>
      </trkpt>
      <trkpt lat="45.87859" lon="4.80165">
        <ele>261.62</ele>
        <time>2013-08-31T08:59:17Z</time>
      </trkpt>
      <trkpt lat="45.87887" lon="4.80126">
        <ele>262.1</ele>
        <time>2013-08-31T08:59:28Z</time>
      </trkpt>
      <trkpt lat="45.87896" lon="4.80116">
        <ele>262.1</ele>
        <time>2013-08-31T08:59:31Z</time>
      </trkpt>
      <trkpt lat="45.87901" lon="4.80114">
        <ele>262.58</ele>
        <time>2013-08-31T08:59:32Z</time>
      </trkpt>
      <trkpt lat="45.87905" lon="4.8011">
        <ele>262.1</ele>
        <time>2013-08-31T08:59:33Z</time>
      </trkpt>
      <trkpt lat="45.8791" lon="4.80106">
        <ele>261.62</ele>
        <time>2013-08-31T08:59:34Z</time>
      </trkpt>
      <trkpt lat="45.87914" lon="4.80102">
        <ele>262.1</ele>
        <time>2013-08-31T08:59:35Z</time>
      </trkpt>
      <trkpt lat="45.87958" lon="4.80069">
        <ele>260.17</ele>
        <time>2013-08-31T08:59:44Z</time>
      </trkpt>
      <trkpt lat="45.87976" lon="4.80049">
        <ele>259.21</ele>
        <time>2013-08-31T08:59:48Z</time>
      </trkpt>
      <trkpt lat="45.87984" lon="4.80037">
        <ele>258.73</ele>
        <time>2013-08-31T08:59:50Z</time>
      </trkpt>
      <trkpt lat="45.87994" lon="4.80017">
        <ele>258.25</ele>
        <time>2013-08-31T08:59:53Z</time>
      </trkpt>
      <trkpt lat="45.87996" lon="4.80009">
        <ele>257.77</ele>
        <time>2013-08-31T08:59:54Z</time>
      </trkpt>
      <trkpt lat="45.88004" lon="4.79983">
        <ele>257.29</ele>
        <time>2013-08-31T08:59:57Z</time>
      </trkpt>
      <trkpt lat="45.88025" lon="4.79889">
        <ele>253.44</ele>
        <time>2013-08-31T09:00:07Z</time>
      </trkpt>
      <trkpt lat="45.88027" lon="4.79881">
        <ele>253.44</ele>
        <time>2013-08-31T09:00:08Z</time>
      </trkpt>
      <trkpt lat="45.88033" lon="4.7984">
        <ele>251.52</ele>
        <time>2013-08-31T09:00:13Z</time>
      </trkpt>
      <trkpt lat="45.88032" lon="4.79832">
        <ele>251.04</ele>
        <time>2013-08-31T09:00:14Z</time>
      </trkpt>
      <trkpt lat="45.88029" lon="4.79816">
        <ele>250.56</ele>
        <time>2013-08-31T09:00:16Z</time>
      </trkpt>
      <trkpt lat="45.88025" lon="4.79776">
        <ele>248.64</ele>
        <time>2013-08-31T09:00:20Z</time>
      </trkpt>
      <trkpt lat="45.88018" lon="4.79746">
        <ele>247.2</ele>
        <time>2013-08-31T09:00:23Z</time>
      </trkpt>
      <trkpt lat="45.88014" lon="4.79737">
        <ele>247.2</ele>
        <time>2013-08-31T09:00:24Z</time>
      </trkpt>
      <trkpt lat="45.87979" lon="4.79665">
        <ele>243.83</ele>
        <time>2013-08-31T09:00:32Z</time>
      </trkpt>
      <trkpt lat="45.8795" lon="4.79597">
        <ele>245.27</ele>
        <time>2013-08-31T09:00:40Z</time>
      </trkpt>
      <trkpt lat="45.87932" lon="4.79541">
        <ele>247.68</ele>
        <time>2013-08-31T09:00:49Z</time>
      </trkpt>
      <trkpt lat="45.87916" lon="4.79482">
        <ele>249.12</ele>
        <time>2013-08-31T09:01:01Z</time>
      </trkpt>
      <trkpt lat="45.87899" lon="4.79407">
        <ele>247.2</ele>
        <time>2013-08-31T09:01:13Z</time>
      </trkpt>
      <trkpt lat="45.87884" lon="4.79311">
        <ele>244.31</ele>
        <time>2013-08-31T09:01:26Z</time>
      </trkpt>
      <trkpt lat="45.87883" lon="4.793">
        <ele>244.31</ele>
        <time>2013-08-31T09:01:28Z</time>
      </trkpt>
      <trkpt lat="45.8788" lon="4.79295">
        <ele>243.35</ele>
        <time>2013-08-31T09:01:29Z</time>
      </trkpt>
      <trkpt lat="45.87877" lon="4.79292">
        <ele>243.83</ele>
        <time>2013-08-31T09:01:30Z</time>
      </trkpt>
      <trkpt lat="45.87873" lon="4.7929">
        <ele>244.31</ele>
        <time>2013-08-31T09:01:31Z</time>
      </trkpt>
      <trkpt lat="45.87869" lon="4.79288">
        <ele>243.83</ele>
        <time>2013-08-31T09:01:32Z</time>
      </trkpt>
      <trkpt lat="45.87867" lon="4.79286">
        <ele>244.79</ele>
        <time>2013-08-31T09:01:33Z</time>
      </trkpt>
      <trkpt lat="45.87865" lon="4.79284">
        <ele>245.27</ele>
        <time>2013-08-31T09:01:34Z</time>
      </trkpt>
      <trkpt lat="45.87843" lon="4.79277">
        <ele>246.72</ele>
        <time>2013-08-31T09:01:43Z</time>
      </trkpt>
      <trkpt lat="45.87826" lon="4.79275">
        <ele>248.16</ele>
        <time>2013-08-31T09:01:52Z</time>
      </trkpt>
      <trkpt lat="45.87806" lon="4.79272">
        <ele>250.08</ele>
        <time>2013-08-31T09:02:02Z</time>
      </trkpt>
      <trkpt lat="45.87784" lon="4.79265">
        <ele>251.52</ele>
        <time>2013-08-31T09:02:13Z</time>
      </trkpt>
      <trkpt lat="45.87779" lon="4.79264">
        <ele>251.52</ele>
        <time>2013-08-31T09:02:15Z</time>
      </trkpt>
      <trkpt lat="45.87777" lon="4.79263">
        <ele>252</ele>
        <time>2013-08-31T09:02:16Z</time>
      </trkpt>
      <trkpt lat="45.87775" lon="4.79262">
        <ele>252.48</ele>
        <time>2013-08-31T09:02:17Z</time>
      </trkpt>
      <trkpt lat="45.87773" lon="4.79261">
        <ele>252</ele>
        <time>2013-08-31T09:02:18Z</time>
      </trkpt>
      <trkpt lat="45.87771" lon="4.79259">
        <ele>252.48</ele>
        <time>2013-08-31T09:02:19Z</time>
      </trkpt>
      <trkpt lat="45.8777" lon="4.79256">
        <ele>252</ele>
        <time>2013-08-31T09:02:20Z</time>
      </trkpt>
      <trkpt lat="45.87742" lon="4.79236">
        <ele>252.48</ele>
        <time>2013-08-31T09:02:32Z</time>
      </trkpt>
      <trkpt lat="45.87715" lon="4.7923">
        <ele>252.48</ele>
        <time>2013-08-31T09:02:42Z</time>
      </trkpt>
      <trkpt lat="45.8769" lon="4.79214">
        <ele>253.93</ele>
        <time>2013-08-31T09:02:52Z</time>
      </trkpt>
      <trkpt lat="45.87665" lon="4.7919">
        <ele>253.93</ele>
        <time>2013-08-31T09:03:03Z</time>
      </trkpt>
      <trkpt lat="45.8764" lon="4.79172">
        <ele>253.93</ele>
        <time>2013-08-31T09:03:13Z</time>
      </trkpt>
      <trkpt lat="45.87615" lon="4.79153">
        <ele>255.37</ele>
        <time>2013-08-31T09:03:23Z</time>
      </trkpt>
      <trkpt lat="45.87596" lon="4.79138">
        <ele>257.29</ele>
        <time>2013-08-31T09:03:32Z</time>
      </trkpt>
      <trkpt lat="45.87575" lon="4.79122">
        <ele>259.21</ele>
        <time>2013-08-31T09:03:41Z</time>
      </trkpt>
      <trkpt lat="45.87568" lon="4.79116">
        <ele>259.69</ele>
        <time>2013-08-31T09:03:44Z</time>
      </trkpt>
      <trkpt lat="45.87566" lon="4.79115">
        <ele>259.69</ele>
        <time>2013-08-31T09:03:45Z</time>
      </trkpt>
      <trkpt lat="45.87563" lon="4.79114">
        <ele>259.69</ele>
        <time>2013-08-31T09:03:46Z</time>
      </trkpt>
      <trkpt lat="45.8756" lon="4.79114">
        <ele>259.69</ele>
        <time>2013-08-31T09:03:47Z</time>
      </trkpt>
      <trkpt lat="45.87558" lon="4.79113">
        <ele>260.17</ele>
        <time>2013-08-31T09:03:48Z</time>
      </trkpt>
      <trkpt lat="45.87541" lon="4.7911">
        <ele>261.62</ele>
        <time>2013-08-31T09:03:56Z</time>
      </trkpt>
      <trkpt lat="45.87539" lon="4.7911">
        <ele>261.62</ele>
        <time>2013-08-31T09:03:57Z</time>
      </trkpt>
      <trkpt lat="45.87538" lon="4.7911">
        <ele>262.1</ele>
        <time>2013-08-31T09:03:58Z</time>
      </trkpt>
      <trkpt lat="45.87536" lon="4.7911">
        <ele>262.58</ele>
        <time>2013-08-31T09:03:59Z</time>
      </trkpt>
      <trkpt lat="45.87534" lon="4.79109">
        <ele>262.1</ele>
        <time>2013-08-31T09:04:00Z</time>
      </trkpt>
      <trkpt lat="45.87533" lon="4.79109">
        <ele>263.06</ele>
        <time>2013-08-31T09:04:01Z</time>
      </trkpt>
      <trkpt lat="45.87528" lon="4.79107">
        <ele>263.06</ele>
        <time>2013-08-31T09:04:04Z</time>
      </trkpt>
      <trkpt lat="45.87516" lon="4.79106">
        <ele>264.02</ele>
        <time>2013-08-31T09:04:13Z</time>
      </trkpt>
      <trkpt lat="45.87505" lon="4.79105">
        <ele>265.94</ele>
        <time>2013-08-31T09:04:21Z</time>
      </trkpt>
      <trkpt lat="45.87489" lon="4.79107">
        <ele>268.35</ele>
        <time>2013-08-31T09:04:32Z</time>
      </trkpt>
      <trkpt lat="45.87489" lon="4.79107">
        <ele>268.83</ele>
        <time>2013-08-31T09:04:50Z</time>
      </trkpt>
      <trkpt lat="45.87487" lon="4.79107">
        <ele>268.35</ele>
        <time>2013-08-31T09:05:04Z</time>
      </trkpt>
      <trkpt lat="45.87476" lon="4.79106">
        <ele>270.27</ele>
        <time>2013-08-31T09:05:15Z</time>
      </trkpt>
      <trkpt lat="45.87467" lon="4.79107">
        <ele>271.71</ele>
        <time>2013-08-31T09:05:26Z</time>
      </trkpt>
      <trkpt lat="45.87458" lon="4.79106">
        <ele>273.15</ele>
        <time>2013-08-31T09:05:36Z</time>
      </trkpt>
      <trkpt lat="45.87448" lon="4.79102">
        <ele>274.59</ele>
        <time>2013-08-31T09:05:50Z</time>
      </trkpt>
      <trkpt lat="45.87445" lon="4.79101">
        <ele>275.07</ele>
        <time>2013-08-31T09:05:59Z</time>
      </trkpt>
      <trkpt lat="45.87439" lon="4.79103">
        <ele>277</ele>
        <time>2013-08-31T09:06:08Z</time>
      </trkpt>
      <trkpt lat="45.87429" lon="4.79106">
        <ele>278.92</ele>
        <time>2013-08-31T09:06:18Z</time>
      </trkpt>
      <trkpt lat="45.87413" lon="4.79111">
        <ele>281.32</ele>
        <time>2013-08-31T09:06:29Z</time>
      </trkpt>
      <trkpt lat="45.87409" lon="4.79113">
        <ele>282.28</ele>
        <time>2013-08-31T09:06:39Z</time>
      </trkpt>
      <trkpt lat="45.87405" lon="4.79114">
        <ele>283.73</ele>
        <time>2013-08-31T09:06:48Z</time>
      </trkpt>
      <trkpt lat="45.87399" lon="4.79116">
        <ele>284.21</ele>
        <time>2013-08-31T09:06:57Z</time>
      </trkpt>
      <trkpt lat="45.87396" lon="4.79116">
        <ele>285.17</ele>
        <time>2013-08-31T09:07:04Z</time>
      </trkpt>
      <trkpt lat="45.87387" lon="4.79119">
        <ele>285.17</ele>
        <time>2013-08-31T09:07:13Z</time>
      </trkpt>
      <trkpt lat="45.87381" lon="4.7912">
        <ele>287.57</ele>
        <time>2013-08-31T09:07:24Z</time>
      </trkpt>
      <trkpt lat="45.87373" lon="4.79121">
        <ele>288.53</ele>
        <time>2013-08-31T09:07:35Z</time>
      </trkpt>
      <trkpt lat="45.87364" lon="4.79122">
        <ele>289.97</ele>
        <time>2013-08-31T09:07:44Z</time>
      </trkpt>
      <trkpt lat="45.87353" lon="4.79125">
        <ele>291.42</ele>
        <time>2013-08-31T09:07:52Z</time>
      </trkpt>
      <trkpt lat="45.87343" lon="4.79126">
        <ele>292.38</ele>
        <time>2013-08-31T09:08:03Z</time>
      </trkpt>
      <trkpt lat="45.87336" lon="4.79127">
        <ele>293.34</ele>
        <time>2013-08-31T09:08:12Z</time>
      </trkpt>
      <trkpt lat="45.8733" lon="4.79127">
        <ele>293.34</ele>
        <time>2013-08-31T09:08:21Z</time>
      </trkpt>
      <trkpt lat="45.8733" lon="4.79127">
        <ele>294.3</ele>
        <time>2013-08-31T09:08:44Z</time>
      </trkpt>
      <trkpt lat="45.8733" lon="4.79127">
        <ele>293.34</ele>
        <time>2013-08-31T09:09:08Z</time>
      </trkpt>
      <trkpt lat="45.87328" lon="4.79127">
        <ele>293.82</ele>
        <time>2013-08-31T09:09:21Z</time>
      </trkpt>
      <trkpt lat="45.87328" lon="4.79127">
        <ele>293.82</ele>
        <time>2013-08-31T09:09:48Z</time>
      </trkpt>
      <trkpt lat="45.87328" lon="4.79127">
        <ele>293.34</ele>
        <time>2013-08-31T09:10:14Z</time>
      </trkpt>
      <trkpt lat="45.87328" lon="4.79127">
        <ele>293.82</ele>
        <time>2013-08-31T09:10:34Z</time>
      </trkpt>
      <trkpt lat="45.87328" lon="4.79127">
        <ele>293.82</ele>
        <time>2013-08-31T09:10:56Z</time>
      </trkpt>
      <trkpt lat="45.87327" lon="4.79126">
        <ele>293.82</ele>
        <time>2013-08-31T09:11:11Z</time>
      </trkpt>
      <trkpt lat="45.8732" lon="4.7912">
        <ele>294.78</ele>
        <time>2013-08-31T09:11:21Z</time>
      </trkpt>
      <trkpt lat="45.87319" lon="4.79118">
        <ele>294.78</ele>
        <time>2013-08-31T09:11:23Z</time>
      </trkpt>
      <trkpt lat="45.87313" lon="4.79111">
        <ele>295.26</ele>
        <time>2013-08-31T09:11:28Z</time>
      </trkpt>
      <trkpt lat="45.87313" lon="4.79109">
        <ele>295.74</ele>
        <time>2013-08-31T09:11:29Z</time>
      </trkpt>
      <trkpt lat="45.87311" lon="4.79105">
        <ele>295.74</ele>
        <time>2013-08-31T09:11:31Z</time>
      </trkpt>
      <trkpt lat="45.8731" lon="4.79103">
        <ele>296.22</ele>
        <time>2013-08-31T09:11:32Z</time>
      </trkpt>
      <trkpt lat="45.87309" lon="4.79101">
        <ele>296.22</ele>
        <time>2013-08-31T09:11:33Z</time>
      </trkpt>
      <trkpt lat="45.87308" lon="4.79098">
        <ele>296.22</ele>
        <time>2013-08-31T09:11:34Z</time>
      </trkpt>
      <trkpt lat="45.87307" lon="4.79097">
        <ele>296.7</ele>
        <time>2013-08-31T09:11:35Z</time>
      </trkpt>
      <trkpt lat="45.87306" lon="4.79095">
        <ele>296.22</ele>
        <time>2013-08-31T09:11:36Z</time>
      </trkpt>
      <trkpt lat="45.87305" lon="4.79093">
        <ele>296.7</ele>
        <time>2013-08-31T09:11:37Z</time>
      </trkpt>
      <trkpt lat="45.87298" lon="4.79085">
        <ele>297.18</ele>
        <time>2013-08-31T09:11:44Z</time>
      </trkpt>
      <trkpt lat="45.87297" lon="4.79083">
        <ele>298.15</ele>
        <time>2013-08-31T09:11:45Z</time>
      </trkpt>
      <trkpt lat="45.87296" lon="4.79081">
        <ele>297.18</ele>
        <time>2013-08-31T09:11:46Z</time>
      </trkpt>
      <trkpt lat="45.87291" lon="4.79074">
        <ele>298.63</ele>
        <time>2013-08-31T09:11:51Z</time>
      </trkpt>
      <trkpt lat="45.87288" lon="4.7907">
        <ele>299.11</ele>
        <time>2013-08-31T09:11:53Z</time>
      </trkpt>
      <trkpt lat="45.87281" lon="4.79065">
        <ele>299.59</ele>
        <time>2013-08-31T09:12:01Z</time>
      </trkpt>
      <trkpt lat="45.87265" lon="4.7906">
        <ele>301.03</ele>
        <time>2013-08-31T09:12:11Z</time>
      </trkpt>
      <trkpt lat="45.8725" lon="4.79053">
        <ele>301.51</ele>
        <time>2013-08-31T09:12:21Z</time>
      </trkpt>
      <trkpt lat="45.87232" lon="4.79045">
        <ele>303.43</ele>
        <time>2013-08-31T09:12:31Z</time>
      </trkpt>
      <trkpt lat="45.87223" lon="4.7904">
        <ele>303.43</ele>
        <time>2013-08-31T09:12:37Z</time>
      </trkpt>
      <trkpt lat="45.87221" lon="4.79039">
        <ele>303.91</ele>
        <time>2013-08-31T09:12:38Z</time>
      </trkpt>
      <trkpt lat="45.8722" lon="4.79038">
        <ele>304.39</ele>
        <time>2013-08-31T09:12:39Z</time>
      </trkpt>
      <trkpt lat="45.87218" lon="4.79037">
        <ele>304.39</ele>
        <time>2013-08-31T09:12:40Z</time>
      </trkpt>
      <trkpt lat="45.87217" lon="4.79036">
        <ele>304.88</ele>
        <time>2013-08-31T09:12:41Z</time>
      </trkpt>
      <trkpt lat="45.87215" lon="4.79036">
        <ele>304.88</ele>
        <time>2013-08-31T09:12:42Z</time>
      </trkpt>
      <trkpt lat="45.87214" lon="4.79034">
        <ele>304.88</ele>
        <time>2013-08-31T09:12:43Z</time>
      </trkpt>
      <trkpt lat="45.87213" lon="4.79033">
        <ele>305.36</ele>
        <time>2013-08-31T09:12:44Z</time>
      </trkpt>
      <trkpt lat="45.87211" lon="4.79031">
        <ele>305.36</ele>
        <time>2013-08-31T09:12:45Z</time>
      </trkpt>
      <trkpt lat="45.87209" lon="4.7903">
        <ele>305.36</ele>
        <time>2013-08-31T09:12:46Z</time>
      </trkpt>
      <trkpt lat="45.87207" lon="4.79029">
        <ele>305.36</ele>
        <time>2013-08-31T09:12:47Z</time>
      </trkpt>
      <trkpt lat="45.87206" lon="4.79028">
        <ele>305.84</ele>
        <time>2013-08-31T09:12:48Z</time>
      </trkpt>
      <trkpt lat="45.87205" lon="4.79026">
        <ele>305.84</ele>
        <time>2013-08-31T09:12:49Z</time>
      </trkpt>
      <trkpt lat="45.872" lon="4.79025">
        <ele>306.8</ele>
        <time>2013-08-31T09:12:52Z</time>
      </trkpt>
      <trkpt lat="45.87196" lon="4.79022">
        <ele>307.28</ele>
        <time>2013-08-31T09:12:56Z</time>
      </trkpt>
      <trkpt lat="45.87186" lon="4.79016">
        <ele>309.2</ele>
        <time>2013-08-31T09:13:04Z</time>
      </trkpt>
      <trkpt lat="45.87177" lon="4.79012">
        <ele>311.6</ele>
        <time>2013-08-31T09:13:13Z</time>
      </trkpt>
      <trkpt lat="45.87174" lon="4.79011">
        <ele>312.09</ele>
        <time>2013-08-31T09:13:16Z</time>
      </trkpt>
      <trkpt lat="45.87172" lon="4.7901">
        <ele>311.6</ele>
        <time>2013-08-31T09:13:17Z</time>
      </trkpt>
      <trkpt lat="45.87171" lon="4.79009">
        <ele>312.09</ele>
        <time>2013-08-31T09:13:18Z</time>
      </trkpt>
      <trkpt lat="45.87169" lon="4.79008">
        <ele>312.09</ele>
        <time>2013-08-31T09:13:19Z</time>
      </trkpt>
      <trkpt lat="45.87167" lon="4.79008">
        <ele>312.09</ele>
        <time>2013-08-31T09:13:20Z</time>
      </trkpt>
      <trkpt lat="45.87152" lon="4.79004">
        <ele>314.01</ele>
        <time>2013-08-31T09:13:31Z</time>
      </trkpt>
      <trkpt lat="45.87151" lon="4.79001">
        <ele>313.05</ele>
        <time>2013-08-31T09:13:33Z</time>
      </trkpt>
      <trkpt lat="45.8715" lon="4.78999">
        <ele>313.05</ele>
        <time>2013-08-31T09:13:34Z</time>
      </trkpt>
      <trkpt lat="45.87149" lon="4.78997">
        <ele>313.53</ele>
        <time>2013-08-31T09:13:35Z</time>
      </trkpt>
      <trkpt lat="45.87149" lon="4.78995">
        <ele>313.53</ele>
        <time>2013-08-31T09:13:36Z</time>
      </trkpt>
      <trkpt lat="45.87148" lon="4.78987">
        <ele>314.49</ele>
        <time>2013-08-31T09:13:44Z</time>
      </trkpt>
      <trkpt lat="45.87146" lon="4.78978">
        <ele>315.93</ele>
        <time>2013-08-31T09:13:53Z</time>
      </trkpt>
      <trkpt lat="45.87146" lon="4.78967">
        <ele>316.89</ele>
        <time>2013-08-31T09:14:03Z</time>
      </trkpt>
      <trkpt lat="45.87147" lon="4.78959">
        <ele>317.85</ele>
        <time>2013-08-31T09:14:13Z</time>
      </trkpt>
      <trkpt lat="45.87148" lon="4.78952">
        <ele>319.3</ele>
        <time>2013-08-31T09:14:23Z</time>
      </trkpt>
      <trkpt lat="45.87149" lon="4.78944">
        <ele>320.74</ele>
        <time>2013-08-31T09:14:33Z</time>
      </trkpt>
      <trkpt lat="45.87149" lon="4.78931">
        <ele>321.7</ele>
        <time>2013-08-31T09:14:42Z</time>
      </trkpt>
      <trkpt lat="45.8715" lon="4.78921">
        <ele>323.14</ele>
        <time>2013-08-31T09:14:52Z</time>
      </trkpt>
      <trkpt lat="45.87152" lon="4.78913">
        <ele>324.1</ele>
        <time>2013-08-31T09:15:03Z</time>
      </trkpt>
      <trkpt lat="45.87155" lon="4.78909">
        <ele>325.54</ele>
        <time>2013-08-31T09:15:13Z</time>
      </trkpt>
      <trkpt lat="45.87156" lon="4.78904">
        <ele>327.47</ele>
        <time>2013-08-31T09:15:24Z</time>
      </trkpt>
      <trkpt lat="45.87163" lon="4.789">
        <ele>328.91</ele>
        <time>2013-08-31T09:15:33Z</time>
      </trkpt>
      <trkpt lat="45.87167" lon="4.78896">
        <ele>329.87</ele>
        <time>2013-08-31T09:15:42Z</time>
      </trkpt>
      <trkpt lat="45.87171" lon="4.78888">
        <ele>331.31</ele>
        <time>2013-08-31T09:15:53Z</time>
      </trkpt>
      <trkpt lat="45.87173" lon="4.78886">
        <ele>331.31</ele>
        <time>2013-08-31T09:16:05Z</time>
      </trkpt>
      <trkpt lat="45.87173" lon="4.78886">
        <ele>331.31</ele>
        <time>2013-08-31T09:16:25Z</time>
      </trkpt>
      <trkpt lat="45.87173" lon="4.78886">
        <ele>331.31</ele>
        <time>2013-08-31T09:16:48Z</time>
      </trkpt>
      <trkpt lat="45.87173" lon="4.78886">
        <ele>331.31</ele>
        <time>2013-08-31T09:17:11Z</time>
      </trkpt>
      <trkpt lat="45.87173" lon="4.78886">
        <ele>331.31</ele>
        <time>2013-08-31T09:17:36Z</time>
      </trkpt>
      <trkpt lat="45.87174" lon="4.78883">
        <ele>332.75</ele>
        <time>2013-08-31T09:17:51Z</time>
      </trkpt>
      <trkpt lat="45.87174" lon="4.78883">
        <ele>333.23</ele>
        <time>2013-08-31T09:18:13Z</time>
      </trkpt>
      <trkpt lat="45.87174" lon="4.78883">
        <ele>332.75</ele>
        <time>2013-08-31T09:18:40Z</time>
      </trkpt>
      <trkpt lat="45.87174" lon="4.78883">
        <ele>332.75</ele>
        <time>2013-08-31T09:18:58Z</time>
      </trkpt>
      <trkpt lat="45.87174" lon="4.78883">
        <ele>333.23</ele>
        <time>2013-08-31T09:19:21Z</time>
      </trkpt>
      <trkpt lat="45.87175" lon="4.78883">
        <ele>333.23</ele>
        <time>2013-08-31T09:19:48Z</time>
      </trkpt>
      <trkpt lat="45.87175" lon="4.78883">
        <ele>333.23</ele>
        <time>2013-08-31T09:20:11Z</time>
      </trkpt>
      <trkpt lat="45.87175" lon="4.78883">
        <ele>333.23</ele>
        <time>2013-08-31T09:20:36Z</time>
      </trkpt>
      <trkpt lat="45.87175" lon="4.78882">
        <ele>332.75</ele>
        <time>2013-08-31T09:20:59Z</time>
      </trkpt>
      <trkpt lat="45.87175" lon="4.78882">
        <ele>333.71</ele>
        <time>2013-08-31T09:21:21Z</time>
      </trkpt>
      <trkpt lat="45.87175" lon="4.78882">
        <ele>333.23</ele>
        <time>2013-08-31T09:21:37Z</time>
      </trkpt>
      <trkpt lat="45.87175" lon="4.78882">
        <ele>333.71</ele>
        <time>2013-08-31T09:21:57Z</time>
      </trkpt>
      <trkpt lat="45.87175" lon="4.78882">
        <ele>333.23</ele>
        <time>2013-08-31T09:22:17Z</time>
      </trkpt>
      <trkpt lat="45.87175" lon="4.78881">
        <ele>333.71</ele>
        <time>2013-08-31T09:22:40Z</time>
      </trkpt>
      <trkpt lat="45.87175" lon="4.78881">
        <ele>333.71</ele>
        <time>2013-08-31T09:22:56Z</time>
      </trkpt>
      <trkpt lat="45.87176" lon="4.78881">
        <ele>334.2</ele>
        <time>2013-08-31T09:23:23Z</time>
      </trkpt>
      <trkpt lat="45.87176" lon="4.7888">
        <ele>334.2</ele>
        <time>2013-08-31T09:23:47Z</time>
      </trkpt>
      <trkpt lat="45.87176" lon="4.7888">
        <ele>335.16</ele>
        <time>2013-08-31T09:24:11Z</time>
      </trkpt>
      <trkpt lat="45.87177" lon="4.7888">
        <ele>334.2</ele>
        <time>2013-08-31T09:24:17Z</time>
      </trkpt>
      <trkpt lat="45.87179" lon="4.78881">
        <ele>333.71</ele>
        <time>2013-08-31T09:24:18Z</time>
      </trkpt>
      <trkpt lat="45.87181" lon="4.78881">
        <ele>332.75</ele>
        <time>2013-08-31T09:24:19Z</time>
      </trkpt>
      <trkpt lat="45.87183" lon="4.78881">
        <ele>331.79</ele>
        <time>2013-08-31T09:24:20Z</time>
      </trkpt>
      <trkpt lat="45.87186" lon="4.7888">
        <ele>331.31</ele>
        <time>2013-08-31T09:24:21Z</time>
      </trkpt>
      <trkpt lat="45.87191" lon="4.78879">
        <ele>330.35</ele>
        <time>2013-08-31T09:24:22Z</time>
      </trkpt>
      <trkpt lat="45.87194" lon="4.78879">
        <ele>328.91</ele>
        <time>2013-08-31T09:24:23Z</time>
      </trkpt>
      <trkpt lat="45.87197" lon="4.78879">
        <ele>328.43</ele>
        <time>2013-08-31T09:24:24Z</time>
      </trkpt>
      <trkpt lat="45.872" lon="4.78878">
        <ele>327.95</ele>
        <time>2013-08-31T09:24:25Z</time>
      </trkpt>
      <trkpt lat="45.87203" lon="4.78878">
        <ele>327.47</ele>
        <time>2013-08-31T09:24:26Z</time>
      </trkpt>
      <trkpt lat="45.87205" lon="4.78879">
        <ele>326.5</ele>
        <time>2013-08-31T09:24:27Z</time>
      </trkpt>
      <trkpt lat="45.87206" lon="4.78879">
        <ele>326.02</ele>
        <time>2013-08-31T09:24:28Z</time>
      </trkpt>
      <trkpt lat="45.87222" lon="4.78876">
        <ele>322.66</ele>
        <time>2013-08-31T09:24:32Z</time>
      </trkpt>
      <trkpt lat="45.87239" lon="4.78877">
        <ele>319.3</ele>
        <time>2013-08-31T09:24:36Z</time>
      </trkpt>
      <trkpt lat="45.8724" lon="4.78879">
        <ele>318.33</ele>
        <time>2013-08-31T09:24:37Z</time>
      </trkpt>
      <trkpt lat="45.87241" lon="4.7888">
        <ele>317.37</ele>
        <time>2013-08-31T09:24:38Z</time>
      </trkpt>
      <trkpt lat="45.87246" lon="4.78886">
        <ele>314.49</ele>
        <time>2013-08-31T09:24:40Z</time>
      </trkpt>
      <trkpt lat="45.87255" lon="4.78892">
        <ele>312.09</ele>
        <time>2013-08-31T09:24:44Z</time>
      </trkpt>
      <trkpt lat="45.87257" lon="4.78894">
        <ele>311.6</ele>
        <time>2013-08-31T09:24:45Z</time>
      </trkpt>
      <trkpt lat="45.8726" lon="4.78895">
        <ele>311.12</ele>
        <time>2013-08-31T09:24:46Z</time>
      </trkpt>
      <trkpt lat="45.87273" lon="4.78896">
        <ele>308.72</ele>
        <time>2013-08-31T09:24:54Z</time>
      </trkpt>
      <trkpt lat="45.87285" lon="4.78896">
        <ele>307.28</ele>
        <time>2013-08-31T09:24:59Z</time>
      </trkpt>
      <trkpt lat="45.8729" lon="4.78894">
        <ele>307.28</ele>
        <time>2013-08-31T09:25:01Z</time>
      </trkpt>
      <trkpt lat="45.87296" lon="4.78893">
        <ele>305.36</ele>
        <time>2013-08-31T09:25:03Z</time>
      </trkpt>
      <trkpt lat="45.87299" lon="4.78892">
        <ele>306.32</ele>
        <time>2013-08-31T09:25:04Z</time>
      </trkpt>
      <trkpt lat="45.87316" lon="4.7888">
        <ele>302.47</ele>
        <time>2013-08-31T09:25:12Z</time>
      </trkpt>
      <trkpt lat="45.87319" lon="4.78874">
        <ele>301.51</ele>
        <time>2013-08-31T09:25:14Z</time>
      </trkpt>
      <trkpt lat="45.8732" lon="4.7887">
        <ele>299.59</ele>
        <time>2013-08-31T09:25:16Z</time>
      </trkpt>
      <trkpt lat="45.87325" lon="4.78865">
        <ele>298.63</ele>
        <time>2013-08-31T09:25:17Z</time>
      </trkpt>
      <trkpt lat="45.8733" lon="4.78854">
        <ele>297.67</ele>
        <time>2013-08-31T09:25:21Z</time>
      </trkpt>
      <trkpt lat="45.8733" lon="4.78853">
        <ele>297.67</ele>
        <time>2013-08-31T09:25:22Z</time>
      </trkpt>
      <trkpt lat="45.87346" lon="4.78832">
        <ele>297.18</ele>
        <time>2013-08-31T09:25:33Z</time>
      </trkpt>
      <trkpt lat="45.87346" lon="4.78832">
        <ele>297.18</ele>
        <time>2013-08-31T09:25:55Z</time>
      </trkpt>
      <trkpt lat="45.87352" lon="4.78826">
        <ele>293.82</ele>
        <time>2013-08-31T09:26:01Z</time>
      </trkpt>
      <trkpt lat="45.8736" lon="4.78822">
        <ele>293.34</ele>
        <time>2013-08-31T09:26:02Z</time>
      </trkpt>
      <trkpt lat="45.87363" lon="4.7882">
        <ele>292.38</ele>
        <time>2013-08-31T09:26:03Z</time>
      </trkpt>
      <trkpt lat="45.87372" lon="4.78813">
        <ele>291.42</ele>
        <time>2013-08-31T09:26:05Z</time>
      </trkpt>
      <trkpt lat="45.87385" lon="4.78802">
        <ele>289.01</ele>
        <time>2013-08-31T09:26:15Z</time>
      </trkpt>
      <trkpt lat="45.87393" lon="4.78797">
        <ele>288.05</ele>
        <time>2013-08-31T09:26:22Z</time>
      </trkpt>
      <trkpt lat="45.87398" lon="4.7879">
        <ele>286.13</ele>
        <time>2013-08-31T09:26:30Z</time>
      </trkpt>
      <trkpt lat="45.874" lon="4.78788">
        <ele>286.13</ele>
        <time>2013-08-31T09:26:31Z</time>
      </trkpt>
      <trkpt lat="45.87405" lon="4.78786">
        <ele>284.21</ele>
        <time>2013-08-31T09:26:33Z</time>
      </trkpt>
      <trkpt lat="45.87427" lon="4.78778">
        <ele>282.77</ele>
        <time>2013-08-31T09:26:45Z</time>
      </trkpt>
      <trkpt lat="45.87439" lon="4.78773">
        <ele>281.32</ele>
        <time>2013-08-31T09:26:53Z</time>
      </trkpt>
      <trkpt lat="45.87447" lon="4.78773">
        <ele>279.88</ele>
        <time>2013-08-31T09:26:58Z</time>
      </trkpt>
      <trkpt lat="45.87452" lon="4.78766">
        <ele>278.92</ele>
        <time>2013-08-31T09:27:08Z</time>
      </trkpt>
      <trkpt lat="45.87452" lon="4.78766">
        <ele>279.4</ele>
        <time>2013-08-31T09:27:30Z</time>
      </trkpt>
      <trkpt lat="45.87452" lon="4.78766">
        <ele>279.4</ele>
        <time>2013-08-31T09:27:49Z</time>
      </trkpt>
      <trkpt lat="45.87452" lon="4.78767">
        <ele>279.4</ele>
        <time>2013-08-31T09:28:05Z</time>
      </trkpt>
      <trkpt lat="45.87452" lon="4.78765">
        <ele>279.88</ele>
        <time>2013-08-31T09:28:20Z</time>
      </trkpt>
      <trkpt lat="45.8745" lon="4.7876">
        <ele>281.32</ele>
        <time>2013-08-31T09:28:25Z</time>
      </trkpt>
      <trkpt lat="45.87446" lon="4.78752">
        <ele>266.9</ele>
        <time>2013-08-31T09:28:33Z</time>
      </trkpt>
      <trkpt lat="45.87446" lon="4.78752">
        <ele>284.21</ele>
        <time>2013-08-31T09:28:34Z</time>
      </trkpt>
      <trkpt lat="45.87443" lon="4.78748">
        <ele>283.73</ele>
        <time>2013-08-31T09:28:46Z</time>
      </trkpt>
      <trkpt lat="45.87439" lon="4.78736">
        <ele>285.17</ele>
        <time>2013-08-31T09:28:57Z</time>
      </trkpt>
      <trkpt lat="45.87438" lon="4.78725">
        <ele>286.13</ele>
        <time>2013-08-31T09:29:04Z</time>
      </trkpt>
      <trkpt lat="45.87434" lon="4.7871">
        <ele>287.09</ele>
        <time>2013-08-31T09:29:15Z</time>
      </trkpt>
      <trkpt lat="45.8743" lon="4.787">
        <ele>287.09</ele>
        <time>2013-08-31T09:29:24Z</time>
      </trkpt>
      <trkpt lat="45.87429" lon="4.78699">
        <ele>287.09</ele>
        <time>2013-08-31T09:29:38Z</time>
      </trkpt>
      <trkpt lat="45.8743" lon="4.78698">
        <ele>287.09</ele>
        <time>2013-08-31T09:29:51Z</time>
      </trkpt>
      <trkpt lat="45.87429" lon="4.78696">
        <ele>287.09</ele>
        <time>2013-08-31T09:30:02Z</time>
      </trkpt>
      <trkpt lat="45.87427" lon="4.78691">
        <ele>287.09</ele>
        <time>2013-08-31T09:30:04Z</time>
      </trkpt>
      <trkpt lat="45.87416" lon="4.7867">
        <ele>287.09</ele>
        <time>2013-08-31T09:30:12Z</time>
      </trkpt>
      <trkpt lat="45.87395" lon="4.78646">
        <ele>288.53</ele>
        <time>2013-08-31T09:30:20Z</time>
      </trkpt>
      <trkpt lat="45.87384" lon="4.78636">
        <ele>289.01</ele>
        <time>2013-08-31T09:30:25Z</time>
      </trkpt>
      <trkpt lat="45.87361" lon="4.78619">
        <ele>291.42</ele>
        <time>2013-08-31T09:30:36Z</time>
      </trkpt>
      <trkpt lat="45.87342" lon="4.78605">
        <ele>292.86</ele>
        <time>2013-08-31T09:30:45Z</time>
      </trkpt>
      <trkpt lat="45.87338" lon="4.78604">
        <ele>293.34</ele>
        <time>2013-08-31T09:30:47Z</time>
      </trkpt>
      <trkpt lat="45.8732" lon="4.78584">
        <ele>294.3</ele>
        <time>2013-08-31T09:30:56Z</time>
      </trkpt>
      <trkpt lat="45.87311" lon="4.78577">
        <ele>294.78</ele>
        <time>2013-08-31T09:31:00Z</time>
      </trkpt>
      <trkpt lat="45.87306" lon="4.78575">
        <ele>295.26</ele>
        <time>2013-08-31T09:31:02Z</time>
      </trkpt>
      <trkpt lat="45.87289" lon="4.78563">
        <ele>297.18</ele>
        <time>2013-08-31T09:31:11Z</time>
      </trkpt>
      <trkpt lat="45.87276" lon="4.78555">
        <ele>297.67</ele>
        <time>2013-08-31T09:31:20Z</time>
      </trkpt>
      <trkpt lat="45.87269" lon="4.78549">
        <ele>299.11</ele>
        <time>2013-08-31T09:31:25Z</time>
      </trkpt>
      <trkpt lat="45.87253" lon="4.78546">
        <ele>299.59</ele>
        <time>2013-08-31T09:31:33Z</time>
      </trkpt>
      <trkpt lat="45.87248" lon="4.78542">
        <ele>300.07</ele>
        <time>2013-08-31T09:31:36Z</time>
      </trkpt>
      <trkpt lat="45.87239" lon="4.78536">
        <ele>300.07</ele>
        <time>2013-08-31T09:31:42Z</time>
      </trkpt>
      <trkpt lat="45.87218" lon="4.78529">
        <ele>301.03</ele>
        <time>2013-08-31T09:31:52Z</time>
      </trkpt>
      <trkpt lat="45.87211" lon="4.78527">
        <ele>301.03</ele>
        <time>2013-08-31T09:31:54Z</time>
      </trkpt>
      <trkpt lat="45.87196" lon="4.78516">
        <ele>301.99</ele>
        <time>2013-08-31T09:32:03Z</time>
      </trkpt>
      <trkpt lat="45.8718" lon="4.78512">
        <ele>303.91</ele>
        <time>2013-08-31T09:32:10Z</time>
      </trkpt>
      <trkpt lat="45.87165" lon="4.78511">
        <ele>304.88</ele>
        <time>2013-08-31T09:32:18Z</time>
      </trkpt>
      <trkpt lat="45.8716" lon="4.78511">
        <ele>304.39</ele>
        <time>2013-08-31T09:32:28Z</time>
      </trkpt>
      <trkpt lat="45.87156" lon="4.78511">
        <ele>303.91</ele>
        <time>2013-08-31T09:32:38Z</time>
      </trkpt>
      <trkpt lat="45.87148" lon="4.7851">
        <ele>304.88</ele>
        <time>2013-08-31T09:32:44Z</time>
      </trkpt>
      <trkpt lat="45.87125" lon="4.78501">
        <ele>304.39</ele>
        <time>2013-08-31T09:32:54Z</time>
      </trkpt>
      <trkpt lat="45.87119" lon="4.78497">
        <ele>297.67</ele>
        <time>2013-08-31T09:32:56Z</time>
      </trkpt>
      <trkpt lat="45.87116" lon="4.78495">
        <ele>304.39</ele>
        <time>2013-08-31T09:32:57Z</time>
      </trkpt>
      <trkpt lat="45.87102" lon="4.78477">
        <ele>301.51</ele>
        <time>2013-08-31T09:33:02Z</time>
      </trkpt>
      <trkpt lat="45.87099" lon="4.78472">
        <ele>300.55</ele>
        <time>2013-08-31T09:33:03Z</time>
      </trkpt>
      <trkpt lat="45.87095" lon="4.78466">
        <ele>300.07</ele>
        <time>2013-08-31T09:33:04Z</time>
      </trkpt>
      <trkpt lat="45.87091" lon="4.78461">
        <ele>299.11</ele>
        <time>2013-08-31T09:33:05Z</time>
      </trkpt>
      <trkpt lat="45.87087" lon="4.78457">
        <ele>298.15</ele>
        <time>2013-08-31T09:33:06Z</time>
      </trkpt>
      <trkpt lat="45.87083" lon="4.78452">
        <ele>298.15</ele>
        <time>2013-08-31T09:33:07Z</time>
      </trkpt>
      <trkpt lat="45.87064" lon="4.7843">
        <ele>294.78</ele>
        <time>2013-08-31T09:33:13Z</time>
      </trkpt>
      <trkpt lat="45.87062" lon="4.78424">
        <ele>289.97</ele>
        <time>2013-08-31T09:33:18Z</time>
      </trkpt>
      <trkpt lat="45.87062" lon="4.78424">
        <ele>291.9</ele>
        <time>2013-08-31T09:33:19Z</time>
      </trkpt>
      <trkpt lat="45.87062" lon="4.78424">
        <ele>295.26</ele>
        <time>2013-08-31T09:33:20Z</time>
      </trkpt>
      <trkpt lat="45.87062" lon="4.78424">
        <ele>294.3</ele>
        <time>2013-08-31T09:33:21Z</time>
      </trkpt>
      <trkpt lat="45.87062" lon="4.78424">
        <ele>290.46</ele>
        <time>2013-08-31T09:33:31Z</time>
      </trkpt>
      <trkpt lat="45.87062" lon="4.78424">
        <ele>295.26</ele>
        <time>2013-08-31T09:33:32Z</time>
      </trkpt>
      <trkpt lat="45.87062" lon="4.78424">
        <ele>294.78</ele>
        <time>2013-08-31T09:33:38Z</time>
      </trkpt>
      <trkpt lat="45.87063" lon="4.78422">
        <ele>293.82</ele>
        <time>2013-08-31T09:33:39Z</time>
      </trkpt>
      <trkpt lat="45.87066" lon="4.78419">
        <ele>293.82</ele>
        <time>2013-08-31T09:33:40Z</time>
      </trkpt>
      <trkpt lat="45.87069" lon="4.78415">
        <ele>293.34</ele>
        <time>2013-08-31T09:33:41Z</time>
      </trkpt>
      <trkpt lat="45.87073" lon="4.7841">
        <ele>292.38</ele>
        <time>2013-08-31T09:33:42Z</time>
      </trkpt>
      <trkpt lat="45.87077" lon="4.78405">
        <ele>291.42</ele>
        <time>2013-08-31T09:33:43Z</time>
      </trkpt>
      <trkpt lat="45.87081" lon="4.784">
        <ele>290.46</ele>
        <time>2013-08-31T09:33:44Z</time>
      </trkpt>
      <trkpt lat="45.87086" lon="4.78394">
        <ele>290.46</ele>
        <time>2013-08-31T09:33:45Z</time>
      </trkpt>
      <trkpt lat="45.87097" lon="4.78384">
        <ele>289.01</ele>
        <time>2013-08-31T09:33:47Z</time>
      </trkpt>
      <trkpt lat="45.87102" lon="4.78379">
        <ele>289.01</ele>
        <time>2013-08-31T09:33:48Z</time>
      </trkpt>
      <trkpt lat="45.87114" lon="4.7837">
        <ele>287.09</ele>
        <time>2013-08-31T09:33:50Z</time>
      </trkpt>
      <trkpt lat="45.87127" lon="4.78363">
        <ele>285.65</ele>
        <time>2013-08-31T09:33:52Z</time>
      </trkpt>
      <trkpt lat="45.87148" lon="4.78353">
        <ele>281.8</ele>
        <time>2013-08-31T09:33:55Z</time>
      </trkpt>
      <trkpt lat="45.87164" lon="4.78339">
        <ele>280.36</ele>
        <time>2013-08-31T09:33:59Z</time>
      </trkpt>
      <trkpt lat="45.8716" lon="4.78325">
        <ele>279.4</ele>
        <time>2013-08-31T09:34:02Z</time>
      </trkpt>
      <trkpt lat="45.87158" lon="4.78318">
        <ele>278.92</ele>
        <time>2013-08-31T09:34:03Z</time>
      </trkpt>
      <trkpt lat="45.87158" lon="4.78309">
        <ele>278.44</ele>
        <time>2013-08-31T09:34:04Z</time>
      </trkpt>
      <trkpt lat="45.87162" lon="4.78248">
        <ele>275.07</ele>
        <time>2013-08-31T09:34:10Z</time>
      </trkpt>
      <trkpt lat="45.87164" lon="4.78238">
        <ele>274.11</ele>
        <time>2013-08-31T09:34:11Z</time>
      </trkpt>
      <trkpt lat="45.87167" lon="4.78229">
        <ele>273.63</ele>
        <time>2013-08-31T09:34:12Z</time>
      </trkpt>
      <trkpt lat="45.8717" lon="4.7822">
        <ele>273.15</ele>
        <time>2013-08-31T09:34:13Z</time>
      </trkpt>
      <trkpt lat="45.8717" lon="4.78211">
        <ele>272.67</ele>
        <time>2013-08-31T09:34:14Z</time>
      </trkpt>
      <trkpt lat="45.8717" lon="4.78202">
        <ele>272.67</ele>
        <time>2013-08-31T09:34:15Z</time>
      </trkpt>
      <trkpt lat="45.87169" lon="4.78193">
        <ele>272.19</ele>
        <time>2013-08-31T09:34:16Z</time>
      </trkpt>
      <trkpt lat="45.87167" lon="4.78185">
        <ele>272.19</ele>
        <time>2013-08-31T09:34:17Z</time>
      </trkpt>
      <trkpt lat="45.87167" lon="4.78177">
        <ele>272.19</ele>
        <time>2013-08-31T09:34:18Z</time>
      </trkpt>
      <trkpt lat="45.87167" lon="4.78161">
        <ele>271.23</ele>
        <time>2013-08-31T09:34:24Z</time>
      </trkpt>
      <trkpt lat="45.87166" lon="4.7816">
        <ele>271.23</ele>
        <time>2013-08-31T09:34:41Z</time>
      </trkpt>
      <trkpt lat="45.87166" lon="4.7816">
        <ele>266.42</ele>
        <time>2013-08-31T09:34:48Z</time>
      </trkpt>
      <trkpt lat="45.87166" lon="4.7816">
        <ele>271.71</ele>
        <time>2013-08-31T09:34:49Z</time>
      </trkpt>
      <trkpt lat="45.87167" lon="4.78158">
        <ele>270.27</ele>
        <time>2013-08-31T09:34:52Z</time>
      </trkpt>
      <trkpt lat="45.87167" lon="4.78156">
        <ele>270.75</ele>
        <time>2013-08-31T09:34:53Z</time>
      </trkpt>
      <trkpt lat="45.87168" lon="4.78154">
        <ele>270.27</ele>
        <time>2013-08-31T09:34:54Z</time>
      </trkpt>
      <trkpt lat="45.87178" lon="4.78145">
        <ele>269.79</ele>
        <time>2013-08-31T09:34:58Z</time>
      </trkpt>
      <trkpt lat="45.8718" lon="4.78143">
        <ele>270.27</ele>
        <time>2013-08-31T09:34:59Z</time>
      </trkpt>
      <trkpt lat="45.87202" lon="4.78123">
        <ele>269.31</ele>
        <time>2013-08-31T09:35:07Z</time>
      </trkpt>
      <trkpt lat="45.87229" lon="4.78106">
        <ele>269.79</ele>
        <time>2013-08-31T09:35:15Z</time>
      </trkpt>
      <trkpt lat="45.87232" lon="4.78103">
        <ele>269.31</ele>
        <time>2013-08-31T09:35:16Z</time>
      </trkpt>
      <trkpt lat="45.87235" lon="4.781">
        <ele>268.35</ele>
        <time>2013-08-31T09:35:17Z</time>
      </trkpt>
      <trkpt lat="45.87238" lon="4.78098">
        <ele>269.31</ele>
        <time>2013-08-31T09:35:18Z</time>
      </trkpt>
      <trkpt lat="45.87279" lon="4.78056">
        <ele>269.31</ele>
        <time>2013-08-31T09:35:29Z</time>
      </trkpt>
      <trkpt lat="45.87293" lon="4.78025">
        <ele>272.67</ele>
        <time>2013-08-31T09:35:37Z</time>
      </trkpt>
      <trkpt lat="45.87294" lon="4.77995">
        <ele>274.59</ele>
        <time>2013-08-31T09:35:45Z</time>
      </trkpt>
      <trkpt lat="45.87291" lon="4.77962">
        <ele>273.63</ele>
        <time>2013-08-31T09:35:53Z</time>
      </trkpt>
      <trkpt lat="45.87285" lon="4.77925">
        <ele>272.19</ele>
        <time>2013-08-31T09:36:00Z</time>
      </trkpt>
      <trkpt lat="45.87284" lon="4.77919">
        <ele>272.19</ele>
        <time>2013-08-31T09:36:01Z</time>
      </trkpt>
      <trkpt lat="45.87269" lon="4.77837">
        <ele>270.75</ele>
        <time>2013-08-31T09:36:14Z</time>
      </trkpt>
      <trkpt lat="45.87268" lon="4.77819">
        <ele>270.75</ele>
        <time>2013-08-31T09:36:17Z</time>
      </trkpt>
      <trkpt lat="45.87269" lon="4.77814">
        <ele>270.75</ele>
        <time>2013-08-31T09:36:18Z</time>
      </trkpt>
      <trkpt lat="45.87269" lon="4.77808">
        <ele>270.75</ele>
        <time>2013-08-31T09:36:19Z</time>
      </trkpt>
      <trkpt lat="45.8727" lon="4.77803">
        <ele>270.27</ele>
        <time>2013-08-31T09:36:20Z</time>
      </trkpt>
      <trkpt lat="45.87271" lon="4.77797">
        <ele>270.27</ele>
        <time>2013-08-31T09:36:21Z</time>
      </trkpt>
      <trkpt lat="45.87271" lon="4.77792">
        <ele>270.27</ele>
        <time>2013-08-31T09:36:22Z</time>
      </trkpt>
      <trkpt lat="45.87272" lon="4.77787">
        <ele>270.27</ele>
        <time>2013-08-31T09:36:23Z</time>
      </trkpt>
      <trkpt lat="45.87274" lon="4.77739">
        <ele>268.35</ele>
        <time>2013-08-31T09:36:31Z</time>
      </trkpt>
      <trkpt lat="45.87269" lon="4.77686">
        <ele>264.5</ele>
        <time>2013-08-31T09:36:37Z</time>
      </trkpt>
      <trkpt lat="45.87267" lon="4.77657">
        <ele>262.58</ele>
        <time>2013-08-31T09:36:40Z</time>
      </trkpt>
      <trkpt lat="45.87262" lon="4.77614">
        <ele>258.73</ele>
        <time>2013-08-31T09:36:44Z</time>
      </trkpt>
      <trkpt lat="45.87261" lon="4.77605">
        <ele>258.25</ele>
        <time>2013-08-31T09:36:45Z</time>
      </trkpt>
      <trkpt lat="45.87259" lon="4.77597">
        <ele>257.77</ele>
        <time>2013-08-31T09:36:46Z</time>
      </trkpt>
      <trkpt lat="45.87258" lon="4.77591">
        <ele>257.29</ele>
        <time>2013-08-31T09:36:47Z</time>
      </trkpt>
      <trkpt lat="45.87259" lon="4.77585">
        <ele>256.33</ele>
        <time>2013-08-31T09:36:48Z</time>
      </trkpt>
      <trkpt lat="45.8726" lon="4.7758">
        <ele>256.33</ele>
        <time>2013-08-31T09:36:49Z</time>
      </trkpt>
      <trkpt lat="45.87263" lon="4.77576">
        <ele>256.33</ele>
        <time>2013-08-31T09:36:50Z</time>
      </trkpt>
      <trkpt lat="45.87267" lon="4.77573">
        <ele>255.85</ele>
        <time>2013-08-31T09:36:51Z</time>
      </trkpt>
      <trkpt lat="45.87271" lon="4.7757">
        <ele>255.37</ele>
        <time>2013-08-31T09:36:52Z</time>
      </trkpt>
      <trkpt lat="45.8728" lon="4.77561">
        <ele>254.41</ele>
        <time>2013-08-31T09:36:54Z</time>
      </trkpt>
      <trkpt lat="45.87285" lon="4.77556">
        <ele>253.93</ele>
        <time>2013-08-31T09:36:55Z</time>
      </trkpt>
      <trkpt lat="45.87289" lon="4.77549">
        <ele>252.96</ele>
        <time>2013-08-31T09:36:56Z</time>
      </trkpt>
      <trkpt lat="45.87293" lon="4.77542">
        <ele>252.96</ele>
        <time>2013-08-31T09:36:57Z</time>
      </trkpt>
      <trkpt lat="45.87296" lon="4.77535">
        <ele>252</ele>
        <time>2013-08-31T09:36:58Z</time>
      </trkpt>
      <trkpt lat="45.87298" lon="4.77527">
        <ele>251.52</ele>
        <time>2013-08-31T09:36:59Z</time>
      </trkpt>
      <trkpt lat="45.873" lon="4.7752">
        <ele>251.52</ele>
        <time>2013-08-31T09:37:00Z</time>
      </trkpt>
      <trkpt lat="45.873" lon="4.77512">
        <ele>251.04</ele>
        <time>2013-08-31T09:37:01Z</time>
      </trkpt>
      <trkpt lat="45.87299" lon="4.77504">
        <ele>250.56</ele>
        <time>2013-08-31T09:37:02Z</time>
      </trkpt>
      <trkpt lat="45.87297" lon="4.7741">
        <ele>248.16</ele>
        <time>2013-08-31T09:37:12Z</time>
      </trkpt>
      <trkpt lat="45.87299" lon="4.77359">
        <ele>246.72</ele>
        <time>2013-08-31T09:37:18Z</time>
      </trkpt>
      <trkpt lat="45.87302" lon="4.77309">
        <ele>245.75</ele>
        <time>2013-08-31T09:37:24Z</time>
      </trkpt>
      <trkpt lat="45.87308" lon="4.77248">
        <ele>243.83</ele>
        <time>2013-08-31T09:37:32Z</time>
      </trkpt>
      <trkpt lat="45.87313" lon="4.77234">
        <ele>243.35</ele>
        <time>2013-08-31T09:37:35Z</time>
      </trkpt>
      <trkpt lat="45.87316" lon="4.77232">
        <ele>243.35</ele>
        <time>2013-08-31T09:37:36Z</time>
      </trkpt>
      <trkpt lat="45.8732" lon="4.77231">
        <ele>243.83</ele>
        <time>2013-08-31T09:37:37Z</time>
      </trkpt>
      <trkpt lat="45.87324" lon="4.7723">
        <ele>243.35</ele>
        <time>2013-08-31T09:37:38Z</time>
      </trkpt>
      <trkpt lat="45.87328" lon="4.7723">
        <ele>243.35</ele>
        <time>2013-08-31T09:37:39Z</time>
      </trkpt>
      <trkpt lat="45.8735" lon="4.77226">
        <ele>242.39</ele>
        <time>2013-08-31T09:37:44Z</time>
      </trkpt>
      <trkpt lat="45.87354" lon="4.77225">
        <ele>241.91</ele>
        <time>2013-08-31T09:37:45Z</time>
      </trkpt>
      <trkpt lat="45.87368" lon="4.77224">
        <ele>241.91</ele>
        <time>2013-08-31T09:37:48Z</time>
      </trkpt>
      <trkpt lat="45.87372" lon="4.77223">
        <ele>241.91</ele>
        <time>2013-08-31T09:37:49Z</time>
      </trkpt>
      <trkpt lat="45.87376" lon="4.77223">
        <ele>242.39</ele>
        <time>2013-08-31T09:37:50Z</time>
      </trkpt>
      <trkpt lat="45.87387" lon="4.77225">
        <ele>241.43</ele>
        <time>2013-08-31T09:37:53Z</time>
      </trkpt>
      <trkpt lat="45.87392" lon="4.77231">
        <ele>240.95</ele>
        <time>2013-08-31T09:37:55Z</time>
      </trkpt>
      <trkpt lat="45.87393" lon="4.77234">
        <ele>240.95</ele>
        <time>2013-08-31T09:37:56Z</time>
      </trkpt>
      <trkpt lat="45.87393" lon="4.77237">
        <ele>241.43</ele>
        <time>2013-08-31T09:37:57Z</time>
      </trkpt>
      <trkpt lat="45.87392" lon="4.77239">
        <ele>241.91</ele>
        <time>2013-08-31T09:37:58Z</time>
      </trkpt>
      <trkpt lat="45.87392" lon="4.7724">
        <ele>241.43</ele>
        <time>2013-08-31T09:37:59Z</time>
      </trkpt>
      <trkpt lat="45.87393" lon="4.77243">
        <ele>241.43</ele>
        <time>2013-08-31T09:38:07Z</time>
      </trkpt>
      <trkpt lat="45.87399" lon="4.77247">
        <ele>241.43</ele>
        <time>2013-08-31T09:38:14Z</time>
      </trkpt>
      <trkpt lat="45.87399" lon="4.77248">
        <ele>241.43</ele>
        <time>2013-08-31T09:38:22Z</time>
      </trkpt>
      <trkpt lat="45.87399" lon="4.77248">
        <ele>238.54</ele>
        <time>2013-08-31T09:38:24Z</time>
      </trkpt>
      <trkpt lat="45.87399" lon="4.77248">
        <ele>241.91</ele>
        <time>2013-08-31T09:38:25Z</time>
      </trkpt>
      <trkpt lat="45.87399" lon="4.77248">
        <ele>240.95</ele>
        <time>2013-08-31T09:38:46Z</time>
      </trkpt>
      <trkpt lat="45.87399" lon="4.77248">
        <ele>240.47</ele>
        <time>2013-08-31T09:39:08Z</time>
      </trkpt>
      <trkpt lat="45.87399" lon="4.77248">
        <ele>240.47</ele>
        <time>2013-08-31T09:39:30Z</time>
      </trkpt>
      <trkpt lat="45.874" lon="4.77248">
        <ele>239.99</ele>
        <time>2013-08-31T09:39:58Z</time>
      </trkpt>
      <trkpt lat="45.874" lon="4.77248">
        <ele>238.54</ele>
        <time>2013-08-31T09:40:12Z</time>
      </trkpt>
      <trkpt lat="45.874" lon="4.77248">
        <ele>245.27</ele>
        <time>2013-08-31T09:40:13Z</time>
      </trkpt>
      <trkpt lat="45.874" lon="4.77248">
        <ele>245.27</ele>
        <time>2013-08-31T09:40:14Z</time>
      </trkpt>
      <trkpt lat="45.874" lon="4.77248">
        <ele>240.47</ele>
        <time>2013-08-31T09:40:15Z</time>
      </trkpt>
      <trkpt lat="45.874" lon="4.77248">
        <ele>240.95</ele>
        <time>2013-08-31T09:40:16Z</time>
      </trkpt>
      <trkpt lat="45.874" lon="4.77247">
        <ele>239.99</ele>
        <time>2013-08-31T09:40:27Z</time>
      </trkpt>
      <trkpt lat="45.87397" lon="4.77246">
        <ele>231.81</ele>
        <time>2013-08-31T09:40:39Z</time>
      </trkpt>
      <trkpt lat="45.87397" lon="4.77246">
        <ele>240.47</ele>
        <time>2013-08-31T09:40:40Z</time>
      </trkpt>
      <trkpt lat="45.87396" lon="4.77246">
        <ele>236.62</ele>
        <time>2013-08-31T09:40:57Z</time>
      </trkpt>
      <trkpt lat="45.87396" lon="4.77246">
        <ele>239.99</ele>
        <time>2013-08-31T09:40:58Z</time>
      </trkpt>
      <trkpt lat="45.87395" lon="4.77245">
        <ele>239.02</ele>
        <time>2013-08-31T09:41:09Z</time>
      </trkpt>
      <trkpt lat="45.87395" lon="4.77244">
        <ele>239.99</ele>
        <time>2013-08-31T09:41:25Z</time>
      </trkpt>
      <trkpt lat="45.87395" lon="4.77244">
        <ele>235.18</ele>
        <time>2013-08-31T09:41:27Z</time>
      </trkpt>
      <trkpt lat="45.87395" lon="4.77244">
        <ele>239.51</ele>
        <time>2013-08-31T09:41:28Z</time>
      </trkpt>
      <trkpt lat="45.87396" lon="4.77246">
        <ele>239.51</ele>
        <time>2013-08-31T09:41:45Z</time>
      </trkpt>
      <trkpt lat="45.87396" lon="4.77247">
        <ele>239.02</ele>
        <time>2013-08-31T09:41:59Z</time>
      </trkpt>
      <trkpt lat="45.87396" lon="4.77247">
        <ele>230.85</ele>
        <time>2013-08-31T09:42:03Z</time>
      </trkpt>
      <trkpt lat="45.87396" lon="4.77247">
        <ele>239.99</ele>
        <time>2013-08-31T09:42:04Z</time>
      </trkpt>
    </trkseg>
  </trk>
</gpx>